<?xml version="1.0" encoding="UTF-8" standalone="no" ?>
<gpx xmlns="http://www.topografix.com/GPX/1/1" xmlns:xsi="http://www.w3.org/2001/XMLSchema-instance" xsi:schemaLocation="http://www.topografix.com/GPX/1/1 http://www.topografix.com/GPX/1/1/gpx.xsd" version="1.1" creator="VisuGPX - https://www.visugpx.com">
  <metadata>
    <name>lacapelle multitrace</name>
  </metadata>
  <trk>
    <name><![CDATA[12330532-anjau]]></name>
    <extensions>
      <line xmlns="http://www.topografix.com/GPX/gpx_style/0/2">
        <color>0000FF</color>
        <width>4</width>
      </line>
    </extensions>
    <trkseg>
      <trkpt lat="44.60055" lon="0.89468">
        <ele>173</ele>
        <time>2020-12-13T20:08:10Z</time>
      </trkpt>
      <trkpt lat="44.59992" lon="0.89454">
        <ele>175</ele>
        <time>2020-12-13T20:08:25Z</time>
      </trkpt>
      <trkpt lat="44.59968" lon="0.89454">
        <ele>174</ele>
        <time>2020-12-13T20:08:31Z</time>
      </trkpt>
      <trkpt lat="44.59934" lon="0.89416">
        <ele>175</ele>
        <time>2020-12-13T20:08:41Z</time>
      </trkpt>
      <trkpt lat="44.59896" lon="0.89365">
        <ele>174</ele>
        <time>2020-12-13T20:08:53Z</time>
      </trkpt>
      <trkpt lat="44.59867" lon="0.89347">
        <ele>172</ele>
        <time>2020-12-13T20:09:00Z</time>
      </trkpt>
      <trkpt lat="44.59777" lon="0.8923">
        <ele>169</ele>
        <time>2020-12-13T20:09:29Z</time>
      </trkpt>
      <trkpt lat="44.59754" lon="0.89205">
        <ele>168</ele>
        <time>2020-12-13T20:09:36Z</time>
      </trkpt>
      <trkpt lat="44.59716" lon="0.89156">
        <ele>170</ele>
        <time>2020-12-13T20:09:48Z</time>
      </trkpt>
      <trkpt lat="44.59686" lon="0.89127">
        <ele>172</ele>
        <time>2020-12-13T20:09:56Z</time>
      </trkpt>
      <trkpt lat="44.5966" lon="0.89117">
        <ele>173</ele>
        <time>2020-12-13T20:10:03Z</time>
      </trkpt>
      <trkpt lat="44.59638" lon="0.89096">
        <ele>174</ele>
        <time>2020-12-13T20:10:09Z</time>
      </trkpt>
      <trkpt lat="44.59602" lon="0.8901">
        <ele>178</ele>
        <time>2020-12-13T20:10:25Z</time>
      </trkpt>
      <trkpt lat="44.59581" lon="0.8895">
        <ele>177</ele>
        <time>2020-12-13T20:10:37Z</time>
      </trkpt>
      <trkpt lat="44.5955" lon="0.88897">
        <ele>172</ele>
        <time>2020-12-13T20:10:48Z</time>
      </trkpt>
      <trkpt lat="44.59509" lon="0.88838">
        <ele>169</ele>
        <time>2020-12-13T20:11:02Z</time>
      </trkpt>
      <trkpt lat="44.59476" lon="0.88797">
        <ele>171</ele>
        <time>2020-12-13T20:11:12Z</time>
      </trkpt>
      <trkpt lat="44.59453" lon="0.88759">
        <ele>174</ele>
        <time>2020-12-13T20:11:20Z</time>
      </trkpt>
      <trkpt lat="44.59417" lon="0.88732">
        <ele>178</ele>
        <time>2020-12-13T20:11:30Z</time>
      </trkpt>
      <trkpt lat="44.5939" lon="0.88691">
        <ele>175</ele>
        <time>2020-12-13T20:11:39Z</time>
      </trkpt>
      <trkpt lat="44.59373" lon="0.88641">
        <ele>173</ele>
        <time>2020-12-13T20:11:48Z</time>
      </trkpt>
      <trkpt lat="44.59357" lon="0.88607">
        <ele>170</ele>
        <time>2020-12-13T20:11:55Z</time>
      </trkpt>
      <trkpt lat="44.59348" lon="0.88548">
        <ele>167</ele>
        <time>2020-12-13T20:12:05Z</time>
      </trkpt>
      <trkpt lat="44.59334" lon="0.88527">
        <ele>164</ele>
        <time>2020-12-13T20:12:10Z</time>
      </trkpt>
      <trkpt lat="44.59327" lon="0.88507">
        <ele>162</ele>
        <time>2020-12-13T20:12:14Z</time>
      </trkpt>
      <trkpt lat="44.59324" lon="0.88463">
        <ele>160</ele>
        <time>2020-12-13T20:12:21Z</time>
      </trkpt>
      <trkpt lat="44.59313" lon="0.88421">
        <ele>157</ele>
        <time>2020-12-13T20:12:28Z</time>
      </trkpt>
      <trkpt lat="44.59304" lon="0.88377">
        <ele>159</ele>
        <time>2020-12-13T20:12:36Z</time>
      </trkpt>
      <trkpt lat="44.59285" lon="0.88363">
        <ele>158</ele>
        <time>2020-12-13T20:12:41Z</time>
      </trkpt>
      <trkpt lat="44.59264" lon="0.88339">
        <ele>158</ele>
        <time>2020-12-13T20:12:47Z</time>
      </trkpt>
      <trkpt lat="44.59232" lon="0.88303">
        <ele>160</ele>
        <time>2020-12-13T20:12:57Z</time>
      </trkpt>
      <trkpt lat="44.59186" lon="0.88298">
        <ele>159</ele>
        <time>2020-12-13T20:13:08Z</time>
      </trkpt>
      <trkpt lat="44.59132" lon="0.88293">
        <ele>159</ele>
        <time>2020-12-13T20:13:20Z</time>
      </trkpt>
      <trkpt lat="44.59079" lon="0.88273">
        <ele>160</ele>
        <time>2020-12-13T20:13:33Z</time>
      </trkpt>
      <trkpt lat="44.59067" lon="0.88264">
        <ele>161</ele>
        <time>2020-12-13T20:13:36Z</time>
      </trkpt>
      <trkpt lat="44.59026" lon="0.88252">
        <ele>160</ele>
        <time>2020-12-13T20:13:46Z</time>
      </trkpt>
      <trkpt lat="44.59024" lon="0.88232">
        <ele>161</ele>
        <time>2020-12-13T20:13:49Z</time>
      </trkpt>
      <trkpt lat="44.59018" lon="0.88204">
        <ele>163</ele>
        <time>2020-12-13T20:13:54Z</time>
      </trkpt>
      <trkpt lat="44.58984" lon="0.88171">
        <ele>162</ele>
        <time>2020-12-13T20:14:04Z</time>
      </trkpt>
      <trkpt lat="44.58948" lon="0.88126">
        <ele>158</ele>
        <time>2020-12-13T20:14:15Z</time>
      </trkpt>
      <trkpt lat="44.58909" lon="0.88076">
        <ele>155</ele>
        <time>2020-12-13T20:14:28Z</time>
      </trkpt>
      <trkpt lat="44.58885" lon="0.88071">
        <ele>153</ele>
        <time>2020-12-13T20:14:33Z</time>
      </trkpt>
      <trkpt lat="44.58857" lon="0.88107">
        <ele>151</ele>
        <time>2020-12-13T20:14:42Z</time>
      </trkpt>
      <trkpt lat="44.58827" lon="0.88104">
        <ele>150</ele>
        <time>2020-12-13T20:14:49Z</time>
      </trkpt>
      <trkpt lat="44.58789" lon="0.8809">
        <ele>151</ele>
        <time>2020-12-13T20:14:58Z</time>
      </trkpt>
      <trkpt lat="44.58754" lon="0.8809">
        <ele>152</ele>
        <time>2020-12-13T20:15:06Z</time>
      </trkpt>
      <trkpt lat="44.58698" lon="0.88112">
        <ele>159</ele>
        <time>2020-12-13T20:15:20Z</time>
      </trkpt>
      <trkpt lat="44.58602" lon="0.88094">
        <ele>161</ele>
        <time>2020-12-13T20:15:43Z</time>
      </trkpt>
      <trkpt lat="44.58578" lon="0.88081">
        <ele>160</ele>
        <time>2020-12-13T20:15:49Z</time>
      </trkpt>
      <trkpt lat="44.58561" lon="0.88072">
        <ele>159</ele>
        <time>2020-12-13T20:15:53Z</time>
      </trkpt>
      <trkpt lat="44.58528" lon="0.88102">
        <ele>159</ele>
        <time>2020-12-13T20:16:02Z</time>
      </trkpt>
      <trkpt lat="44.58478" lon="0.88117">
        <ele>159</ele>
        <time>2020-12-13T20:16:14Z</time>
      </trkpt>
      <trkpt lat="44.58439" lon="0.8813">
        <ele>162</ele>
        <time>2020-12-13T20:16:23Z</time>
      </trkpt>
      <trkpt lat="44.58383" lon="0.88166">
        <ele>173</ele>
        <time>2020-12-13T20:16:38Z</time>
      </trkpt>
      <trkpt lat="44.58339" lon="0.88182">
        <ele>180</ele>
        <time>2020-12-13T20:16:48Z</time>
      </trkpt>
      <trkpt lat="44.58312" lon="0.88189">
        <ele>183</ele>
        <time>2020-12-13T20:16:55Z</time>
      </trkpt>
      <trkpt lat="44.58286" lon="0.88206">
        <ele>186</ele>
        <time>2020-12-13T20:17:01Z</time>
      </trkpt>
      <trkpt lat="44.58231" lon="0.8821">
        <ele>191</ele>
        <time>2020-12-13T20:17:14Z</time>
      </trkpt>
      <trkpt lat="44.582" lon="0.88227">
        <ele>192</ele>
        <time>2020-12-13T20:17:22Z</time>
      </trkpt>
      <trkpt lat="44.58176" lon="0.88237">
        <ele>194</ele>
        <time>2020-12-13T20:17:28Z</time>
      </trkpt>
      <trkpt lat="44.58149" lon="0.88274">
        <ele>196</ele>
        <time>2020-12-13T20:17:37Z</time>
      </trkpt>
      <trkpt lat="44.58103" lon="0.88303">
        <ele>197</ele>
        <time>2020-12-13T20:17:49Z</time>
      </trkpt>
      <trkpt lat="44.5808" lon="0.88333">
        <ele>201</ele>
        <time>2020-12-13T20:17:56Z</time>
      </trkpt>
      <trkpt lat="44.58059" lon="0.88349">
        <ele>201</ele>
        <time>2020-12-13T20:18:01Z</time>
      </trkpt>
      <trkpt lat="44.58007" lon="0.88381">
        <ele>200</ele>
        <time>2020-12-13T20:18:15Z</time>
      </trkpt>
      <trkpt lat="44.57943" lon="0.88416">
        <ele>203</ele>
        <time>2020-12-13T20:18:31Z</time>
      </trkpt>
      <trkpt lat="44.57904" lon="0.88451">
        <ele>204</ele>
        <time>2020-12-13T20:18:42Z</time>
      </trkpt>
      <trkpt lat="44.57857" lon="0.88479">
        <ele>207</ele>
        <time>2020-12-13T20:18:53Z</time>
      </trkpt>
      <trkpt lat="44.57832" lon="0.88497">
        <ele>210</ele>
        <time>2020-12-13T20:19:00Z</time>
      </trkpt>
      <trkpt lat="44.57793" lon="0.88501">
        <ele>209</ele>
        <time>2020-12-13T20:19:09Z</time>
      </trkpt>
      <trkpt lat="44.57742" lon="0.88527">
        <ele>208</ele>
        <time>2020-12-13T20:19:22Z</time>
      </trkpt>
      <trkpt lat="44.5771" lon="0.88552">
        <ele>206</ele>
        <time>2020-12-13T20:19:30Z</time>
      </trkpt>
      <trkpt lat="44.57646" lon="0.88557">
        <ele>204</ele>
        <time>2020-12-13T20:19:45Z</time>
      </trkpt>
      <trkpt lat="44.57547" lon="0.88556">
        <ele>205</ele>
        <time>2020-12-13T20:20:08Z</time>
      </trkpt>
      <trkpt lat="44.57499" lon="0.88557">
        <ele>205</ele>
        <time>2020-12-13T20:20:20Z</time>
      </trkpt>
      <trkpt lat="44.57424" lon="0.88608">
        <ele>201</ele>
        <time>2020-12-13T20:20:39Z</time>
      </trkpt>
      <trkpt lat="44.57398" lon="0.8863">
        <ele>197</ele>
        <time>2020-12-13T20:20:46Z</time>
      </trkpt>
      <trkpt lat="44.57316" lon="0.88659">
        <ele>191</ele>
        <time>2020-12-13T20:21:06Z</time>
      </trkpt>
      <trkpt lat="44.57238" lon="0.88694">
        <ele>186</ele>
        <time>2020-12-13T20:21:25Z</time>
      </trkpt>
      <trkpt lat="44.5722" lon="0.88722">
        <ele>184</ele>
        <time>2020-12-13T20:21:31Z</time>
      </trkpt>
      <trkpt lat="44.57197" lon="0.88763">
        <ele>184</ele>
        <time>2020-12-13T20:21:40Z</time>
      </trkpt>
      <trkpt lat="44.5716" lon="0.88815">
        <ele>184</ele>
        <time>2020-12-13T20:21:52Z</time>
      </trkpt>
      <trkpt lat="44.57143" lon="0.8883">
        <ele>184</ele>
        <time>2020-12-13T20:21:57Z</time>
      </trkpt>
      <trkpt lat="44.57116" lon="0.88869">
        <ele>182</ele>
        <time>2020-12-13T20:22:06Z</time>
      </trkpt>
      <trkpt lat="44.57092" lon="0.88911">
        <ele>181</ele>
        <time>2020-12-13T20:22:15Z</time>
      </trkpt>
      <trkpt lat="44.57062" lon="0.8897">
        <ele>178</ele>
        <time>2020-12-13T20:22:27Z</time>
      </trkpt>
      <trkpt lat="44.57034" lon="0.89005">
        <ele>178</ele>
        <time>2020-12-13T20:22:36Z</time>
      </trkpt>
      <trkpt lat="44.57007" lon="0.89037">
        <ele>178</ele>
        <time>2020-12-13T20:22:44Z</time>
      </trkpt>
      <trkpt lat="44.56987" lon="0.89063">
        <ele>176</ele>
        <time>2020-12-13T20:22:50Z</time>
      </trkpt>
      <trkpt lat="44.56968" lon="0.89073">
        <ele>176</ele>
        <time>2020-12-13T20:22:55Z</time>
      </trkpt>
      <trkpt lat="44.56958" lon="0.8909">
        <ele>176</ele>
        <time>2020-12-13T20:22:59Z</time>
      </trkpt>
      <trkpt lat="44.56984" lon="0.89134">
        <ele>174</ele>
        <time>2020-12-13T20:23:08Z</time>
      </trkpt>
      <trkpt lat="44.57005" lon="0.89177">
        <ele>175</ele>
        <time>2020-12-13T20:23:17Z</time>
      </trkpt>
      <trkpt lat="44.56997" lon="0.89206">
        <ele>176</ele>
        <time>2020-12-13T20:23:22Z</time>
      </trkpt>
      <trkpt lat="44.56954" lon="0.89237">
        <ele>176</ele>
        <time>2020-12-13T20:23:33Z</time>
      </trkpt>
      <trkpt lat="44.56894" lon="0.89276">
        <ele>177</ele>
        <time>2020-12-13T20:23:49Z</time>
      </trkpt>
      <trkpt lat="44.56875" lon="0.89281">
        <ele>177</ele>
        <time>2020-12-13T20:23:53Z</time>
      </trkpt>
      <trkpt lat="44.56837" lon="0.8929">
        <ele>176</ele>
        <time>2020-12-13T20:24:02Z</time>
      </trkpt>
      <trkpt lat="44.56806" lon="0.89294">
        <ele>176</ele>
        <time>2020-12-13T20:24:10Z</time>
      </trkpt>
      <trkpt lat="44.5678" lon="0.89298">
        <ele>176</ele>
        <time>2020-12-13T20:24:16Z</time>
      </trkpt>
      <trkpt lat="44.5675" lon="0.89303">
        <ele>175</ele>
        <time>2020-12-13T20:24:23Z</time>
      </trkpt>
      <trkpt lat="44.5673" lon="0.89339">
        <ele>177</ele>
        <time>2020-12-13T20:24:30Z</time>
      </trkpt>
      <trkpt lat="44.56712" lon="0.89359">
        <ele>178</ele>
        <time>2020-12-13T20:24:36Z</time>
      </trkpt>
      <trkpt lat="44.56685" lon="0.89369">
        <ele>178</ele>
        <time>2020-12-13T20:24:42Z</time>
      </trkpt>
      <trkpt lat="44.56664" lon="0.89365">
        <ele>176</ele>
        <time>2020-12-13T20:24:47Z</time>
      </trkpt>
      <trkpt lat="44.56629" lon="0.89383">
        <ele>178</ele>
        <time>2020-12-13T20:24:56Z</time>
      </trkpt>
      <trkpt lat="44.566" lon="0.8939">
        <ele>178</ele>
        <time>2020-12-13T20:25:03Z</time>
      </trkpt>
      <trkpt lat="44.56565" lon="0.89403">
        <ele>179</ele>
        <time>2020-12-13T20:25:11Z</time>
      </trkpt>
      <trkpt lat="44.56526" lon="0.89394">
        <ele>179</ele>
        <time>2020-12-13T20:25:21Z</time>
      </trkpt>
      <trkpt lat="44.56497" lon="0.8939">
        <ele>179</ele>
        <time>2020-12-13T20:25:27Z</time>
      </trkpt>
      <trkpt lat="44.5648" lon="0.89403">
        <ele>179</ele>
        <time>2020-12-13T20:25:32Z</time>
      </trkpt>
      <trkpt lat="44.56457" lon="0.89423">
        <ele>181</ele>
        <time>2020-12-13T20:25:38Z</time>
      </trkpt>
      <trkpt lat="44.5644" lon="0.89424">
        <ele>181</ele>
        <time>2020-12-13T20:25:42Z</time>
      </trkpt>
      <trkpt lat="44.56411" lon="0.89413">
        <ele>180</ele>
        <time>2020-12-13T20:25:49Z</time>
      </trkpt>
      <trkpt lat="44.56403" lon="0.89432">
        <ele>182</ele>
        <time>2020-12-13T20:25:53Z</time>
      </trkpt>
      <trkpt lat="44.56379" lon="0.89441">
        <ele>183</ele>
        <time>2020-12-13T20:25:59Z</time>
      </trkpt>
      <trkpt lat="44.5634" lon="0.89459">
        <ele>185</ele>
        <time>2020-12-13T20:26:08Z</time>
      </trkpt>
      <trkpt lat="44.56316" lon="0.89466">
        <ele>183</ele>
        <time>2020-12-13T20:26:14Z</time>
      </trkpt>
      <trkpt lat="44.56298" lon="0.89492">
        <ele>181</ele>
        <time>2020-12-13T20:26:20Z</time>
      </trkpt>
      <trkpt lat="44.56277" lon="0.89524">
        <ele>180</ele>
        <time>2020-12-13T20:26:27Z</time>
      </trkpt>
      <trkpt lat="44.56266" lon="0.89551">
        <ele>181</ele>
        <time>2020-12-13T20:26:32Z</time>
      </trkpt>
      <trkpt lat="44.56247" lon="0.89579">
        <ele>181</ele>
        <time>2020-12-13T20:26:39Z</time>
      </trkpt>
      <trkpt lat="44.56236" lon="0.89618">
        <ele>182</ele>
        <time>2020-12-13T20:26:46Z</time>
      </trkpt>
      <trkpt lat="44.56242" lon="0.89646">
        <ele>182</ele>
        <time>2020-12-13T20:26:51Z</time>
      </trkpt>
      <trkpt lat="44.56246" lon="0.89674">
        <ele>183</ele>
        <time>2020-12-13T20:26:55Z</time>
      </trkpt>
      <trkpt lat="44.56251" lon="0.89697">
        <ele>183</ele>
        <time>2020-12-13T20:26:59Z</time>
      </trkpt>
      <trkpt lat="44.56245" lon="0.89724">
        <ele>182</ele>
        <time>2020-12-13T20:27:04Z</time>
      </trkpt>
      <trkpt lat="44.5623" lon="0.89784">
        <ele>182</ele>
        <time>2020-12-13T20:27:15Z</time>
      </trkpt>
      <trkpt lat="44.56214" lon="0.89834">
        <ele>184</ele>
        <time>2020-12-13T20:27:24Z</time>
      </trkpt>
      <trkpt lat="44.56176" lon="0.89889">
        <ele>192</ele>
        <time>2020-12-13T20:27:37Z</time>
      </trkpt>
      <trkpt lat="44.56151" lon="0.89916">
        <ele>194</ele>
        <time>2020-12-13T20:27:44Z</time>
      </trkpt>
      <trkpt lat="44.56139" lon="0.89942">
        <ele>194</ele>
        <time>2020-12-13T20:27:49Z</time>
      </trkpt>
      <trkpt lat="44.56125" lon="0.89967">
        <ele>194</ele>
        <time>2020-12-13T20:27:54Z</time>
      </trkpt>
      <trkpt lat="44.56125" lon="0.89987">
        <ele>194</ele>
        <time>2020-12-13T20:27:58Z</time>
      </trkpt>
      <trkpt lat="44.56147" lon="0.90074">
        <ele>201</ele>
        <time>2020-12-13T20:28:13Z</time>
      </trkpt>
      <trkpt lat="44.56174" lon="0.90161">
        <ele>205</ele>
        <time>2020-12-13T20:28:29Z</time>
      </trkpt>
      <trkpt lat="44.56197" lon="0.90244">
        <ele>206</ele>
        <time>2020-12-13T20:28:44Z</time>
      </trkpt>
      <trkpt lat="44.56226" lon="0.90324">
        <ele>208</ele>
        <time>2020-12-13T20:28:59Z</time>
      </trkpt>
      <trkpt lat="44.56239" lon="0.9037">
        <ele>209</ele>
        <time>2020-12-13T20:29:07Z</time>
      </trkpt>
      <trkpt lat="44.56213" lon="0.90415">
        <ele>210</ele>
        <time>2020-12-13T20:29:17Z</time>
      </trkpt>
      <trkpt lat="44.56192" lon="0.90471">
        <ele>211</ele>
        <time>2020-12-13T20:29:27Z</time>
      </trkpt>
      <trkpt lat="44.56172" lon="0.90521">
        <ele>212</ele>
        <time>2020-12-13T20:29:37Z</time>
      </trkpt>
      <trkpt lat="44.56161" lon="0.90557">
        <ele>211</ele>
        <time>2020-12-13T20:29:43Z</time>
      </trkpt>
      <trkpt lat="44.5615" lon="0.906">
        <ele>210</ele>
        <time>2020-12-13T20:29:51Z</time>
      </trkpt>
      <trkpt lat="44.56146" lon="0.90646">
        <ele>211</ele>
        <time>2020-12-13T20:29:58Z</time>
      </trkpt>
      <trkpt lat="44.56136" lon="0.9068">
        <ele>212</ele>
        <time>2020-12-13T20:30:05Z</time>
      </trkpt>
      <trkpt lat="44.56115" lon="0.90717">
        <ele>212</ele>
        <time>2020-12-13T20:30:12Z</time>
      </trkpt>
      <trkpt lat="44.56093" lon="0.90768">
        <ele>214</ele>
        <time>2020-12-13T20:30:22Z</time>
      </trkpt>
      <trkpt lat="44.56083" lon="0.90808">
        <ele>215</ele>
        <time>2020-12-13T20:30:29Z</time>
      </trkpt>
      <trkpt lat="44.56077" lon="0.90841">
        <ele>215</ele>
        <time>2020-12-13T20:30:35Z</time>
      </trkpt>
      <trkpt lat="44.56101" lon="0.90892">
        <ele>213</ele>
        <time>2020-12-13T20:30:45Z</time>
      </trkpt>
      <trkpt lat="44.56112" lon="0.90957">
        <ele>209</ele>
        <time>2020-12-13T20:30:56Z</time>
      </trkpt>
      <trkpt lat="44.56117" lon="0.90975">
        <ele>207</ele>
        <time>2020-12-13T20:31:00Z</time>
      </trkpt>
      <trkpt lat="44.56148" lon="0.91038">
        <ele>198</ele>
        <time>2020-12-13T20:31:12Z</time>
      </trkpt>
      <trkpt lat="44.56161" lon="0.91077">
        <ele>194</ele>
        <time>2020-12-13T20:31:19Z</time>
      </trkpt>
      <trkpt lat="44.56176" lon="0.91108">
        <ele>195</ele>
        <time>2020-12-13T20:31:26Z</time>
      </trkpt>
      <trkpt lat="44.56181" lon="0.91154">
        <ele>197</ele>
        <time>2020-12-13T20:31:33Z</time>
      </trkpt>
      <trkpt lat="44.56205" lon="0.91219">
        <ele>202</ele>
        <time>2020-12-13T20:31:46Z</time>
      </trkpt>
      <trkpt lat="44.56224" lon="0.91267">
        <ele>204</ele>
        <time>2020-12-13T20:31:55Z</time>
      </trkpt>
      <trkpt lat="44.56241" lon="0.91342">
        <ele>207</ele>
        <time>2020-12-13T20:32:08Z</time>
      </trkpt>
      <trkpt lat="44.56253" lon="0.9139">
        <ele>212</ele>
        <time>2020-12-13T20:32:16Z</time>
      </trkpt>
      <trkpt lat="44.5624" lon="0.91445">
        <ele>215</ele>
        <time>2020-12-13T20:32:26Z</time>
      </trkpt>
      <trkpt lat="44.56223" lon="0.91498">
        <ele>216</ele>
        <time>2020-12-13T20:32:36Z</time>
      </trkpt>
      <trkpt lat="44.56217" lon="0.91551">
        <ele>217</ele>
        <time>2020-12-13T20:32:45Z</time>
      </trkpt>
      <trkpt lat="44.56212" lon="0.91587">
        <ele>217</ele>
        <time>2020-12-13T20:32:51Z</time>
      </trkpt>
      <trkpt lat="44.56241" lon="0.91609">
        <ele>214</ele>
        <time>2020-12-13T20:32:58Z</time>
      </trkpt>
      <trkpt lat="44.56287" lon="0.91609">
        <ele>215</ele>
        <time>2020-12-13T20:33:09Z</time>
      </trkpt>
      <trkpt lat="44.56322" lon="0.91622">
        <ele>215</ele>
        <time>2020-12-13T20:33:18Z</time>
      </trkpt>
      <trkpt lat="44.56358" lon="0.91651">
        <ele>212</ele>
        <time>2020-12-13T20:33:27Z</time>
      </trkpt>
      <trkpt lat="44.56374" lon="0.9166">
        <ele>212</ele>
        <time>2020-12-13T20:33:31Z</time>
      </trkpt>
      <trkpt lat="44.56386" lon="0.91685">
        <ele>212</ele>
        <time>2020-12-13T20:33:36Z</time>
      </trkpt>
      <trkpt lat="44.56388" lon="0.91704">
        <ele>212</ele>
        <time>2020-12-13T20:33:39Z</time>
      </trkpt>
      <trkpt lat="44.56401" lon="0.91729">
        <ele>214</ele>
        <time>2020-12-13T20:33:45Z</time>
      </trkpt>
      <trkpt lat="44.56424" lon="0.91751">
        <ele>217</ele>
        <time>2020-12-13T20:33:51Z</time>
      </trkpt>
      <trkpt lat="44.56437" lon="0.9178">
        <ele>219</ele>
        <time>2020-12-13T20:33:57Z</time>
      </trkpt>
      <trkpt lat="44.56446" lon="0.91826">
        <ele>220</ele>
        <time>2020-12-13T20:34:05Z</time>
      </trkpt>
      <trkpt lat="44.56446" lon="0.91867">
        <ele>219</ele>
        <time>2020-12-13T20:34:12Z</time>
      </trkpt>
      <trkpt lat="44.56431" lon="0.91889">
        <ele>219</ele>
        <time>2020-12-13T20:34:17Z</time>
      </trkpt>
      <trkpt lat="44.56399" lon="0.91914">
        <ele>221</ele>
        <time>2020-12-13T20:34:25Z</time>
      </trkpt>
      <trkpt lat="44.56347" lon="0.91948">
        <ele>226</ele>
        <time>2020-12-13T20:34:39Z</time>
      </trkpt>
      <trkpt lat="44.56319" lon="0.91962">
        <ele>228</ele>
        <time>2020-12-13T20:34:46Z</time>
      </trkpt>
      <trkpt lat="44.56286" lon="0.91971">
        <ele>229</ele>
        <time>2020-12-13T20:34:53Z</time>
      </trkpt>
      <trkpt lat="44.56237" lon="0.91985">
        <ele>230</ele>
        <time>2020-12-13T20:35:05Z</time>
      </trkpt>
      <trkpt lat="44.56194" lon="0.91997">
        <ele>230</ele>
        <time>2020-12-13T20:35:15Z</time>
      </trkpt>
      <trkpt lat="44.56113" lon="0.92015">
        <ele>225</ele>
        <time>2020-12-13T20:35:34Z</time>
      </trkpt>
      <trkpt lat="44.56095" lon="0.92021">
        <ele>224</ele>
        <time>2020-12-13T20:35:39Z</time>
      </trkpt>
      <trkpt lat="44.56067" lon="0.92047">
        <ele>218</ele>
        <time>2020-12-13T20:35:47Z</time>
      </trkpt>
      <trkpt lat="44.56059" lon="0.92095">
        <ele>214</ele>
        <time>2020-12-13T20:35:55Z</time>
      </trkpt>
      <trkpt lat="44.56047" lon="0.9216">
        <ele>211</ele>
        <time>2020-12-13T20:36:06Z</time>
      </trkpt>
      <trkpt lat="44.56019" lon="0.92251">
        <ele>213</ele>
        <time>2020-12-13T20:36:22Z</time>
      </trkpt>
      <trkpt lat="44.56008" lon="0.92308">
        <ele>214</ele>
        <time>2020-12-13T20:36:32Z</time>
      </trkpt>
      <trkpt lat="44.55998" lon="0.92343">
        <ele>214</ele>
        <time>2020-12-13T20:36:39Z</time>
      </trkpt>
      <trkpt lat="44.56001" lon="0.9239">
        <ele>215</ele>
        <time>2020-12-13T20:36:46Z</time>
      </trkpt>
      <trkpt lat="44.55976" lon="0.92439">
        <ele>215</ele>
        <time>2020-12-13T20:36:56Z</time>
      </trkpt>
      <trkpt lat="44.55954" lon="0.92491">
        <ele>215</ele>
        <time>2020-12-13T20:37:07Z</time>
      </trkpt>
      <trkpt lat="44.55925" lon="0.92606">
        <ele>218</ele>
        <time>2020-12-13T20:37:27Z</time>
      </trkpt>
      <trkpt lat="44.55908" lon="0.92646">
        <ele>219</ele>
        <time>2020-12-13T20:37:35Z</time>
      </trkpt>
      <trkpt lat="44.55859" lon="0.92728">
        <ele>213</ele>
        <time>2020-12-13T20:37:52Z</time>
      </trkpt>
      <trkpt lat="44.55821" lon="0.92789">
        <ele>209</ele>
        <time>2020-12-13T20:38:06Z</time>
      </trkpt>
      <trkpt lat="44.55814" lon="0.92892">
        <ele>209</ele>
        <time>2020-12-13T20:38:23Z</time>
      </trkpt>
      <trkpt lat="44.55805" lon="0.92976">
        <ele>211</ele>
        <time>2020-12-13T20:38:37Z</time>
      </trkpt>
      <trkpt lat="44.55796" lon="0.93043">
        <ele>211</ele>
        <time>2020-12-13T20:38:49Z</time>
      </trkpt>
      <trkpt lat="44.55768" lon="0.93105">
        <ele>210</ele>
        <time>2020-12-13T20:39:01Z</time>
      </trkpt>
      <trkpt lat="44.55746" lon="0.93201">
        <ele>207</ele>
        <time>2020-12-13T20:39:18Z</time>
      </trkpt>
      <trkpt lat="44.55734" lon="0.93338">
        <ele>215</ele>
        <time>2020-12-13T20:39:41Z</time>
      </trkpt>
      <trkpt lat="44.55724" lon="0.93389">
        <ele>218</ele>
        <time>2020-12-13T20:39:49Z</time>
      </trkpt>
      <trkpt lat="44.55695" lon="0.93459">
        <ele>217</ele>
        <time>2020-12-13T20:40:03Z</time>
      </trkpt>
      <trkpt lat="44.55668" lon="0.93543">
        <ele>209</ele>
        <time>2020-12-13T20:40:18Z</time>
      </trkpt>
      <trkpt lat="44.5564" lon="0.93586">
        <ele>202</ele>
        <time>2020-12-13T20:40:28Z</time>
      </trkpt>
      <trkpt lat="44.5561" lon="0.93611">
        <ele>197</ele>
        <time>2020-12-13T20:40:36Z</time>
      </trkpt>
      <trkpt lat="44.55582" lon="0.93627">
        <ele>194</ele>
        <time>2020-12-13T20:40:43Z</time>
      </trkpt>
      <trkpt lat="44.55609" lon="0.93665">
        <ele>190</ele>
        <time>2020-12-13T20:40:52Z</time>
      </trkpt>
      <trkpt lat="44.5563" lon="0.93683">
        <ele>189</ele>
        <time>2020-12-13T20:40:58Z</time>
      </trkpt>
      <trkpt lat="44.55672" lon="0.9369">
        <ele>189</ele>
        <time>2020-12-13T20:41:08Z</time>
      </trkpt>
      <trkpt lat="44.55706" lon="0.9372">
        <ele>187</ele>
        <time>2020-12-13T20:41:17Z</time>
      </trkpt>
      <trkpt lat="44.55745" lon="0.93751">
        <ele>183</ele>
        <time>2020-12-13T20:41:27Z</time>
      </trkpt>
      <trkpt lat="44.55788" lon="0.93771">
        <ele>179</ele>
        <time>2020-12-13T20:41:38Z</time>
      </trkpt>
      <trkpt lat="44.55811" lon="0.93786">
        <ele>176</ele>
        <time>2020-12-13T20:41:44Z</time>
      </trkpt>
      <trkpt lat="44.55835" lon="0.93766">
        <ele>178</ele>
        <time>2020-12-13T20:41:50Z</time>
      </trkpt>
      <trkpt lat="44.55864" lon="0.93739">
        <ele>176</ele>
        <time>2020-12-13T20:41:59Z</time>
      </trkpt>
      <trkpt lat="44.55882" lon="0.93645">
        <ele>184</ele>
        <time>2020-12-13T20:42:15Z</time>
      </trkpt>
      <trkpt lat="44.55909" lon="0.9353">
        <ele>188</ele>
        <time>2020-12-13T20:42:35Z</time>
      </trkpt>
      <trkpt lat="44.55956" lon="0.93404">
        <ele>179</ele>
        <time>2020-12-13T20:42:59Z</time>
      </trkpt>
      <trkpt lat="44.55976" lon="0.93331">
        <ele>175</ele>
        <time>2020-12-13T20:43:12Z</time>
      </trkpt>
      <trkpt lat="44.56023" lon="0.93295">
        <ele>173</ele>
        <time>2020-12-13T20:43:24Z</time>
      </trkpt>
      <trkpt lat="44.56098" lon="0.93273">
        <ele>176</ele>
        <time>2020-12-13T20:43:42Z</time>
      </trkpt>
      <trkpt lat="44.56149" lon="0.93275">
        <ele>181</ele>
        <time>2020-12-13T20:43:54Z</time>
      </trkpt>
      <trkpt lat="44.56195" lon="0.9325">
        <ele>181</ele>
        <time>2020-12-13T20:44:05Z</time>
      </trkpt>
      <trkpt lat="44.56244" lon="0.93201">
        <ele>180</ele>
        <time>2020-12-13T20:44:20Z</time>
      </trkpt>
      <trkpt lat="44.5626" lon="0.93179">
        <ele>179</ele>
        <time>2020-12-13T20:44:25Z</time>
      </trkpt>
      <trkpt lat="44.56304" lon="0.93202">
        <ele>186</ele>
        <time>2020-12-13T20:44:36Z</time>
      </trkpt>
      <trkpt lat="44.56337" lon="0.93267">
        <ele>193</ele>
        <time>2020-12-13T20:44:49Z</time>
      </trkpt>
      <trkpt lat="44.56413" lon="0.93261">
        <ele>196</ele>
        <time>2020-12-13T20:45:07Z</time>
      </trkpt>
      <trkpt lat="44.56483" lon="0.93249">
        <ele>204</ele>
        <time>2020-12-13T20:45:23Z</time>
      </trkpt>
      <trkpt lat="44.56537" lon="0.93236">
        <ele>213</ele>
        <time>2020-12-13T20:45:36Z</time>
      </trkpt>
      <trkpt lat="44.56589" lon="0.93236">
        <ele>223</ele>
        <time>2020-12-13T20:45:48Z</time>
      </trkpt>
      <trkpt lat="44.56629" lon="0.93266">
        <ele>231</ele>
        <time>2020-12-13T20:45:59Z</time>
      </trkpt>
      <trkpt lat="44.56689" lon="0.93277">
        <ele>239</ele>
        <time>2020-12-13T20:46:13Z</time>
      </trkpt>
      <trkpt lat="44.56723" lon="0.93244">
        <ele>244</ele>
        <time>2020-12-13T20:46:23Z</time>
      </trkpt>
      <trkpt lat="44.5681" lon="0.93298">
        <ele>241</ele>
        <time>2020-12-13T20:46:45Z</time>
      </trkpt>
      <trkpt lat="44.56813" lon="0.9326">
        <ele>242</ele>
        <time>2020-12-13T20:46:51Z</time>
      </trkpt>
      <trkpt lat="44.56791" lon="0.93218">
        <ele>243</ele>
        <time>2020-12-13T20:47:00Z</time>
      </trkpt>
      <trkpt lat="44.56764" lon="0.93146">
        <ele>245</ele>
        <time>2020-12-13T20:47:13Z</time>
      </trkpt>
      <trkpt lat="44.56765" lon="0.93057">
        <ele>245</ele>
        <time>2020-12-13T20:47:28Z</time>
      </trkpt>
      <trkpt lat="44.56764" lon="0.92986">
        <ele>246</ele>
        <time>2020-12-13T20:47:40Z</time>
      </trkpt>
      <trkpt lat="44.56818" lon="0.92966">
        <ele>246</ele>
        <time>2020-12-13T20:47:53Z</time>
      </trkpt>
      <trkpt lat="44.56852" lon="0.92958">
        <ele>245</ele>
        <time>2020-12-13T20:48:01Z</time>
      </trkpt>
      <trkpt lat="44.56899" lon="0.92932">
        <ele>245</ele>
        <time>2020-12-13T20:48:13Z</time>
      </trkpt>
      <trkpt lat="44.56955" lon="0.9293">
        <ele>247</ele>
        <time>2020-12-13T20:48:26Z</time>
      </trkpt>
      <trkpt lat="44.5701" lon="0.92948">
        <ele>248</ele>
        <time>2020-12-13T20:48:39Z</time>
      </trkpt>
      <trkpt lat="44.57069" lon="0.9296">
        <ele>248</ele>
        <time>2020-12-13T20:48:53Z</time>
      </trkpt>
      <trkpt lat="44.57129" lon="0.92953">
        <ele>248</ele>
        <time>2020-12-13T20:49:07Z</time>
      </trkpt>
      <trkpt lat="44.57157" lon="0.92924">
        <ele>249</ele>
        <time>2020-12-13T20:49:15Z</time>
      </trkpt>
      <trkpt lat="44.57192" lon="0.92899">
        <ele>249</ele>
        <time>2020-12-13T20:49:24Z</time>
      </trkpt>
      <trkpt lat="44.57243" lon="0.92892">
        <ele>248</ele>
        <time>2020-12-13T20:49:36Z</time>
      </trkpt>
      <trkpt lat="44.57298" lon="0.92879">
        <ele>247</ele>
        <time>2020-12-13T20:49:49Z</time>
      </trkpt>
      <trkpt lat="44.57363" lon="0.92841">
        <ele>246</ele>
        <time>2020-12-13T20:50:06Z</time>
      </trkpt>
      <trkpt lat="44.57412" lon="0.92824">
        <ele>246</ele>
        <time>2020-12-13T20:50:18Z</time>
      </trkpt>
      <trkpt lat="44.57441" lon="0.92817">
        <ele>244</ele>
        <time>2020-12-13T20:50:24Z</time>
      </trkpt>
      <trkpt lat="44.5746" lon="0.92887">
        <ele>242</ele>
        <time>2020-12-13T20:50:37Z</time>
      </trkpt>
      <trkpt lat="44.5747" lon="0.92942">
        <ele>240</ele>
        <time>2020-12-13T20:50:46Z</time>
      </trkpt>
      <trkpt lat="44.57505" lon="0.92939">
        <ele>239</ele>
        <time>2020-12-13T20:50:55Z</time>
      </trkpt>
      <trkpt lat="44.57513" lon="0.92891">
        <ele>239</ele>
        <time>2020-12-13T20:51:03Z</time>
      </trkpt>
      <trkpt lat="44.57529" lon="0.92861">
        <ele>238</ele>
        <time>2020-12-13T20:51:09Z</time>
      </trkpt>
      <trkpt lat="44.57546" lon="0.92842">
        <ele>237</ele>
        <time>2020-12-13T20:51:14Z</time>
      </trkpt>
      <trkpt lat="44.57602" lon="0.92817">
        <ele>238</ele>
        <time>2020-12-13T20:51:28Z</time>
      </trkpt>
      <trkpt lat="44.57659" lon="0.92793">
        <ele>241</ele>
        <time>2020-12-13T20:51:42Z</time>
      </trkpt>
      <trkpt lat="44.57685" lon="0.92788">
        <ele>243</ele>
        <time>2020-12-13T20:51:48Z</time>
      </trkpt>
      <trkpt lat="44.57739" lon="0.92762">
        <ele>248</ele>
        <time>2020-12-13T20:52:01Z</time>
      </trkpt>
      <trkpt lat="44.57767" lon="0.92746">
        <ele>249</ele>
        <time>2020-12-13T20:52:08Z</time>
      </trkpt>
      <trkpt lat="44.57809" lon="0.9278">
        <ele>249</ele>
        <time>2020-12-13T20:52:20Z</time>
      </trkpt>
      <trkpt lat="44.57835" lon="0.92804">
        <ele>248</ele>
        <time>2020-12-13T20:52:27Z</time>
      </trkpt>
      <trkpt lat="44.57865" lon="0.92858">
        <ele>243</ele>
        <time>2020-12-13T20:52:38Z</time>
      </trkpt>
      <trkpt lat="44.57885" lon="0.92926">
        <ele>239</ele>
        <time>2020-12-13T20:52:50Z</time>
      </trkpt>
      <trkpt lat="44.57894" lon="0.92965">
        <ele>239</ele>
        <time>2020-12-13T20:52:57Z</time>
      </trkpt>
      <trkpt lat="44.57938" lon="0.93016">
        <ele>236</ele>
        <time>2020-12-13T20:53:11Z</time>
      </trkpt>
      <trkpt lat="44.57996" lon="0.93043">
        <ele>229</ele>
        <time>2020-12-13T20:53:25Z</time>
      </trkpt>
      <trkpt lat="44.58061" lon="0.93058">
        <ele>220</ele>
        <time>2020-12-13T20:53:40Z</time>
      </trkpt>
      <trkpt lat="44.58098" lon="0.93073">
        <ele>216</ele>
        <time>2020-12-13T20:53:49Z</time>
      </trkpt>
      <trkpt lat="44.58148" lon="0.93057">
        <ele>215</ele>
        <time>2020-12-13T20:54:01Z</time>
      </trkpt>
      <trkpt lat="44.58208" lon="0.93014">
        <ele>222</ele>
        <time>2020-12-13T20:54:17Z</time>
      </trkpt>
      <trkpt lat="44.58246" lon="0.92996">
        <ele>227</ele>
        <time>2020-12-13T20:54:26Z</time>
      </trkpt>
      <trkpt lat="44.58272" lon="0.92897">
        <ele>227</ele>
        <time>2020-12-13T20:54:44Z</time>
      </trkpt>
      <trkpt lat="44.58281" lon="0.92832">
        <ele>230</ele>
        <time>2020-12-13T20:54:55Z</time>
      </trkpt>
      <trkpt lat="44.58272" lon="0.92746">
        <ele>238</ele>
        <time>2020-12-13T20:55:09Z</time>
      </trkpt>
      <trkpt lat="44.5826" lon="0.92679">
        <ele>241</ele>
        <time>2020-12-13T20:55:21Z</time>
      </trkpt>
      <trkpt lat="44.58245" lon="0.9261">
        <ele>242</ele>
        <time>2020-12-13T20:55:33Z</time>
      </trkpt>
      <trkpt lat="44.58237" lon="0.9254">
        <ele>242</ele>
        <time>2020-12-13T20:55:45Z</time>
      </trkpt>
      <trkpt lat="44.58232" lon="0.92504">
        <ele>241</ele>
        <time>2020-12-13T20:55:51Z</time>
      </trkpt>
      <trkpt lat="44.58313" lon="0.92467">
        <ele>237</ele>
        <time>2020-12-13T20:56:11Z</time>
      </trkpt>
      <trkpt lat="44.58394" lon="0.92476">
        <ele>239</ele>
        <time>2020-12-13T20:56:30Z</time>
      </trkpt>
      <trkpt lat="44.58471" lon="0.92483">
        <ele>243</ele>
        <time>2020-12-13T20:56:48Z</time>
      </trkpt>
      <trkpt lat="44.58525" lon="0.9249">
        <ele>244</ele>
        <time>2020-12-13T20:57:00Z</time>
      </trkpt>
      <trkpt lat="44.58577" lon="0.92497">
        <ele>241</ele>
        <time>2020-12-13T20:57:12Z</time>
      </trkpt>
      <trkpt lat="44.58631" lon="0.92521">
        <ele>240</ele>
        <time>2020-12-13T20:57:26Z</time>
      </trkpt>
      <trkpt lat="44.58666" lon="0.92535">
        <ele>241</ele>
        <time>2020-12-13T20:57:34Z</time>
      </trkpt>
      <trkpt lat="44.58652" lon="0.92474">
        <ele>242</ele>
        <time>2020-12-13T20:57:45Z</time>
      </trkpt>
      <trkpt lat="44.58639" lon="0.92375">
        <ele>246</ele>
        <time>2020-12-13T20:58:02Z</time>
      </trkpt>
      <trkpt lat="44.58618" lon="0.92284">
        <ele>246</ele>
        <time>2020-12-13T20:58:17Z</time>
      </trkpt>
      <trkpt lat="44.58605" lon="0.9223">
        <ele>245</ele>
        <time>2020-12-13T20:58:27Z</time>
      </trkpt>
      <trkpt lat="44.58564" lon="0.92127">
        <ele>241</ele>
        <time>2020-12-13T20:58:47Z</time>
      </trkpt>
      <trkpt lat="44.58613" lon="0.9208">
        <ele>241</ele>
        <time>2020-12-13T20:59:00Z</time>
      </trkpt>
      <trkpt lat="44.58634" lon="0.92065">
        <ele>242</ele>
        <time>2020-12-13T20:59:06Z</time>
      </trkpt>
      <trkpt lat="44.58633" lon="0.92026">
        <ele>242</ele>
        <time>2020-12-13T20:59:12Z</time>
      </trkpt>
      <trkpt lat="44.58651" lon="0.92001">
        <ele>244</ele>
        <time>2020-12-13T20:59:18Z</time>
      </trkpt>
      <trkpt lat="44.58666" lon="0.91987">
        <ele>245</ele>
        <time>2020-12-13T20:59:23Z</time>
      </trkpt>
      <trkpt lat="44.58686" lon="0.91997">
        <ele>245</ele>
        <time>2020-12-13T20:59:28Z</time>
      </trkpt>
      <trkpt lat="44.58736" lon="0.91946">
        <ele>247</ele>
        <time>2020-12-13T20:59:42Z</time>
      </trkpt>
      <trkpt lat="44.58798" lon="0.91881">
        <ele>249</ele>
        <time>2020-12-13T21:00:00Z</time>
      </trkpt>
      <trkpt lat="44.58864" lon="0.91815">
        <ele>251</ele>
        <time>2020-12-13T21:00:19Z</time>
      </trkpt>
      <trkpt lat="44.58897" lon="0.91901">
        <ele>252</ele>
        <time>2020-12-13T21:00:35Z</time>
      </trkpt>
      <trkpt lat="44.5899" lon="0.9186">
        <ele>253</ele>
        <time>2020-12-13T21:00:58Z</time>
      </trkpt>
      <trkpt lat="44.5903" lon="0.91839">
        <ele>250</ele>
        <time>2020-12-13T21:01:08Z</time>
      </trkpt>
      <trkpt lat="44.59199" lon="0.91809">
        <ele>234</ele>
        <time>2020-12-13T21:01:48Z</time>
      </trkpt>
      <trkpt lat="44.59229" lon="0.91804">
        <ele>232</ele>
        <time>2020-12-13T21:01:55Z</time>
      </trkpt>
      <trkpt lat="44.59276" lon="0.91788">
        <ele>231</ele>
        <time>2020-12-13T21:02:06Z</time>
      </trkpt>
      <trkpt lat="44.59338" lon="0.9175">
        <ele>231</ele>
        <time>2020-12-13T21:02:22Z</time>
      </trkpt>
      <trkpt lat="44.59414" lon="0.91726">
        <ele>224</ele>
        <time>2020-12-13T21:02:40Z</time>
      </trkpt>
      <trkpt lat="44.59445" lon="0.91719">
        <ele>223</ele>
        <time>2020-12-13T21:02:47Z</time>
      </trkpt>
      <trkpt lat="44.59485" lon="0.91699">
        <ele>223</ele>
        <time>2020-12-13T21:02:57Z</time>
      </trkpt>
      <trkpt lat="44.59511" lon="0.9166">
        <ele>224</ele>
        <time>2020-12-13T21:03:06Z</time>
      </trkpt>
      <trkpt lat="44.59551" lon="0.91638">
        <ele>225</ele>
        <time>2020-12-13T21:03:16Z</time>
      </trkpt>
      <trkpt lat="44.59601" lon="0.91617">
        <ele>226</ele>
        <time>2020-12-13T21:03:28Z</time>
      </trkpt>
      <trkpt lat="44.59642" lon="0.91588">
        <ele>225</ele>
        <time>2020-12-13T21:03:39Z</time>
      </trkpt>
      <trkpt lat="44.59696" lon="0.91578">
        <ele>226</ele>
        <time>2020-12-13T21:03:52Z</time>
      </trkpt>
      <trkpt lat="44.59681" lon="0.9172">
        <ele>231</ele>
        <time>2020-12-13T21:04:16Z</time>
      </trkpt>
      <trkpt lat="44.59676" lon="0.91891">
        <ele>237</ele>
        <time>2020-12-13T21:04:44Z</time>
      </trkpt>
      <trkpt lat="44.59659" lon="0.91977">
        <ele>239</ele>
        <time>2020-12-13T21:04:59Z</time>
      </trkpt>
      <trkpt lat="44.59765" lon="0.91887">
        <ele>229</ele>
        <time>2020-12-13T21:05:28Z</time>
      </trkpt>
      <trkpt lat="44.59884" lon="0.91814">
        <ele>220</ele>
        <time>2020-12-13T21:05:58Z</time>
      </trkpt>
      <trkpt lat="44.60003" lon="0.91765">
        <ele>217</ele>
        <time>2020-12-13T21:06:27Z</time>
      </trkpt>
      <trkpt lat="44.60077" lon="0.91722">
        <ele>213</ele>
        <time>2020-12-13T21:06:46Z</time>
      </trkpt>
      <trkpt lat="44.60093" lon="0.9181">
        <ele>212</ele>
        <time>2020-12-13T21:07:01Z</time>
      </trkpt>
      <trkpt lat="44.60156" lon="0.91868">
        <ele>215</ele>
        <time>2020-12-13T21:07:19Z</time>
      </trkpt>
      <trkpt lat="44.60219" lon="0.91943">
        <ele>216</ele>
        <time>2020-12-13T21:07:38Z</time>
      </trkpt>
      <trkpt lat="44.60248" lon="0.91992">
        <ele>221</ele>
        <time>2020-12-13T21:07:49Z</time>
      </trkpt>
      <trkpt lat="44.6035" lon="0.91984">
        <ele>227</ele>
        <time>2020-12-13T21:08:12Z</time>
      </trkpt>
      <trkpt lat="44.60353" lon="0.91679">
        <ele>209</ele>
        <time>2020-12-13T21:09:03Z</time>
      </trkpt>
      <trkpt lat="44.60396" lon="0.9166">
        <ele>213</ele>
        <time>2020-12-13T21:09:14Z</time>
      </trkpt>
      <trkpt lat="44.60446" lon="0.91627">
        <ele>209</ele>
        <time>2020-12-13T21:09:27Z</time>
      </trkpt>
      <trkpt lat="44.60593" lon="0.91595">
        <ele>203</ele>
        <time>2020-12-13T21:10:01Z</time>
      </trkpt>
      <trkpt lat="44.60663" lon="0.91673">
        <ele>205</ele>
        <time>2020-12-13T21:10:22Z</time>
      </trkpt>
      <trkpt lat="44.60752" lon="0.91632">
        <ele>198</ele>
        <time>2020-12-13T21:10:44Z</time>
      </trkpt>
      <trkpt lat="44.60833" lon="0.91559">
        <ele>197</ele>
        <time>2020-12-13T21:11:06Z</time>
      </trkpt>
      <trkpt lat="44.60886" lon="0.91606">
        <ele>195</ele>
        <time>2020-12-13T21:11:21Z</time>
      </trkpt>
      <trkpt lat="44.60931" lon="0.91559">
        <ele>191</ele>
        <time>2020-12-13T21:11:34Z</time>
      </trkpt>
      <trkpt lat="44.60984" lon="0.91522">
        <ele>188</ele>
        <time>2020-12-13T21:11:48Z</time>
      </trkpt>
      <trkpt lat="44.60987" lon="0.91486">
        <ele>185</ele>
        <time>2020-12-13T21:11:54Z</time>
      </trkpt>
      <trkpt lat="44.60984" lon="0.91321">
        <ele>175</ele>
        <time>2020-12-13T21:12:21Z</time>
      </trkpt>
      <trkpt lat="44.61034" lon="0.91175">
        <ele>177</ele>
        <time>2020-12-13T21:12:48Z</time>
      </trkpt>
      <trkpt lat="44.61071" lon="0.91211">
        <ele>179</ele>
        <time>2020-12-13T21:12:59Z</time>
      </trkpt>
      <trkpt lat="44.61108" lon="0.91132">
        <ele>184</ele>
        <time>2020-12-13T21:13:15Z</time>
      </trkpt>
      <trkpt lat="44.61219" lon="0.91119">
        <ele>194</ele>
        <time>2020-12-13T21:13:41Z</time>
      </trkpt>
      <trkpt lat="44.61309" lon="0.91117">
        <ele>199</ele>
        <time>2020-12-13T21:14:02Z</time>
      </trkpt>
      <trkpt lat="44.61416" lon="0.9111">
        <ele>199</ele>
        <time>2020-12-13T21:14:27Z</time>
      </trkpt>
      <trkpt lat="44.61415" lon="0.91014">
        <ele>202</ele>
        <time>2020-12-13T21:14:43Z</time>
      </trkpt>
      <trkpt lat="44.61413" lon="0.90928">
        <ele>207</ele>
        <time>2020-12-13T21:14:57Z</time>
      </trkpt>
      <trkpt lat="44.61415" lon="0.9087">
        <ele>209</ele>
        <time>2020-12-13T21:15:07Z</time>
      </trkpt>
      <trkpt lat="44.61419" lon="0.9078">
        <ele>214</ele>
        <time>2020-12-13T21:15:22Z</time>
      </trkpt>
      <trkpt lat="44.61413" lon="0.90681">
        <ele>220</ele>
        <time>2020-12-13T21:15:38Z</time>
      </trkpt>
      <trkpt lat="44.61387" lon="0.90589">
        <ele>227</ele>
        <time>2020-12-13T21:15:55Z</time>
      </trkpt>
      <trkpt lat="44.61381" lon="0.90516">
        <ele>230</ele>
        <time>2020-12-13T21:16:07Z</time>
      </trkpt>
      <trkpt lat="44.61389" lon="0.9046">
        <ele>229</ele>
        <time>2020-12-13T21:16:16Z</time>
      </trkpt>
      <trkpt lat="44.61403" lon="0.90398">
        <ele>227</ele>
        <time>2020-12-13T21:16:27Z</time>
      </trkpt>
      <trkpt lat="44.61441" lon="0.90359">
        <ele>226</ele>
        <time>2020-12-13T21:16:38Z</time>
      </trkpt>
      <trkpt lat="44.61499" lon="0.9034">
        <ele>228</ele>
        <time>2020-12-13T21:16:52Z</time>
      </trkpt>
      <trkpt lat="44.61549" lon="0.90316">
        <ele>227</ele>
        <time>2020-12-13T21:17:04Z</time>
      </trkpt>
      <trkpt lat="44.61519" lon="0.90254">
        <ele>225</ele>
        <time>2020-12-13T21:17:17Z</time>
      </trkpt>
      <trkpt lat="44.61484" lon="0.90194">
        <ele>224</ele>
        <time>2020-12-13T21:17:30Z</time>
      </trkpt>
      <trkpt lat="44.61439" lon="0.90121">
        <ele>220</ele>
        <time>2020-12-13T21:17:46Z</time>
      </trkpt>
      <trkpt lat="44.61409" lon="0.90076">
        <ele>219</ele>
        <time>2020-12-13T21:17:56Z</time>
      </trkpt>
      <trkpt lat="44.61328" lon="0.9008">
        <ele>213</ele>
        <time>2020-12-13T21:18:15Z</time>
      </trkpt>
      <trkpt lat="44.61228" lon="0.90085">
        <ele>211</ele>
        <time>2020-12-13T21:18:38Z</time>
      </trkpt>
      <trkpt lat="44.61178" lon="0.90093">
        <ele>207</ele>
        <time>2020-12-13T21:18:50Z</time>
      </trkpt>
      <trkpt lat="44.61094" lon="0.90083">
        <ele>202</ele>
        <time>2020-12-13T21:19:10Z</time>
      </trkpt>
      <trkpt lat="44.61079" lon="0.90029">
        <ele>200</ele>
        <time>2020-12-13T21:19:19Z</time>
      </trkpt>
      <trkpt lat="44.61079" lon="0.89909">
        <ele>203</ele>
        <time>2020-12-13T21:19:39Z</time>
      </trkpt>
      <trkpt lat="44.6106" lon="0.89821">
        <ele>205</ele>
        <time>2020-12-13T21:19:55Z</time>
      </trkpt>
      <trkpt lat="44.61056" lon="0.89756">
        <ele>204</ele>
        <time>2020-12-13T21:20:05Z</time>
      </trkpt>
      <trkpt lat="44.611" lon="0.89686">
        <ele>210</ele>
        <time>2020-12-13T21:20:21Z</time>
      </trkpt>
      <trkpt lat="44.61129" lon="0.8957">
        <ele>216</ele>
        <time>2020-12-13T21:20:41Z</time>
      </trkpt>
      <trkpt lat="44.61209" lon="0.89527">
        <ele>217</ele>
        <time>2020-12-13T21:21:01Z</time>
      </trkpt>
      <trkpt lat="44.61293" lon="0.89409">
        <ele>213</ele>
        <time>2020-12-13T21:21:29Z</time>
      </trkpt>
      <trkpt lat="44.61375" lon="0.89327">
        <ele>207</ele>
        <time>2020-12-13T21:21:53Z</time>
      </trkpt>
      <trkpt lat="44.61476" lon="0.89231">
        <ele>200</ele>
        <time>2020-12-13T21:22:21Z</time>
      </trkpt>
      <trkpt lat="44.61561" lon="0.89173">
        <ele>201</ele>
        <time>2020-12-13T21:22:43Z</time>
      </trkpt>
      <trkpt lat="44.61545" lon="0.89091">
        <ele>199</ele>
        <time>2020-12-13T21:22:57Z</time>
      </trkpt>
      <trkpt lat="44.6152" lon="0.89025">
        <ele>197</ele>
        <time>2020-12-13T21:23:10Z</time>
      </trkpt>
      <trkpt lat="44.61444" lon="0.8896">
        <ele>196</ele>
        <time>2020-12-13T21:23:31Z</time>
      </trkpt>
      <trkpt lat="44.61393" lon="0.88924">
        <ele>195</ele>
        <time>2020-12-13T21:23:44Z</time>
      </trkpt>
      <trkpt lat="44.61343" lon="0.88872">
        <ele>196</ele>
        <time>2020-12-13T21:23:58Z</time>
      </trkpt>
      <trkpt lat="44.61279" lon="0.88806">
        <ele>194</ele>
        <time>2020-12-13T21:24:17Z</time>
      </trkpt>
      <trkpt lat="44.61215" lon="0.8878">
        <ele>193</ele>
        <time>2020-12-13T21:24:33Z</time>
      </trkpt>
      <trkpt lat="44.61141" lon="0.88664">
        <ele>193</ele>
        <time>2020-12-13T21:24:58Z</time>
      </trkpt>
      <trkpt lat="44.61091" lon="0.88636">
        <ele>192</ele>
        <time>2020-12-13T21:25:11Z</time>
      </trkpt>
      <trkpt lat="44.61036" lon="0.88561">
        <ele>195</ele>
        <time>2020-12-13T21:25:29Z</time>
      </trkpt>
      <trkpt lat="44.6103" lon="0.88583">
        <ele>193</ele>
        <time>2020-12-13T21:25:33Z</time>
      </trkpt>
      <trkpt lat="44.61041" lon="0.88681">
        <ele>190</ele>
        <time>2020-12-13T21:25:49Z</time>
      </trkpt>
      <trkpt lat="44.61036" lon="0.88741">
        <ele>191</ele>
        <time>2020-12-13T21:25:59Z</time>
      </trkpt>
      <trkpt lat="44.6096" lon="0.88808">
        <ele>190</ele>
        <time>2020-12-13T21:26:20Z</time>
      </trkpt>
      <trkpt lat="44.60848" lon="0.88883">
        <ele>188</ele>
        <time>2020-12-13T21:26:49Z</time>
      </trkpt>
      <trkpt lat="44.6083" lon="0.88909">
        <ele>189</ele>
        <time>2020-12-13T21:26:55Z</time>
      </trkpt>
      <trkpt lat="44.60665" lon="0.88982">
        <ele>185</ele>
        <time>2020-12-13T21:27:36Z</time>
      </trkpt>
      <trkpt lat="44.60489" lon="0.89061">
        <ele>179</ele>
        <time>2020-12-13T21:28:19Z</time>
      </trkpt>
      <trkpt lat="44.60362" lon="0.89145">
        <ele>174</ele>
        <time>2020-12-13T21:28:52Z</time>
      </trkpt>
      <trkpt lat="44.60287" lon="0.89231">
        <ele>174</ele>
        <time>2020-12-13T21:29:14Z</time>
      </trkpt>
      <trkpt lat="44.60211" lon="0.89263">
        <ele>173</ele>
        <time>2020-12-13T21:29:33Z</time>
      </trkpt>
      <trkpt lat="44.60168" lon="0.89304">
        <ele>172</ele>
        <time>2020-12-13T21:29:45Z</time>
      </trkpt>
      <trkpt lat="44.60125" lon="0.89316">
        <ele>174</ele>
        <time>2020-12-13T21:29:55Z</time>
      </trkpt>
      <trkpt lat="44.60129" lon="0.89362">
        <ele>173</ele>
        <time>2020-12-13T21:30:03Z</time>
      </trkpt>
      <trkpt lat="44.60119" lon="0.894">
        <ele>172</ele>
        <time>2020-12-13T21:30:10Z</time>
      </trkpt>
      <trkpt lat="44.60105" lon="0.89435">
        <ele>172</ele>
        <time>2020-12-13T21:30:16Z</time>
      </trkpt>
      <trkpt lat="44.60087" lon="0.8947">
        <ele>173</ele>
        <time>2020-12-13T21:30:23Z</time>
      </trkpt>
      <trkpt lat="44.60075" lon="0.89495">
        <ele>173</ele>
        <time>2020-12-13T21:30:28Z</time>
        <extensions>
          <visugpx:TrkExtension xmlns:visugpx="https://www.visugpx.com/editgpx/">
            <visugpx:node>1</visugpx:node>
            </visugpx:TrkExtension>
        </extensions>
      </trkpt>
    </trkseg>
  </trk>
  <trk>
    <name><![CDATA[12330457-las pâtras]]></name>
    <extensions>
      <line xmlns="http://www.topografix.com/GPX/gpx_style/0/2">
        <color>00FF00</color>
        <width>4</width>
      </line>
    </extensions>
    <trkseg>
      <trkpt lat="44.60055" lon="0.89482">
        <ele>173</ele>
        <time>2020-12-13T20:11:28Z</time>
      </trkpt>
      <trkpt lat="44.60075" lon="0.89504">
        <ele>173</ele>
        <time>2020-12-13T20:11:34Z</time>
      </trkpt>
      <trkpt lat="44.60094" lon="0.89442">
        <ele>173</ele>
        <time>2020-12-13T20:11:45Z</time>
      </trkpt>
      <trkpt lat="44.60107" lon="0.89414">
        <ele>172</ele>
        <time>2020-12-13T20:11:51Z</time>
      </trkpt>
      <trkpt lat="44.60119" lon="0.89371">
        <ele>173</ele>
        <time>2020-12-13T20:11:58Z</time>
      </trkpt>
      <trkpt lat="44.60127" lon="0.89323">
        <ele>174</ele>
        <time>2020-12-13T20:12:07Z</time>
      </trkpt>
      <trkpt lat="44.60127" lon="0.89311">
        <ele>174</ele>
        <time>2020-12-13T20:12:09Z</time>
      </trkpt>
      <trkpt lat="44.60161" lon="0.89304">
        <ele>172</ele>
        <time>2020-12-13T20:12:17Z</time>
      </trkpt>
      <trkpt lat="44.60174" lon="0.89294">
        <ele>172</ele>
        <time>2020-12-13T20:12:20Z</time>
      </trkpt>
      <trkpt lat="44.60186" lon="0.89277">
        <ele>172</ele>
        <time>2020-12-13T20:12:24Z</time>
      </trkpt>
      <trkpt lat="44.60208" lon="0.89256">
        <ele>173</ele>
        <time>2020-12-13T20:12:30Z</time>
      </trkpt>
      <trkpt lat="44.60247" lon="0.89241">
        <ele>173</ele>
        <time>2020-12-13T20:12:40Z</time>
      </trkpt>
      <trkpt lat="44.60274" lon="0.89234">
        <ele>174</ele>
        <time>2020-12-13T20:12:46Z</time>
      </trkpt>
      <trkpt lat="44.60295" lon="0.89218">
        <ele>173</ele>
        <time>2020-12-13T20:12:52Z</time>
      </trkpt>
      <trkpt lat="44.60309" lon="0.89191">
        <ele>172</ele>
        <time>2020-12-13T20:12:57Z</time>
      </trkpt>
      <trkpt lat="44.6033" lon="0.8917">
        <ele>172</ele>
        <time>2020-12-13T20:13:03Z</time>
      </trkpt>
      <trkpt lat="44.60366" lon="0.89143">
        <ele>174</ele>
        <time>2020-12-13T20:13:13Z</time>
      </trkpt>
      <trkpt lat="44.60397" lon="0.89118">
        <ele>176</ele>
        <time>2020-12-13T20:13:21Z</time>
      </trkpt>
      <trkpt lat="44.60436" lon="0.89084">
        <ele>178</ele>
        <time>2020-12-13T20:13:32Z</time>
      </trkpt>
      <trkpt lat="44.60459" lon="0.89056">
        <ele>179</ele>
        <time>2020-12-13T20:13:39Z</time>
      </trkpt>
      <trkpt lat="44.60487" lon="0.89054">
        <ele>179</ele>
        <time>2020-12-13T20:13:46Z</time>
      </trkpt>
      <trkpt lat="44.60543" lon="0.89027">
        <ele>180</ele>
        <time>2020-12-13T20:13:59Z</time>
      </trkpt>
      <trkpt lat="44.60594" lon="0.89003">
        <ele>181</ele>
        <time>2020-12-13T20:14:12Z</time>
      </trkpt>
      <trkpt lat="44.60621" lon="0.89">
        <ele>182</ele>
        <time>2020-12-13T20:14:18Z</time>
      </trkpt>
      <trkpt lat="44.60659" lon="0.88987">
        <ele>184</ele>
        <time>2020-12-13T20:14:27Z</time>
      </trkpt>
      <trkpt lat="44.60718" lon="0.88961">
        <ele>186</ele>
        <time>2020-12-13T20:14:42Z</time>
      </trkpt>
      <trkpt lat="44.60763" lon="0.88934">
        <ele>187</ele>
        <time>2020-12-13T20:14:53Z</time>
      </trkpt>
      <trkpt lat="44.60818" lon="0.889">
        <ele>188</ele>
        <time>2020-12-13T20:15:07Z</time>
      </trkpt>
      <trkpt lat="44.60867" lon="0.88864">
        <ele>187</ele>
        <time>2020-12-13T20:15:20Z</time>
      </trkpt>
      <trkpt lat="44.60925" lon="0.88827">
        <ele>187</ele>
        <time>2020-12-13T20:15:35Z</time>
      </trkpt>
      <trkpt lat="44.60984" lon="0.88778">
        <ele>191</ele>
        <time>2020-12-13T20:15:51Z</time>
      </trkpt>
      <trkpt lat="44.61031" lon="0.88732">
        <ele>191</ele>
        <time>2020-12-13T20:16:04Z</time>
      </trkpt>
      <trkpt lat="44.61035" lon="0.88688">
        <ele>190</ele>
        <time>2020-12-13T20:16:12Z</time>
      </trkpt>
      <trkpt lat="44.61033" lon="0.88602">
        <ele>192</ele>
        <time>2020-12-13T20:16:26Z</time>
      </trkpt>
      <trkpt lat="44.61036" lon="0.88558">
        <ele>195</ele>
        <time>2020-12-13T20:16:33Z</time>
      </trkpt>
      <trkpt lat="44.61023" lon="0.88533">
        <ele>196</ele>
        <time>2020-12-13T20:16:39Z</time>
      </trkpt>
      <trkpt lat="44.61004" lon="0.88509">
        <ele>197</ele>
        <time>2020-12-13T20:16:45Z</time>
      </trkpt>
      <trkpt lat="44.60993" lon="0.88481">
        <ele>200</ele>
        <time>2020-12-13T20:16:50Z</time>
      </trkpt>
      <trkpt lat="44.60982" lon="0.88445">
        <ele>204</ele>
        <time>2020-12-13T20:16:56Z</time>
      </trkpt>
      <trkpt lat="44.60977" lon="0.88424">
        <ele>207</ele>
        <time>2020-12-13T20:17:00Z</time>
      </trkpt>
      <trkpt lat="44.60944" lon="0.88405">
        <ele>209</ele>
        <time>2020-12-13T20:17:08Z</time>
      </trkpt>
      <trkpt lat="44.60932" lon="0.88375">
        <ele>210</ele>
        <time>2020-12-13T20:17:14Z</time>
      </trkpt>
      <trkpt lat="44.60839" lon="0.88343">
        <ele>210</ele>
        <time>2020-12-13T20:17:37Z</time>
      </trkpt>
      <trkpt lat="44.60833" lon="0.88289">
        <ele>207</ele>
        <time>2020-12-13T20:17:46Z</time>
      </trkpt>
      <trkpt lat="44.60835" lon="0.88241">
        <ele>204</ele>
        <time>2020-12-13T20:17:54Z</time>
      </trkpt>
      <trkpt lat="44.60835" lon="0.88157">
        <ele>198</ele>
        <time>2020-12-13T20:18:08Z</time>
      </trkpt>
      <trkpt lat="44.60751" lon="0.88157">
        <ele>197</ele>
        <time>2020-12-13T20:18:27Z</time>
      </trkpt>
      <trkpt lat="44.60704" lon="0.88147">
        <ele>199</ele>
        <time>2020-12-13T20:18:38Z</time>
      </trkpt>
      <trkpt lat="44.60671" lon="0.88115">
        <ele>197</ele>
        <time>2020-12-13T20:18:48Z</time>
      </trkpt>
      <trkpt lat="44.60648" lon="0.88059">
        <ele>193</ele>
        <time>2020-12-13T20:18:58Z</time>
      </trkpt>
      <trkpt lat="44.60616" lon="0.87984">
        <ele>190</ele>
        <time>2020-12-13T20:19:13Z</time>
      </trkpt>
      <trkpt lat="44.6059" lon="0.879">
        <ele>186</ele>
        <time>2020-12-13T20:19:28Z</time>
      </trkpt>
      <trkpt lat="44.60606" lon="0.87853">
        <ele>181</ele>
        <time>2020-12-13T20:19:37Z</time>
      </trkpt>
      <trkpt lat="44.60643" lon="0.87785">
        <ele>173</ele>
        <time>2020-12-13T20:19:51Z</time>
      </trkpt>
      <trkpt lat="44.60663" lon="0.87785">
        <ele>172</ele>
        <time>2020-12-13T20:19:56Z</time>
      </trkpt>
      <trkpt lat="44.60693" lon="0.87737">
        <ele>170</ele>
        <time>2020-12-13T20:20:06Z</time>
      </trkpt>
      <trkpt lat="44.6072" lon="0.87645">
        <ele>166</ele>
        <time>2020-12-13T20:20:23Z</time>
      </trkpt>
      <trkpt lat="44.60747" lon="0.87607">
        <ele>164</ele>
        <time>2020-12-13T20:20:32Z</time>
      </trkpt>
      <trkpt lat="44.60779" lon="0.87614">
        <ele>166</ele>
        <time>2020-12-13T20:20:39Z</time>
      </trkpt>
      <trkpt lat="44.60827" lon="0.87583">
        <ele>167</ele>
        <time>2020-12-13T20:20:52Z</time>
      </trkpt>
      <trkpt lat="44.60859" lon="0.87542">
        <ele>165</ele>
        <time>2020-12-13T20:21:02Z</time>
      </trkpt>
      <trkpt lat="44.60876" lon="0.87464">
        <ele>164</ele>
        <time>2020-12-13T20:21:15Z</time>
      </trkpt>
      <trkpt lat="44.60909" lon="0.87385">
        <ele>168</ele>
        <time>2020-12-13T20:21:31Z</time>
      </trkpt>
      <trkpt lat="44.60974" lon="0.87282">
        <ele>172</ele>
        <time>2020-12-13T20:21:53Z</time>
      </trkpt>
      <trkpt lat="44.61038" lon="0.87148">
        <ele>175</ele>
        <time>2020-12-13T20:22:20Z</time>
      </trkpt>
      <trkpt lat="44.61045" lon="0.8705">
        <ele>177</ele>
        <time>2020-12-13T20:22:37Z</time>
      </trkpt>
      <trkpt lat="44.61048" lon="0.86988">
        <ele>178</ele>
        <time>2020-12-13T20:22:47Z</time>
      </trkpt>
      <trkpt lat="44.61083" lon="0.8688">
        <ele>180</ele>
        <time>2020-12-13T20:23:07Z</time>
      </trkpt>
      <trkpt lat="44.6111" lon="0.86739">
        <ele>185</ele>
        <time>2020-12-13T20:23:31Z</time>
      </trkpt>
      <trkpt lat="44.61138" lon="0.86624">
        <ele>187</ele>
        <time>2020-12-13T20:23:51Z</time>
      </trkpt>
      <trkpt lat="44.61164" lon="0.86528">
        <ele>187</ele>
        <time>2020-12-13T20:24:08Z</time>
      </trkpt>
      <trkpt lat="44.61151" lon="0.86536">
        <ele>187</ele>
        <time>2020-12-13T20:24:12Z</time>
      </trkpt>
      <trkpt lat="44.61189" lon="0.86492">
        <ele>188</ele>
        <time>2020-12-13T20:24:23Z</time>
      </trkpt>
      <trkpt lat="44.61244" lon="0.86406">
        <ele>188</ele>
        <time>2020-12-13T20:24:42Z</time>
      </trkpt>
      <trkpt lat="44.61183" lon="0.86346">
        <ele>187</ele>
        <time>2020-12-13T20:25:00Z</time>
      </trkpt>
      <trkpt lat="44.61201" lon="0.86279">
        <ele>189</ele>
        <time>2020-12-13T20:25:12Z</time>
      </trkpt>
      <trkpt lat="44.61199" lon="0.86168">
        <ele>189</ele>
        <time>2020-12-13T20:25:30Z</time>
      </trkpt>
      <trkpt lat="44.61232" lon="0.86068">
        <ele>184</ele>
        <time>2020-12-13T20:25:48Z</time>
      </trkpt>
      <trkpt lat="44.61288" lon="0.85998">
        <ele>179</ele>
        <time>2020-12-13T20:26:06Z</time>
      </trkpt>
      <trkpt lat="44.61318" lon="0.85872">
        <ele>179</ele>
        <time>2020-12-13T20:26:28Z</time>
      </trkpt>
      <trkpt lat="44.61372" lon="0.85761">
        <ele>176</ele>
        <time>2020-12-13T20:26:50Z</time>
      </trkpt>
      <trkpt lat="44.61397" lon="0.85727">
        <ele>174</ele>
        <time>2020-12-13T20:26:58Z</time>
      </trkpt>
      <trkpt lat="44.61403" lon="0.85688">
        <ele>174</ele>
        <time>2020-12-13T20:27:05Z</time>
      </trkpt>
      <trkpt lat="44.61377" lon="0.8564">
        <ele>173</ele>
        <time>2020-12-13T20:27:15Z</time>
      </trkpt>
      <trkpt lat="44.61351" lon="0.85551">
        <ele>167</ele>
        <time>2020-12-13T20:27:31Z</time>
      </trkpt>
      <trkpt lat="44.613" lon="0.85438">
        <ele>171</ele>
        <time>2020-12-13T20:27:53Z</time>
      </trkpt>
      <trkpt lat="44.61297" lon="0.8538">
        <ele>173</ele>
        <time>2020-12-13T20:28:03Z</time>
      </trkpt>
      <trkpt lat="44.61329" lon="0.8533">
        <ele>174</ele>
        <time>2020-12-13T20:28:14Z</time>
      </trkpt>
      <trkpt lat="44.6135" lon="0.85288">
        <ele>175</ele>
        <time>2020-12-13T20:28:23Z</time>
      </trkpt>
      <trkpt lat="44.61358" lon="0.85263">
        <ele>176</ele>
        <time>2020-12-13T20:28:27Z</time>
      </trkpt>
      <trkpt lat="44.61371" lon="0.8524">
        <ele>176</ele>
        <time>2020-12-13T20:28:32Z</time>
      </trkpt>
      <trkpt lat="44.61377" lon="0.8521">
        <ele>177</ele>
        <time>2020-12-13T20:28:37Z</time>
      </trkpt>
      <trkpt lat="44.61378" lon="0.85176">
        <ele>177</ele>
        <time>2020-12-13T20:28:43Z</time>
      </trkpt>
      <trkpt lat="44.61368" lon="0.85168">
        <ele>177</ele>
        <time>2020-12-13T20:28:46Z</time>
      </trkpt>
      <trkpt lat="44.61357" lon="0.85161">
        <ele>176</ele>
        <time>2020-12-13T20:28:49Z</time>
      </trkpt>
      <trkpt lat="44.61367" lon="0.85091">
        <ele>174</ele>
        <time>2020-12-13T20:29:00Z</time>
      </trkpt>
      <trkpt lat="44.61352" lon="0.85076">
        <ele>174</ele>
        <time>2020-12-13T20:29:05Z</time>
      </trkpt>
      <trkpt lat="44.61327" lon="0.85047">
        <ele>174</ele>
        <time>2020-12-13T20:29:12Z</time>
      </trkpt>
      <trkpt lat="44.61312" lon="0.85032">
        <ele>174</ele>
        <time>2020-12-13T20:29:17Z</time>
      </trkpt>
      <trkpt lat="44.61294" lon="0.85025">
        <ele>175</ele>
        <time>2020-12-13T20:29:21Z</time>
      </trkpt>
      <trkpt lat="44.61268" lon="0.85026">
        <ele>177</ele>
        <time>2020-12-13T20:29:27Z</time>
      </trkpt>
      <trkpt lat="44.61235" lon="0.85063">
        <ele>179</ele>
        <time>2020-12-13T20:29:37Z</time>
      </trkpt>
      <trkpt lat="44.61192" lon="0.85113">
        <ele>179</ele>
        <time>2020-12-13T20:29:50Z</time>
      </trkpt>
      <trkpt lat="44.61171" lon="0.85126">
        <ele>178</ele>
        <time>2020-12-13T20:29:55Z</time>
      </trkpt>
      <trkpt lat="44.61171" lon="0.85097">
        <ele>180</ele>
        <time>2020-12-13T20:30:00Z</time>
      </trkpt>
      <trkpt lat="44.61135" lon="0.85063">
        <ele>178</ele>
        <time>2020-12-13T20:30:10Z</time>
      </trkpt>
      <trkpt lat="44.61118" lon="0.85022">
        <ele>175</ele>
        <time>2020-12-13T20:30:18Z</time>
      </trkpt>
      <trkpt lat="44.61092" lon="0.84988">
        <ele>173</ele>
        <time>2020-12-13T20:30:26Z</time>
      </trkpt>
      <trkpt lat="44.61076" lon="0.84995">
        <ele>172</ele>
        <time>2020-12-13T20:30:30Z</time>
      </trkpt>
      <trkpt lat="44.61056" lon="0.8503">
        <ele>170</ele>
        <time>2020-12-13T20:30:38Z</time>
      </trkpt>
      <trkpt lat="44.61031" lon="0.84959">
        <ele>168</ele>
        <time>2020-12-13T20:30:51Z</time>
      </trkpt>
      <trkpt lat="44.61002" lon="0.84913">
        <ele>167</ele>
        <time>2020-12-13T20:31:01Z</time>
      </trkpt>
      <trkpt lat="44.60958" lon="0.84845">
        <ele>166</ele>
        <time>2020-12-13T20:31:16Z</time>
      </trkpt>
      <trkpt lat="44.60911" lon="0.84779">
        <ele>167</ele>
        <time>2020-12-13T20:31:32Z</time>
      </trkpt>
      <trkpt lat="44.60871" lon="0.84698">
        <ele>165</ele>
        <time>2020-12-13T20:31:48Z</time>
      </trkpt>
      <trkpt lat="44.60814" lon="0.84608">
        <ele>165</ele>
        <time>2020-12-13T20:32:08Z</time>
      </trkpt>
      <trkpt lat="44.60787" lon="0.8456">
        <ele>163</ele>
        <time>2020-12-13T20:32:19Z</time>
      </trkpt>
      <trkpt lat="44.60741" lon="0.84501">
        <ele>161</ele>
        <time>2020-12-13T20:32:33Z</time>
      </trkpt>
      <trkpt lat="44.60701" lon="0.84441">
        <ele>161</ele>
        <time>2020-12-13T20:32:47Z</time>
      </trkpt>
      <trkpt lat="44.60663" lon="0.84394">
        <ele>160</ele>
        <time>2020-12-13T20:32:59Z</time>
      </trkpt>
      <trkpt lat="44.60651" lon="0.84371">
        <ele>158</ele>
        <time>2020-12-13T20:33:03Z</time>
      </trkpt>
      <trkpt lat="44.60649" lon="0.8435">
        <ele>157</ele>
        <time>2020-12-13T20:33:07Z</time>
      </trkpt>
      <trkpt lat="44.60642" lon="0.84313">
        <ele>155</ele>
        <time>2020-12-13T20:33:13Z</time>
      </trkpt>
      <trkpt lat="44.60633" lon="0.84284">
        <ele>152</ele>
        <time>2020-12-13T20:33:18Z</time>
      </trkpt>
      <trkpt lat="44.60626" lon="0.84277">
        <ele>151</ele>
        <time>2020-12-13T20:33:20Z</time>
      </trkpt>
      <trkpt lat="44.60614" lon="0.84253">
        <ele>149</ele>
        <time>2020-12-13T20:33:25Z</time>
      </trkpt>
      <trkpt lat="44.60609" lon="0.84232">
        <ele>148</ele>
        <time>2020-12-13T20:33:29Z</time>
      </trkpt>
      <trkpt lat="44.60611" lon="0.84197">
        <ele>149</ele>
        <time>2020-12-13T20:33:35Z</time>
      </trkpt>
      <trkpt lat="44.60607" lon="0.84165">
        <ele>149</ele>
        <time>2020-12-13T20:33:40Z</time>
      </trkpt>
      <trkpt lat="44.60606" lon="0.84151">
        <ele>149</ele>
        <time>2020-12-13T20:33:43Z</time>
      </trkpt>
      <trkpt lat="44.60578" lon="0.84127">
        <ele>149</ele>
        <time>2020-12-13T20:33:50Z</time>
      </trkpt>
      <trkpt lat="44.60547" lon="0.84112">
        <ele>149</ele>
        <time>2020-12-13T20:33:58Z</time>
      </trkpt>
      <trkpt lat="44.60519" lon="0.84097">
        <ele>150</ele>
        <time>2020-12-13T20:34:05Z</time>
      </trkpt>
      <trkpt lat="44.60497" lon="0.84073">
        <ele>150</ele>
        <time>2020-12-13T20:34:11Z</time>
      </trkpt>
      <trkpt lat="44.6049" lon="0.8404">
        <ele>150</ele>
        <time>2020-12-13T20:34:17Z</time>
      </trkpt>
      <trkpt lat="44.6047" lon="0.84052">
        <ele>149</ele>
        <time>2020-12-13T20:34:22Z</time>
      </trkpt>
      <trkpt lat="44.60424" lon="0.84075">
        <ele>147</ele>
        <time>2020-12-13T20:34:34Z</time>
      </trkpt>
      <trkpt lat="44.60383" lon="0.84081">
        <ele>147</ele>
        <time>2020-12-13T20:34:43Z</time>
      </trkpt>
      <trkpt lat="44.60336" lon="0.84087">
        <ele>146</ele>
        <time>2020-12-13T20:34:54Z</time>
      </trkpt>
      <trkpt lat="44.60304" lon="0.84103">
        <ele>143</ele>
        <time>2020-12-13T20:35:02Z</time>
      </trkpt>
      <trkpt lat="44.60283" lon="0.84105">
        <ele>142</ele>
        <time>2020-12-13T20:35:07Z</time>
      </trkpt>
      <trkpt lat="44.60251" lon="0.84101">
        <ele>140</ele>
        <time>2020-12-13T20:35:15Z</time>
      </trkpt>
      <trkpt lat="44.60225" lon="0.84078">
        <ele>138</ele>
        <time>2020-12-13T20:35:22Z</time>
      </trkpt>
      <trkpt lat="44.60209" lon="0.84074">
        <ele>136</ele>
        <time>2020-12-13T20:35:26Z</time>
      </trkpt>
      <trkpt lat="44.60189" lon="0.84086">
        <ele>134</ele>
        <time>2020-12-13T20:35:31Z</time>
      </trkpt>
      <trkpt lat="44.60181" lon="0.84097">
        <ele>132</ele>
        <time>2020-12-13T20:35:33Z</time>
      </trkpt>
      <trkpt lat="44.60174" lon="0.84101">
        <ele>131</ele>
        <time>2020-12-13T20:35:35Z</time>
      </trkpt>
      <trkpt lat="44.60162" lon="0.84134">
        <ele>128</ele>
        <time>2020-12-13T20:35:41Z</time>
      </trkpt>
      <trkpt lat="44.60151" lon="0.84143">
        <ele>128</ele>
        <time>2020-12-13T20:35:44Z</time>
      </trkpt>
      <trkpt lat="44.60138" lon="0.84148">
        <ele>128</ele>
        <time>2020-12-13T20:35:47Z</time>
      </trkpt>
      <trkpt lat="44.60129" lon="0.84202">
        <ele>128</ele>
        <time>2020-12-13T20:35:57Z</time>
      </trkpt>
      <trkpt lat="44.60112" lon="0.84254">
        <ele>130</ele>
        <time>2020-12-13T20:36:06Z</time>
      </trkpt>
      <trkpt lat="44.60108" lon="0.84273">
        <ele>132</ele>
        <time>2020-12-13T20:36:09Z</time>
      </trkpt>
      <trkpt lat="44.60093" lon="0.84287">
        <ele>133</ele>
        <time>2020-12-13T20:36:14Z</time>
      </trkpt>
      <trkpt lat="44.60083" lon="0.84302">
        <ele>134</ele>
        <time>2020-12-13T20:36:17Z</time>
      </trkpt>
      <trkpt lat="44.60055" lon="0.84258">
        <ele>134</ele>
        <time>2020-12-13T20:36:27Z</time>
      </trkpt>
      <trkpt lat="44.60015" lon="0.84255">
        <ele>138</ele>
        <time>2020-12-13T20:36:36Z</time>
      </trkpt>
      <trkpt lat="44.59964" lon="0.84246">
        <ele>142</ele>
        <time>2020-12-13T20:36:48Z</time>
      </trkpt>
      <trkpt lat="44.59938" lon="0.84195">
        <ele>143</ele>
        <time>2020-12-13T20:36:59Z</time>
      </trkpt>
      <trkpt lat="44.59908" lon="0.84125">
        <ele>145</ele>
        <time>2020-12-13T20:37:12Z</time>
      </trkpt>
      <trkpt lat="44.59883" lon="0.84064">
        <ele>145</ele>
        <time>2020-12-13T20:37:24Z</time>
      </trkpt>
      <trkpt lat="44.59849" lon="0.84001">
        <ele>143</ele>
        <time>2020-12-13T20:37:37Z</time>
      </trkpt>
      <trkpt lat="44.59815" lon="0.84049">
        <ele>146</ele>
        <time>2020-12-13T20:37:48Z</time>
      </trkpt>
      <trkpt lat="44.59765" lon="0.84114">
        <ele>147</ele>
        <time>2020-12-13T20:38:04Z</time>
      </trkpt>
      <trkpt lat="44.59737" lon="0.84161">
        <ele>150</ele>
        <time>2020-12-13T20:38:14Z</time>
      </trkpt>
      <trkpt lat="44.59717" lon="0.84199">
        <ele>152</ele>
        <time>2020-12-13T20:38:22Z</time>
      </trkpt>
      <trkpt lat="44.59692" lon="0.84223">
        <ele>154</ele>
        <time>2020-12-13T20:38:29Z</time>
      </trkpt>
      <trkpt lat="44.59637" lon="0.84299">
        <ele>157</ele>
        <time>2020-12-13T20:38:47Z</time>
      </trkpt>
      <trkpt lat="44.59582" lon="0.84362">
        <ele>157</ele>
        <time>2020-12-13T20:39:04Z</time>
      </trkpt>
      <trkpt lat="44.59504" lon="0.84436">
        <ele>156</ele>
        <time>2020-12-13T20:39:26Z</time>
      </trkpt>
      <trkpt lat="44.59468" lon="0.8447">
        <ele>156</ele>
        <time>2020-12-13T20:39:36Z</time>
      </trkpt>
      <trkpt lat="44.59413" lon="0.84522">
        <ele>159</ele>
        <time>2020-12-13T20:39:52Z</time>
      </trkpt>
      <trkpt lat="44.59397" lon="0.84545">
        <ele>158</ele>
        <time>2020-12-13T20:39:57Z</time>
      </trkpt>
      <trkpt lat="44.59394" lon="0.84582">
        <ele>160</ele>
        <time>2020-12-13T20:40:03Z</time>
      </trkpt>
      <trkpt lat="44.59406" lon="0.84633">
        <ele>161</ele>
        <time>2020-12-13T20:40:12Z</time>
      </trkpt>
      <trkpt lat="44.59426" lon="0.84694">
        <ele>161</ele>
        <time>2020-12-13T20:40:23Z</time>
      </trkpt>
      <trkpt lat="44.59447" lon="0.84773">
        <ele>162</ele>
        <time>2020-12-13T20:40:37Z</time>
      </trkpt>
      <trkpt lat="44.59417" lon="0.84802">
        <ele>163</ele>
        <time>2020-12-13T20:40:46Z</time>
      </trkpt>
      <trkpt lat="44.59396" lon="0.84829">
        <ele>162</ele>
        <time>2020-12-13T20:40:52Z</time>
      </trkpt>
      <trkpt lat="44.59395" lon="0.84908">
        <ele>164</ele>
        <time>2020-12-13T20:41:05Z</time>
      </trkpt>
      <trkpt lat="44.59375" lon="0.8493">
        <ele>164</ele>
        <time>2020-12-13T20:41:11Z</time>
      </trkpt>
      <trkpt lat="44.5935" lon="0.8495">
        <ele>164</ele>
        <time>2020-12-13T20:41:18Z</time>
      </trkpt>
      <trkpt lat="44.59324" lon="0.84977">
        <ele>164</ele>
        <time>2020-12-13T20:41:26Z</time>
      </trkpt>
      <trkpt lat="44.5932" lon="0.85011">
        <ele>164</ele>
        <time>2020-12-13T20:41:31Z</time>
      </trkpt>
      <trkpt lat="44.59296" lon="0.85042">
        <ele>163</ele>
        <time>2020-12-13T20:41:39Z</time>
      </trkpt>
      <trkpt lat="44.59229" lon="0.85078">
        <ele>164</ele>
        <time>2020-12-13T20:41:56Z</time>
      </trkpt>
      <trkpt lat="44.59171" lon="0.85118">
        <ele>166</ele>
        <time>2020-12-13T20:42:11Z</time>
      </trkpt>
      <trkpt lat="44.59125" lon="0.85154">
        <ele>167</ele>
        <time>2020-12-13T20:42:23Z</time>
      </trkpt>
      <trkpt lat="44.59076" lon="0.85165">
        <ele>168</ele>
        <time>2020-12-13T20:42:35Z</time>
      </trkpt>
      <trkpt lat="44.59032" lon="0.85186">
        <ele>170</ele>
        <time>2020-12-13T20:42:46Z</time>
      </trkpt>
      <trkpt lat="44.58994" lon="0.85204">
        <ele>171</ele>
        <time>2020-12-13T20:42:55Z</time>
      </trkpt>
      <trkpt lat="44.5896" lon="0.8521">
        <ele>173</ele>
        <time>2020-12-13T20:43:03Z</time>
      </trkpt>
      <trkpt lat="44.58937" lon="0.85213">
        <ele>174</ele>
        <time>2020-12-13T20:43:08Z</time>
      </trkpt>
      <trkpt lat="44.58908" lon="0.85208">
        <ele>176</ele>
        <time>2020-12-13T20:43:15Z</time>
      </trkpt>
      <trkpt lat="44.58882" lon="0.85168">
        <ele>177</ele>
        <time>2020-12-13T20:43:24Z</time>
      </trkpt>
      <trkpt lat="44.58863" lon="0.85168">
        <ele>177</ele>
        <time>2020-12-13T20:43:29Z</time>
      </trkpt>
      <trkpt lat="44.58838" lon="0.85118">
        <ele>178</ele>
        <time>2020-12-13T20:43:39Z</time>
      </trkpt>
      <trkpt lat="44.58812" lon="0.85085">
        <ele>177</ele>
        <time>2020-12-13T20:43:47Z</time>
      </trkpt>
      <trkpt lat="44.58778" lon="0.85073">
        <ele>174</ele>
        <time>2020-12-13T20:43:55Z</time>
      </trkpt>
      <trkpt lat="44.58746" lon="0.85024">
        <ele>170</ele>
        <time>2020-12-13T20:44:06Z</time>
      </trkpt>
      <trkpt lat="44.58761" lon="0.84986">
        <ele>170</ele>
        <time>2020-12-13T20:44:13Z</time>
      </trkpt>
      <trkpt lat="44.58787" lon="0.84923">
        <ele>171</ele>
        <time>2020-12-13T20:44:26Z</time>
      </trkpt>
      <trkpt lat="44.58825" lon="0.84858">
        <ele>169</ele>
        <time>2020-12-13T20:44:40Z</time>
      </trkpt>
      <trkpt lat="44.58854" lon="0.84766">
        <ele>164</ele>
        <time>2020-12-13T20:44:56Z</time>
      </trkpt>
      <trkpt lat="44.58881" lon="0.84717">
        <ele>163</ele>
        <time>2020-12-13T20:45:07Z</time>
      </trkpt>
      <trkpt lat="44.5892" lon="0.84681">
        <ele>162</ele>
        <time>2020-12-13T20:45:18Z</time>
      </trkpt>
      <trkpt lat="44.58929" lon="0.84659">
        <ele>161</ele>
        <time>2020-12-13T20:45:22Z</time>
      </trkpt>
      <trkpt lat="44.5892" lon="0.84589">
        <ele>158</ele>
        <time>2020-12-13T20:45:34Z</time>
      </trkpt>
      <trkpt lat="44.58917" lon="0.8451">
        <ele>158</ele>
        <time>2020-12-13T20:45:47Z</time>
      </trkpt>
      <trkpt lat="44.58905" lon="0.84459">
        <ele>157</ele>
        <time>2020-12-13T20:45:56Z</time>
      </trkpt>
      <trkpt lat="44.58891" lon="0.84365">
        <ele>154</ele>
        <time>2020-12-13T20:46:12Z</time>
      </trkpt>
      <trkpt lat="44.58881" lon="0.84326">
        <ele>153</ele>
        <time>2020-12-13T20:46:19Z</time>
      </trkpt>
      <trkpt lat="44.58884" lon="0.84261">
        <ele>154</ele>
        <time>2020-12-13T20:46:29Z</time>
      </trkpt>
      <trkpt lat="44.58901" lon="0.84199">
        <ele>155</ele>
        <time>2020-12-13T20:46:40Z</time>
      </trkpt>
      <trkpt lat="44.58908" lon="0.84169">
        <ele>155</ele>
        <time>2020-12-13T20:46:46Z</time>
      </trkpt>
      <trkpt lat="44.58909" lon="0.84142">
        <ele>156</ele>
        <time>2020-12-13T20:46:50Z</time>
      </trkpt>
      <trkpt lat="44.58934" lon="0.84107">
        <ele>155</ele>
        <time>2020-12-13T20:46:58Z</time>
      </trkpt>
      <trkpt lat="44.59027" lon="0.84057">
        <ele>154</ele>
        <time>2020-12-13T20:47:22Z</time>
      </trkpt>
      <trkpt lat="44.59113" lon="0.8399">
        <ele>155</ele>
        <time>2020-12-13T20:47:45Z</time>
      </trkpt>
      <trkpt lat="44.59148" lon="0.83931">
        <ele>157</ele>
        <time>2020-12-13T20:47:57Z</time>
      </trkpt>
      <trkpt lat="44.59186" lon="0.83851">
        <ele>153</ele>
        <time>2020-12-13T20:48:13Z</time>
      </trkpt>
      <trkpt lat="44.59191" lon="0.83754">
        <ele>151</ele>
        <time>2020-12-13T20:48:30Z</time>
      </trkpt>
      <trkpt lat="44.59197" lon="0.8368">
        <ele>150</ele>
        <time>2020-12-13T20:48:42Z</time>
      </trkpt>
      <trkpt lat="44.59249" lon="0.8358">
        <ele>151</ele>
        <time>2020-12-13T20:49:03Z</time>
      </trkpt>
      <trkpt lat="44.59185" lon="0.83595">
        <ele>149</ele>
        <time>2020-12-13T20:49:18Z</time>
      </trkpt>
      <trkpt lat="44.59066" lon="0.83595">
        <ele>143</ele>
        <time>2020-12-13T20:49:45Z</time>
      </trkpt>
      <trkpt lat="44.58933" lon="0.83602">
        <ele>129</ele>
        <time>2020-12-13T20:50:17Z</time>
      </trkpt>
      <trkpt lat="44.58801" lon="0.83633">
        <ele>131</ele>
        <time>2020-12-13T20:50:48Z</time>
      </trkpt>
      <trkpt lat="44.58802" lon="0.83593">
        <ele>127</ele>
        <time>2020-12-13T20:50:54Z</time>
      </trkpt>
      <trkpt lat="44.58796" lon="0.8353">
        <ele>128</ele>
        <time>2020-12-13T20:51:05Z</time>
      </trkpt>
      <trkpt lat="44.58807" lon="0.83474">
        <ele>131</ele>
        <time>2020-12-13T20:51:15Z</time>
      </trkpt>
      <trkpt lat="44.58764" lon="0.83431">
        <ele>135</ele>
        <time>2020-12-13T20:51:27Z</time>
      </trkpt>
      <trkpt lat="44.58728" lon="0.83391">
        <ele>140</ele>
        <time>2020-12-13T20:51:38Z</time>
      </trkpt>
      <trkpt lat="44.58713" lon="0.8333">
        <ele>142</ele>
        <time>2020-12-13T20:51:48Z</time>
      </trkpt>
      <trkpt lat="44.58663" lon="0.83297">
        <ele>147</ele>
        <time>2020-12-13T20:52:01Z</time>
      </trkpt>
      <trkpt lat="44.58684" lon="0.83243">
        <ele>144</ele>
        <time>2020-12-13T20:52:12Z</time>
      </trkpt>
      <trkpt lat="44.58757" lon="0.83194">
        <ele>143</ele>
        <time>2020-12-13T20:52:31Z</time>
      </trkpt>
      <trkpt lat="44.58834" lon="0.83124">
        <ele>141</ele>
        <time>2020-12-13T20:52:52Z</time>
      </trkpt>
      <trkpt lat="44.58883" lon="0.8307">
        <ele>136</ele>
        <time>2020-12-13T20:53:06Z</time>
      </trkpt>
      <trkpt lat="44.58899" lon="0.82989">
        <ele>132</ele>
        <time>2020-12-13T20:53:20Z</time>
      </trkpt>
      <trkpt lat="44.58967" lon="0.82945">
        <ele>127</ele>
        <time>2020-12-13T20:53:38Z</time>
      </trkpt>
      <trkpt lat="44.59021" lon="0.82915">
        <ele>124</ele>
        <time>2020-12-13T20:53:51Z</time>
      </trkpt>
      <trkpt lat="44.59045" lon="0.82799">
        <ele>125</ele>
        <time>2020-12-13T20:54:12Z</time>
      </trkpt>
      <trkpt lat="44.58997" lon="0.82787">
        <ele>131</ele>
        <time>2020-12-13T20:54:23Z</time>
      </trkpt>
      <trkpt lat="44.58969" lon="0.82743">
        <ele>133</ele>
        <time>2020-12-13T20:54:33Z</time>
      </trkpt>
      <trkpt lat="44.58985" lon="0.8263">
        <ele>129</ele>
        <time>2020-12-13T20:54:52Z</time>
      </trkpt>
      <trkpt lat="44.58911" lon="0.82584">
        <ele>130</ele>
        <time>2020-12-13T20:55:11Z</time>
      </trkpt>
      <trkpt lat="44.58943" lon="0.82435">
        <ele>127</ele>
        <time>2020-12-13T20:55:37Z</time>
      </trkpt>
      <trkpt lat="44.59054" lon="0.82467">
        <ele>121</ele>
        <time>2020-12-13T20:56:03Z</time>
      </trkpt>
      <trkpt lat="44.59049" lon="0.82438">
        <ele>120</ele>
        <time>2020-12-13T20:56:08Z</time>
      </trkpt>
      <trkpt lat="44.59051" lon="0.82382">
        <ele>120</ele>
        <time>2020-12-13T20:56:17Z</time>
      </trkpt>
      <trkpt lat="44.59125" lon="0.82267">
        <ele>121</ele>
        <time>2020-12-13T20:56:43Z</time>
      </trkpt>
      <trkpt lat="44.59202" lon="0.82119">
        <ele>118</ele>
        <time>2020-12-13T20:57:14Z</time>
      </trkpt>
      <trkpt lat="44.59159" lon="0.82061">
        <ele>119</ele>
        <time>2020-12-13T20:57:28Z</time>
      </trkpt>
      <trkpt lat="44.59315" lon="0.81969">
        <ele>117</ele>
        <time>2020-12-13T20:58:07Z</time>
      </trkpt>
      <trkpt lat="44.5938" lon="0.81913">
        <ele>113</ele>
        <time>2020-12-13T20:58:25Z</time>
      </trkpt>
      <trkpt lat="44.59423" lon="0.81828">
        <ele>106</ele>
        <time>2020-12-13T20:58:42Z</time>
      </trkpt>
      <trkpt lat="44.59332" lon="0.81765">
        <ele>109</ele>
        <time>2020-12-13T20:59:06Z</time>
      </trkpt>
      <trkpt lat="44.59234" lon="0.81711">
        <ele>108</ele>
        <time>2020-12-13T20:59:31Z</time>
      </trkpt>
      <trkpt lat="44.59141" lon="0.81635">
        <ele>103</ele>
        <time>2020-12-13T20:59:56Z</time>
      </trkpt>
      <trkpt lat="44.59012" lon="0.8157">
        <ele>103</ele>
        <time>2020-12-13T21:00:28Z</time>
      </trkpt>
      <trkpt lat="44.58929" lon="0.81547">
        <ele>104</ele>
        <time>2020-12-13T21:00:47Z</time>
      </trkpt>
      <trkpt lat="44.58856" lon="0.81509">
        <ele>104</ele>
        <time>2020-12-13T21:01:06Z</time>
      </trkpt>
      <trkpt lat="44.58832" lon="0.81505">
        <ele>104</ele>
        <time>2020-12-13T21:01:11Z</time>
      </trkpt>
      <trkpt lat="44.58809" lon="0.81552">
        <ele>107</ele>
        <time>2020-12-13T21:01:21Z</time>
      </trkpt>
      <trkpt lat="44.58739" lon="0.81475">
        <ele>109</ele>
        <time>2020-12-13T21:01:42Z</time>
      </trkpt>
      <trkpt lat="44.58702" lon="0.81464">
        <ele>110</ele>
        <time>2020-12-13T21:01:50Z</time>
      </trkpt>
      <trkpt lat="44.5868" lon="0.81426">
        <ele>109</ele>
        <time>2020-12-13T21:01:59Z</time>
      </trkpt>
      <trkpt lat="44.58633" lon="0.81424">
        <ele>110</ele>
        <time>2020-12-13T21:02:10Z</time>
      </trkpt>
      <trkpt lat="44.58589" lon="0.81325">
        <ele>110</ele>
        <time>2020-12-13T21:02:29Z</time>
      </trkpt>
      <trkpt lat="44.58553" lon="0.81403">
        <ele>114</ele>
        <time>2020-12-13T21:02:44Z</time>
      </trkpt>
      <trkpt lat="44.58492" lon="0.81473">
        <ele>120</ele>
        <time>2020-12-13T21:03:03Z</time>
      </trkpt>
      <trkpt lat="44.58432" lon="0.81514">
        <ele>124</ele>
        <time>2020-12-13T21:03:18Z</time>
      </trkpt>
      <trkpt lat="44.58404" lon="0.81525">
        <ele>126</ele>
        <time>2020-12-13T21:03:25Z</time>
      </trkpt>
      <trkpt lat="44.58363" lon="0.81538">
        <ele>128</ele>
        <time>2020-12-13T21:03:35Z</time>
      </trkpt>
      <trkpt lat="44.58332" lon="0.81581">
        <ele>132</ele>
        <time>2020-12-13T21:03:45Z</time>
      </trkpt>
      <trkpt lat="44.58313" lon="0.81612">
        <ele>133</ele>
        <time>2020-12-13T21:03:52Z</time>
      </trkpt>
      <trkpt lat="44.58232" lon="0.81724">
        <ele>137</ele>
        <time>2020-12-13T21:04:19Z</time>
      </trkpt>
      <trkpt lat="44.58163" lon="0.81828">
        <ele>140</ele>
        <time>2020-12-13T21:04:42Z</time>
      </trkpt>
      <trkpt lat="44.58144" lon="0.81843">
        <ele>141</ele>
        <time>2020-12-13T21:04:47Z</time>
      </trkpt>
      <trkpt lat="44.58103" lon="0.81801">
        <ele>144</ele>
        <time>2020-12-13T21:04:59Z</time>
      </trkpt>
      <trkpt lat="44.58072" lon="0.81794">
        <ele>145</ele>
        <time>2020-12-13T21:05:06Z</time>
      </trkpt>
      <trkpt lat="44.58049" lon="0.81922">
        <ele>142</ele>
        <time>2020-12-13T21:05:28Z</time>
      </trkpt>
      <trkpt lat="44.58029" lon="0.82009">
        <ele>141</ele>
        <time>2020-12-13T21:05:44Z</time>
      </trkpt>
      <trkpt lat="44.57995" lon="0.82215">
        <ele>140</ele>
        <time>2020-12-13T21:06:19Z</time>
      </trkpt>
      <trkpt lat="44.57999" lon="0.82339">
        <ele>142</ele>
        <time>2020-12-13T21:06:39Z</time>
      </trkpt>
      <trkpt lat="44.58009" lon="0.82476">
        <ele>147</ele>
        <time>2020-12-13T21:07:02Z</time>
      </trkpt>
      <trkpt lat="44.57966" lon="0.82465">
        <ele>145</ele>
        <time>2020-12-13T21:07:13Z</time>
      </trkpt>
      <trkpt lat="44.57882" lon="0.82519">
        <ele>142</ele>
        <time>2020-12-13T21:07:34Z</time>
      </trkpt>
      <trkpt lat="44.57805" lon="0.8259">
        <ele>139</ele>
        <time>2020-12-13T21:07:56Z</time>
      </trkpt>
      <trkpt lat="44.57732" lon="0.82617">
        <ele>135</ele>
        <time>2020-12-13T21:08:13Z</time>
      </trkpt>
      <trkpt lat="44.57696" lon="0.82597">
        <ele>130</ele>
        <time>2020-12-13T21:08:22Z</time>
      </trkpt>
      <trkpt lat="44.57634" lon="0.8266">
        <ele>133</ele>
        <time>2020-12-13T21:08:40Z</time>
      </trkpt>
      <trkpt lat="44.57624" lon="0.82667">
        <ele>133</ele>
        <time>2020-12-13T21:08:43Z</time>
      </trkpt>
      <trkpt lat="44.57598" lon="0.8264">
        <ele>129</ele>
        <time>2020-12-13T21:08:50Z</time>
      </trkpt>
      <trkpt lat="44.57577" lon="0.82608">
        <ele>127</ele>
        <time>2020-12-13T21:08:58Z</time>
      </trkpt>
      <trkpt lat="44.5755" lon="0.82556">
        <ele>123</ele>
        <time>2020-12-13T21:09:08Z</time>
      </trkpt>
      <trkpt lat="44.57543" lon="0.82525">
        <ele>121</ele>
        <time>2020-12-13T21:09:14Z</time>
      </trkpt>
      <trkpt lat="44.57509" lon="0.8251">
        <ele>122</ele>
        <time>2020-12-13T21:09:22Z</time>
      </trkpt>
      <trkpt lat="44.57494" lon="0.82532">
        <ele>124</ele>
        <time>2020-12-13T21:09:27Z</time>
      </trkpt>
      <trkpt lat="44.5748" lon="0.82547">
        <ele>125</ele>
        <time>2020-12-13T21:09:31Z</time>
      </trkpt>
      <trkpt lat="44.57462" lon="0.8257">
        <ele>128</ele>
        <time>2020-12-13T21:09:37Z</time>
      </trkpt>
      <trkpt lat="44.57414" lon="0.82592">
        <ele>132</ele>
        <time>2020-12-13T21:09:49Z</time>
      </trkpt>
      <trkpt lat="44.57364" lon="0.82637">
        <ele>136</ele>
        <time>2020-12-13T21:10:03Z</time>
      </trkpt>
      <trkpt lat="44.57324" lon="0.82703">
        <ele>140</ele>
        <time>2020-12-13T21:10:17Z</time>
      </trkpt>
      <trkpt lat="44.5728" lon="0.82776">
        <ele>142</ele>
        <time>2020-12-13T21:10:33Z</time>
      </trkpt>
      <trkpt lat="44.5715" lon="0.82873">
        <ele>146</ele>
        <time>2020-12-13T21:11:07Z</time>
      </trkpt>
      <trkpt lat="44.57035" lon="0.82997">
        <ele>154</ele>
        <time>2020-12-13T21:11:41Z</time>
      </trkpt>
      <trkpt lat="44.56912" lon="0.83113">
        <ele>149</ele>
        <time>2020-12-13T21:12:16Z</time>
      </trkpt>
      <trkpt lat="44.56847" lon="0.8316">
        <ele>149</ele>
        <time>2020-12-13T21:12:33Z</time>
      </trkpt>
      <trkpt lat="44.568" lon="0.83184">
        <ele>150</ele>
        <time>2020-12-13T21:12:44Z</time>
      </trkpt>
      <trkpt lat="44.56743" lon="0.8321">
        <ele>151</ele>
        <time>2020-12-13T21:12:58Z</time>
      </trkpt>
      <trkpt lat="44.56717" lon="0.8322">
        <ele>151</ele>
        <time>2020-12-13T21:13:05Z</time>
      </trkpt>
      <trkpt lat="44.56672" lon="0.83274">
        <ele>151</ele>
        <time>2020-12-13T21:13:19Z</time>
      </trkpt>
      <trkpt lat="44.56597" lon="0.83347">
        <ele>151</ele>
        <time>2020-12-13T21:13:40Z</time>
      </trkpt>
      <trkpt lat="44.56539" lon="0.83413">
        <ele>153</ele>
        <time>2020-12-13T21:13:57Z</time>
      </trkpt>
      <trkpt lat="44.56499" lon="0.83493">
        <ele>157</ele>
        <time>2020-12-13T21:14:14Z</time>
      </trkpt>
      <trkpt lat="44.56545" lon="0.83536">
        <ele>156</ele>
        <time>2020-12-13T21:14:26Z</time>
      </trkpt>
      <trkpt lat="44.5661" lon="0.83579">
        <ele>157</ele>
        <time>2020-12-13T21:14:43Z</time>
      </trkpt>
      <trkpt lat="44.56698" lon="0.83615">
        <ele>160</ele>
        <time>2020-12-13T21:15:05Z</time>
      </trkpt>
      <trkpt lat="44.56771" lon="0.83718">
        <ele>164</ele>
        <time>2020-12-13T21:15:29Z</time>
      </trkpt>
      <trkpt lat="44.5684" lon="0.83701">
        <ele>163</ele>
        <time>2020-12-13T21:15:45Z</time>
      </trkpt>
      <trkpt lat="44.56899" lon="0.83628">
        <ele>161</ele>
        <time>2020-12-13T21:16:04Z</time>
      </trkpt>
      <trkpt lat="44.56921" lon="0.83641">
        <ele>160</ele>
        <time>2020-12-13T21:16:09Z</time>
      </trkpt>
      <trkpt lat="44.56948" lon="0.83727">
        <ele>162</ele>
        <time>2020-12-13T21:16:25Z</time>
      </trkpt>
      <trkpt lat="44.56971" lon="0.83783">
        <ele>162</ele>
        <time>2020-12-13T21:16:36Z</time>
      </trkpt>
      <trkpt lat="44.56919" lon="0.83823">
        <ele>164</ele>
        <time>2020-12-13T21:16:49Z</time>
      </trkpt>
      <trkpt lat="44.56878" lon="0.83881">
        <ele>162</ele>
        <time>2020-12-13T21:17:03Z</time>
      </trkpt>
      <trkpt lat="44.56879" lon="0.83948">
        <ele>162</ele>
        <time>2020-12-13T21:17:14Z</time>
      </trkpt>
      <trkpt lat="44.56924" lon="0.84064">
        <ele>163</ele>
        <time>2020-12-13T21:17:36Z</time>
      </trkpt>
      <trkpt lat="44.56947" lon="0.84124">
        <ele>163</ele>
        <time>2020-12-13T21:17:47Z</time>
      </trkpt>
      <trkpt lat="44.56922" lon="0.84165">
        <ele>162</ele>
        <time>2020-12-13T21:17:56Z</time>
      </trkpt>
      <trkpt lat="44.56837" lon="0.84216">
        <ele>157</ele>
        <time>2020-12-13T21:18:18Z</time>
      </trkpt>
      <trkpt lat="44.56789" lon="0.84272">
        <ele>151</ele>
        <time>2020-12-13T21:18:33Z</time>
      </trkpt>
      <trkpt lat="44.56777" lon="0.8433">
        <ele>152</ele>
        <time>2020-12-13T21:18:43Z</time>
      </trkpt>
      <trkpt lat="44.56788" lon="0.84403">
        <ele>153</ele>
        <time>2020-12-13T21:18:55Z</time>
      </trkpt>
      <trkpt lat="44.56759" lon="0.84458">
        <ele>155</ele>
        <time>2020-12-13T21:19:06Z</time>
      </trkpt>
      <trkpt lat="44.56756" lon="0.84536">
        <ele>157</ele>
        <time>2020-12-13T21:19:19Z</time>
      </trkpt>
      <trkpt lat="44.56763" lon="0.84619">
        <ele>156</ele>
        <time>2020-12-13T21:19:33Z</time>
      </trkpt>
      <trkpt lat="44.56736" lon="0.8469">
        <ele>154</ele>
        <time>2020-12-13T21:19:47Z</time>
      </trkpt>
      <trkpt lat="44.56698" lon="0.84752">
        <ele>154</ele>
        <time>2020-12-13T21:20:00Z</time>
      </trkpt>
      <trkpt lat="44.56661" lon="0.84782">
        <ele>156</ele>
        <time>2020-12-13T21:20:10Z</time>
      </trkpt>
      <trkpt lat="44.56641" lon="0.84832">
        <ele>159</ele>
        <time>2020-12-13T21:20:20Z</time>
      </trkpt>
      <trkpt lat="44.56679" lon="0.8492">
        <ele>166</ele>
        <time>2020-12-13T21:20:37Z</time>
      </trkpt>
      <trkpt lat="44.56713" lon="0.84978">
        <ele>168</ele>
        <time>2020-12-13T21:20:49Z</time>
      </trkpt>
      <trkpt lat="44.56786" lon="0.84999">
        <ele>172</ele>
        <time>2020-12-13T21:21:07Z</time>
      </trkpt>
      <trkpt lat="44.56878" lon="0.84999">
        <ele>170</ele>
        <time>2020-12-13T21:21:28Z</time>
      </trkpt>
      <trkpt lat="44.5691" lon="0.85001">
        <ele>168</ele>
        <time>2020-12-13T21:21:36Z</time>
      </trkpt>
      <trkpt lat="44.56919" lon="0.84907">
        <ele>172</ele>
        <time>2020-12-13T21:21:52Z</time>
      </trkpt>
      <trkpt lat="44.56962" lon="0.84969">
        <ele>169</ele>
        <time>2020-12-13T21:22:06Z</time>
      </trkpt>
      <trkpt lat="44.5702" lon="0.85003">
        <ele>168</ele>
        <time>2020-12-13T21:22:21Z</time>
      </trkpt>
      <trkpt lat="44.57158" lon="0.84965">
        <ele>176</ele>
        <time>2020-12-13T21:22:54Z</time>
      </trkpt>
      <trkpt lat="44.57225" lon="0.8498">
        <ele>177</ele>
        <time>2020-12-13T21:23:09Z</time>
      </trkpt>
      <trkpt lat="44.57286" lon="0.85106">
        <ele>176</ele>
        <time>2020-12-13T21:23:35Z</time>
      </trkpt>
      <trkpt lat="44.5735" lon="0.85244">
        <ele>178</ele>
        <time>2020-12-13T21:24:02Z</time>
      </trkpt>
      <trkpt lat="44.57408" lon="0.85306">
        <ele>179</ele>
        <time>2020-12-13T21:24:19Z</time>
      </trkpt>
      <trkpt lat="44.57404" lon="0.85323">
        <ele>179</ele>
        <time>2020-12-13T21:24:22Z</time>
      </trkpt>
      <trkpt lat="44.5737" lon="0.85347">
        <ele>178</ele>
        <time>2020-12-13T21:24:31Z</time>
      </trkpt>
      <trkpt lat="44.57341" lon="0.854">
        <ele>180</ele>
        <time>2020-12-13T21:24:42Z</time>
      </trkpt>
      <trkpt lat="44.57363" lon="0.85446">
        <ele>182</ele>
        <time>2020-12-13T21:24:51Z</time>
      </trkpt>
      <trkpt lat="44.57414" lon="0.85441">
        <ele>182</ele>
        <time>2020-12-13T21:25:03Z</time>
      </trkpt>
      <trkpt lat="44.57411" lon="0.8554">
        <ele>185</ele>
        <time>2020-12-13T21:25:20Z</time>
      </trkpt>
      <trkpt lat="44.57402" lon="0.85699">
        <ele>189</ele>
        <time>2020-12-13T21:25:46Z</time>
      </trkpt>
      <trkpt lat="44.57405" lon="0.85842">
        <ele>189</ele>
        <time>2020-12-13T21:26:10Z</time>
      </trkpt>
      <trkpt lat="44.57385" lon="0.85905">
        <ele>192</ele>
        <time>2020-12-13T21:26:22Z</time>
      </trkpt>
      <trkpt lat="44.57364" lon="0.85976">
        <ele>194</ele>
        <time>2020-12-13T21:26:34Z</time>
      </trkpt>
      <trkpt lat="44.5734" lon="0.86008">
        <ele>195</ele>
        <time>2020-12-13T21:26:42Z</time>
      </trkpt>
      <trkpt lat="44.57399" lon="0.8604">
        <ele>196</ele>
        <time>2020-12-13T21:26:57Z</time>
      </trkpt>
      <trkpt lat="44.57466" lon="0.86074">
        <ele>194</ele>
        <time>2020-12-13T21:27:13Z</time>
      </trkpt>
      <trkpt lat="44.57549" lon="0.86059">
        <ele>192</ele>
        <time>2020-12-13T21:27:33Z</time>
      </trkpt>
      <trkpt lat="44.57661" lon="0.86021">
        <ele>192</ele>
        <time>2020-12-13T21:28:00Z</time>
      </trkpt>
      <trkpt lat="44.57751" lon="0.85969">
        <ele>191</ele>
        <time>2020-12-13T21:28:23Z</time>
      </trkpt>
      <trkpt lat="44.57864" lon="0.85918">
        <ele>184</ele>
        <time>2020-12-13T21:28:50Z</time>
      </trkpt>
      <trkpt lat="44.57888" lon="0.85969">
        <ele>182</ele>
        <time>2020-12-13T21:29:01Z</time>
      </trkpt>
      <trkpt lat="44.57897" lon="0.86057">
        <ele>181</ele>
        <time>2020-12-13T21:29:15Z</time>
      </trkpt>
      <trkpt lat="44.57934" lon="0.86117">
        <ele>182</ele>
        <time>2020-12-13T21:29:29Z</time>
      </trkpt>
      <trkpt lat="44.57969" lon="0.86209">
        <ele>183</ele>
        <time>2020-12-13T21:29:46Z</time>
      </trkpt>
      <trkpt lat="44.58011" lon="0.86317">
        <ele>181</ele>
        <time>2020-12-13T21:30:06Z</time>
      </trkpt>
      <trkpt lat="44.58037" lon="0.86388">
        <ele>181</ele>
        <time>2020-12-13T21:30:20Z</time>
      </trkpt>
      <trkpt lat="44.58079" lon="0.86531">
        <ele>176</ele>
        <time>2020-12-13T21:30:45Z</time>
      </trkpt>
      <trkpt lat="44.58098" lon="0.86634">
        <ele>174</ele>
        <time>2020-12-13T21:31:03Z</time>
      </trkpt>
      <trkpt lat="44.58096" lon="0.86718">
        <ele>170</ele>
        <time>2020-12-13T21:31:17Z</time>
      </trkpt>
      <trkpt lat="44.58072" lon="0.86806">
        <ele>168</ele>
        <time>2020-12-13T21:31:33Z</time>
      </trkpt>
      <trkpt lat="44.58052" lon="0.86849">
        <ele>169</ele>
        <time>2020-12-13T21:31:41Z</time>
      </trkpt>
      <trkpt lat="44.58066" lon="0.86922">
        <ele>170</ele>
        <time>2020-12-13T21:31:54Z</time>
      </trkpt>
      <trkpt lat="44.58108" lon="0.86969">
        <ele>170</ele>
        <time>2020-12-13T21:32:06Z</time>
      </trkpt>
      <trkpt lat="44.58131" lon="0.87005">
        <ele>169</ele>
        <time>2020-12-13T21:32:14Z</time>
      </trkpt>
      <trkpt lat="44.5814" lon="0.87115">
        <ele>170</ele>
        <time>2020-12-13T21:32:33Z</time>
      </trkpt>
      <trkpt lat="44.58162" lon="0.87239">
        <ele>168</ele>
        <time>2020-12-13T21:32:54Z</time>
      </trkpt>
      <trkpt lat="44.5818" lon="0.87321">
        <ele>159</ele>
        <time>2020-12-13T21:33:08Z</time>
      </trkpt>
      <trkpt lat="44.58214" lon="0.87375">
        <ele>152</ele>
        <time>2020-12-13T21:33:20Z</time>
      </trkpt>
      <trkpt lat="44.5824" lon="0.87454">
        <ele>148</ele>
        <time>2020-12-13T21:33:35Z</time>
      </trkpt>
      <trkpt lat="44.58261" lon="0.87527">
        <ele>156</ele>
        <time>2020-12-13T21:33:48Z</time>
      </trkpt>
      <trkpt lat="44.58272" lon="0.87574">
        <ele>161</ele>
        <time>2020-12-13T21:33:56Z</time>
      </trkpt>
      <trkpt lat="44.58332" lon="0.87651">
        <ele>159</ele>
        <time>2020-12-13T21:34:15Z</time>
      </trkpt>
      <trkpt lat="44.58333" lon="0.87694">
        <ele>159</ele>
        <time>2020-12-13T21:34:22Z</time>
      </trkpt>
      <trkpt lat="44.58327" lon="0.87778">
        <ele>154</ele>
        <time>2020-12-13T21:34:36Z</time>
      </trkpt>
      <trkpt lat="44.58344" lon="0.87827">
        <ele>155</ele>
        <time>2020-12-13T21:34:45Z</time>
      </trkpt>
      <trkpt lat="44.58333" lon="0.87887">
        <ele>151</ele>
        <time>2020-12-13T21:34:56Z</time>
      </trkpt>
      <trkpt lat="44.58354" lon="0.87941">
        <ele>155</ele>
        <time>2020-12-13T21:35:06Z</time>
      </trkpt>
      <trkpt lat="44.58414" lon="0.87984">
        <ele>154</ele>
        <time>2020-12-13T21:35:22Z</time>
      </trkpt>
      <trkpt lat="44.58475" lon="0.87995">
        <ele>152</ele>
        <time>2020-12-13T21:35:36Z</time>
      </trkpt>
      <trkpt lat="44.58483" lon="0.87958">
        <ele>156</ele>
        <time>2020-12-13T21:35:42Z</time>
      </trkpt>
      <trkpt lat="44.58489" lon="0.87913">
        <ele>160</ele>
        <time>2020-12-13T21:35:50Z</time>
      </trkpt>
      <trkpt lat="44.585" lon="0.87868">
        <ele>168</ele>
        <time>2020-12-13T21:35:58Z</time>
      </trkpt>
      <trkpt lat="44.58559" lon="0.87872">
        <ele>161</ele>
        <time>2020-12-13T21:36:12Z</time>
      </trkpt>
      <trkpt lat="44.58646" lon="0.87913">
        <ele>154</ele>
        <time>2020-12-13T21:36:33Z</time>
      </trkpt>
      <trkpt lat="44.58718" lon="0.87907">
        <ele>158</ele>
        <time>2020-12-13T21:36:50Z</time>
      </trkpt>
      <trkpt lat="44.58787" lon="0.87926">
        <ele>159</ele>
        <time>2020-12-13T21:37:06Z</time>
      </trkpt>
      <trkpt lat="44.58851" lon="0.8799">
        <ele>156</ele>
        <time>2020-12-13T21:37:25Z</time>
      </trkpt>
      <trkpt lat="44.58888" lon="0.88066">
        <ele>154</ele>
        <time>2020-12-13T21:37:40Z</time>
      </trkpt>
      <trkpt lat="44.58897" lon="0.88072">
        <ele>154</ele>
        <time>2020-12-13T21:37:42Z</time>
      </trkpt>
      <trkpt lat="44.5896" lon="0.88141">
        <ele>160</ele>
        <time>2020-12-13T21:38:01Z</time>
      </trkpt>
      <trkpt lat="44.5899" lon="0.88184">
        <ele>162</ele>
        <time>2020-12-13T21:38:11Z</time>
      </trkpt>
      <trkpt lat="44.5909" lon="0.88146">
        <ele>171</ele>
        <time>2020-12-13T21:38:35Z</time>
      </trkpt>
      <trkpt lat="44.59148" lon="0.88082">
        <ele>177</ele>
        <time>2020-12-13T21:38:53Z</time>
      </trkpt>
      <trkpt lat="44.592" lon="0.87949">
        <ele>189</ele>
        <time>2020-12-13T21:39:18Z</time>
      </trkpt>
      <trkpt lat="44.59276" lon="0.87867">
        <ele>194</ele>
        <time>2020-12-13T21:39:40Z</time>
      </trkpt>
      <trkpt lat="44.59386" lon="0.87811">
        <ele>197</ele>
        <time>2020-12-13T21:40:07Z</time>
      </trkpt>
      <trkpt lat="44.59435" lon="0.87721">
        <ele>193</ele>
        <time>2020-12-13T21:40:26Z</time>
      </trkpt>
      <trkpt lat="44.59484" lon="0.87652">
        <ele>192</ele>
        <time>2020-12-13T21:40:43Z</time>
      </trkpt>
      <trkpt lat="44.5949" lon="0.87618">
        <ele>192</ele>
        <time>2020-12-13T21:40:48Z</time>
      </trkpt>
      <trkpt lat="44.59578" lon="0.877">
        <ele>197</ele>
        <time>2020-12-13T21:41:13Z</time>
      </trkpt>
      <trkpt lat="44.59621" lon="0.87631">
        <ele>197</ele>
        <time>2020-12-13T21:41:28Z</time>
      </trkpt>
      <trkpt lat="44.59637" lon="0.87549">
        <ele>190</ele>
        <time>2020-12-13T21:41:42Z</time>
      </trkpt>
      <trkpt lat="44.59661" lon="0.87494">
        <ele>184</ele>
        <time>2020-12-13T21:41:53Z</time>
      </trkpt>
      <trkpt lat="44.59704" lon="0.87468">
        <ele>183</ele>
        <time>2020-12-13T21:42:04Z</time>
      </trkpt>
      <trkpt lat="44.59743" lon="0.87412">
        <ele>178</ele>
        <time>2020-12-13T21:42:17Z</time>
      </trkpt>
      <trkpt lat="44.59771" lon="0.87365">
        <ele>179</ele>
        <time>2020-12-13T21:42:27Z</time>
      </trkpt>
      <trkpt lat="44.59786" lon="0.87339">
        <ele>178</ele>
        <time>2020-12-13T21:42:33Z</time>
      </trkpt>
      <trkpt lat="44.59826" lon="0.87249">
        <ele>173</ele>
        <time>2020-12-13T21:42:50Z</time>
      </trkpt>
      <trkpt lat="44.59887" lon="0.87185">
        <ele>169</ele>
        <time>2020-12-13T21:43:08Z</time>
      </trkpt>
      <trkpt lat="44.59951" lon="0.87198">
        <ele>167</ele>
        <time>2020-12-13T21:43:23Z</time>
      </trkpt>
      <trkpt lat="44.59994" lon="0.87301">
        <ele>167</ele>
        <time>2020-12-13T21:43:43Z</time>
      </trkpt>
      <trkpt lat="44.60012" lon="0.87296">
        <ele>165</ele>
        <time>2020-12-13T21:43:48Z</time>
      </trkpt>
      <trkpt lat="44.60144" lon="0.87331">
        <ele>158</ele>
        <time>2020-12-13T21:44:19Z</time>
      </trkpt>
      <trkpt lat="44.60248" lon="0.87339">
        <ele>158</ele>
        <time>2020-12-13T21:44:43Z</time>
      </trkpt>
      <trkpt lat="44.603" lon="0.87378">
        <ele>160</ele>
        <time>2020-12-13T21:44:57Z</time>
      </trkpt>
      <trkpt lat="44.60342" lon="0.87429">
        <ele>164</ele>
        <time>2020-12-13T21:45:10Z</time>
      </trkpt>
      <trkpt lat="44.60404" lon="0.87528">
        <ele>169</ele>
        <time>2020-12-13T21:45:32Z</time>
      </trkpt>
      <trkpt lat="44.60455" lon="0.87665">
        <ele>176</ele>
        <time>2020-12-13T21:45:58Z</time>
      </trkpt>
      <trkpt lat="44.60486" lon="0.87747">
        <ele>179</ele>
        <time>2020-12-13T21:46:13Z</time>
      </trkpt>
      <trkpt lat="44.60547" lon="0.87764">
        <ele>176</ele>
        <time>2020-12-13T21:46:28Z</time>
      </trkpt>
      <trkpt lat="44.60578" lon="0.87867">
        <ele>184</ele>
        <time>2020-12-13T21:46:46Z</time>
      </trkpt>
      <trkpt lat="44.60593" lon="0.87914">
        <ele>187</ele>
        <time>2020-12-13T21:46:55Z</time>
      </trkpt>
      <trkpt lat="44.60645" lon="0.88052">
        <ele>193</ele>
        <time>2020-12-13T21:47:21Z</time>
      </trkpt>
      <trkpt lat="44.60694" lon="0.88146">
        <ele>199</ele>
        <time>2020-12-13T21:47:40Z</time>
      </trkpt>
      <trkpt lat="44.60798" lon="0.88172">
        <ele>199</ele>
        <time>2020-12-13T21:48:05Z</time>
      </trkpt>
      <trkpt lat="44.6084" lon="0.8818">
        <ele>200</ele>
        <time>2020-12-13T21:48:15Z</time>
      </trkpt>
      <trkpt lat="44.60843" lon="0.88309">
        <ele>209</ele>
        <time>2020-12-13T21:48:36Z</time>
      </trkpt>
      <trkpt lat="44.60889" lon="0.88356">
        <ele>210</ele>
        <time>2020-12-13T21:48:49Z</time>
      </trkpt>
      <trkpt lat="44.60963" lon="0.88386">
        <ele>209</ele>
        <time>2020-12-13T21:49:07Z</time>
      </trkpt>
      <trkpt lat="44.61005" lon="0.88481">
        <ele>200</ele>
        <time>2020-12-13T21:49:26Z</time>
      </trkpt>
      <trkpt lat="44.61042" lon="0.88571">
        <ele>194</ele>
        <time>2020-12-13T21:49:43Z</time>
      </trkpt>
      <trkpt lat="44.61015" lon="0.88768">
        <ele>192</ele>
        <time>2020-12-13T21:50:17Z</time>
      </trkpt>
      <trkpt lat="44.60938" lon="0.88824">
        <ele>188</ele>
        <time>2020-12-13T21:50:37Z</time>
      </trkpt>
      <trkpt lat="44.60871" lon="0.88867">
        <ele>187</ele>
        <time>2020-12-13T21:50:54Z</time>
      </trkpt>
      <trkpt lat="44.60834" lon="0.88906">
        <ele>189</ele>
        <time>2020-12-13T21:51:05Z</time>
      </trkpt>
      <trkpt lat="44.60721" lon="0.88953">
        <ele>186</ele>
        <time>2020-12-13T21:51:32Z</time>
      </trkpt>
      <trkpt lat="44.60596" lon="0.88996">
        <ele>182</ele>
        <time>2020-12-13T21:52:02Z</time>
      </trkpt>
      <trkpt lat="44.60345" lon="0.89193">
        <ele>173</ele>
        <time>2020-12-13T21:53:10Z</time>
      </trkpt>
      <trkpt lat="44.60254" lon="0.89227">
        <ele>173</ele>
        <time>2020-12-13T21:53:32Z</time>
      </trkpt>
      <trkpt lat="44.60168" lon="0.893">
        <ele>172</ele>
        <time>2020-12-13T21:53:55Z</time>
      </trkpt>
      <trkpt lat="44.60116" lon="0.89326">
        <ele>175</ele>
        <time>2020-12-13T21:54:08Z</time>
      </trkpt>
      <trkpt lat="44.60119" lon="0.89395">
        <ele>172</ele>
        <time>2020-12-13T21:54:19Z</time>
        <extensions>
          <visugpx:TrkExtension xmlns:visugpx="https://www.visugpx.com/editgpx/">
            <visugpx:node>1</visugpx:node>
            </visugpx:TrkExtension>
        </extensions>
      </trkpt>
    </trkseg>
  </trk>
  <trk>
    <name><![CDATA[12292306-grand tour capelain]]></name>
    <extensions>
      <line xmlns="http://www.topografix.com/GPX/gpx_style/0/2">
        <color>FF0000</color>
        <width>4</width>
      </line>
    </extensions>
    <trkseg>
      <trkpt lat="44.60071" lon="0.89512">
        <ele>173</ele>
        <time>2020-12-13T19:49:36Z</time>
      </trkpt>
      <trkpt lat="44.60061" lon="0.8965">
        <ele>171</ele>
        <time>2020-12-13T19:49:59Z</time>
      </trkpt>
      <trkpt lat="44.60048" lon="0.89672">
        <ele>170</ele>
        <time>2020-12-13T19:50:04Z</time>
      </trkpt>
      <trkpt lat="44.60032" lon="0.89737">
        <ele>170</ele>
        <time>2020-12-13T19:50:15Z</time>
      </trkpt>
      <trkpt lat="44.60031" lon="0.89809">
        <ele>166</ele>
        <time>2020-12-13T19:50:27Z</time>
      </trkpt>
      <trkpt lat="44.6001" lon="0.89866">
        <ele>162</ele>
        <time>2020-12-13T19:50:38Z</time>
      </trkpt>
      <trkpt lat="44.6002" lon="0.89892">
        <ele>161</ele>
        <time>2020-12-13T19:50:43Z</time>
      </trkpt>
      <trkpt lat="44.60027" lon="0.89924">
        <ele>160</ele>
        <time>2020-12-13T19:50:48Z</time>
      </trkpt>
      <trkpt lat="44.59989" lon="0.90044">
        <ele>160</ele>
        <time>2020-12-13T19:51:10Z</time>
      </trkpt>
      <trkpt lat="44.59972" lon="0.90078">
        <ele>162</ele>
        <time>2020-12-13T19:51:17Z</time>
      </trkpt>
      <trkpt lat="44.59954" lon="0.90128">
        <ele>164</ele>
        <time>2020-12-13T19:51:26Z</time>
      </trkpt>
      <trkpt lat="44.59961" lon="0.90175">
        <ele>166</ele>
        <time>2020-12-13T19:51:34Z</time>
      </trkpt>
      <trkpt lat="44.59974" lon="0.9021">
        <ele>168</ele>
        <time>2020-12-13T19:51:41Z</time>
      </trkpt>
      <trkpt lat="44.59992" lon="0.9027">
        <ele>172</ele>
        <time>2020-12-13T19:51:52Z</time>
      </trkpt>
      <trkpt lat="44.60003" lon="0.90456">
        <ele>179</ele>
        <time>2020-12-13T19:52:23Z</time>
      </trkpt>
      <trkpt lat="44.60006" lon="0.90554">
        <ele>185</ele>
        <time>2020-12-13T19:52:39Z</time>
      </trkpt>
      <trkpt lat="44.59986" lon="0.90645">
        <ele>190</ele>
        <time>2020-12-13T19:52:55Z</time>
      </trkpt>
      <trkpt lat="44.59966" lon="0.90706">
        <ele>191</ele>
        <time>2020-12-13T19:53:06Z</time>
      </trkpt>
      <trkpt lat="44.59954" lon="0.9081">
        <ele>195</ele>
        <time>2020-12-13T19:53:24Z</time>
      </trkpt>
      <trkpt lat="44.59947" lon="0.90896">
        <ele>199</ele>
        <time>2020-12-13T19:53:38Z</time>
      </trkpt>
      <trkpt lat="44.59886" lon="0.90975">
        <ele>210</ele>
        <time>2020-12-13T19:53:57Z</time>
      </trkpt>
      <trkpt lat="44.59815" lon="0.91077">
        <ele>218</ele>
        <time>2020-12-13T19:54:21Z</time>
      </trkpt>
      <trkpt lat="44.59782" lon="0.91131">
        <ele>221</ele>
        <time>2020-12-13T19:54:33Z</time>
      </trkpt>
      <trkpt lat="44.59771" lon="0.91168">
        <ele>223</ele>
        <time>2020-12-13T19:54:40Z</time>
      </trkpt>
      <trkpt lat="44.59747" lon="0.91272">
        <ele>224</ele>
        <time>2020-12-13T19:54:58Z</time>
      </trkpt>
      <trkpt lat="44.59704" lon="0.91548">
        <ele>225</ele>
        <time>2020-12-13T19:55:45Z</time>
      </trkpt>
      <trkpt lat="44.59691" lon="0.91599">
        <ele>227</ele>
        <time>2020-12-13T19:55:54Z</time>
      </trkpt>
      <trkpt lat="44.59666" lon="0.91866">
        <ele>237</ele>
        <time>2020-12-13T19:56:39Z</time>
      </trkpt>
      <trkpt lat="44.59652" lon="0.91974">
        <ele>239</ele>
        <time>2020-12-13T19:56:57Z</time>
      </trkpt>
      <trkpt lat="44.59695" lon="0.91927">
        <ele>236</ele>
        <time>2020-12-13T19:57:10Z</time>
      </trkpt>
      <trkpt lat="44.59802" lon="0.91862">
        <ele>225</ele>
        <time>2020-12-13T19:57:37Z</time>
      </trkpt>
      <trkpt lat="44.59912" lon="0.91798">
        <ele>219</ele>
        <time>2020-12-13T19:58:05Z</time>
      </trkpt>
      <trkpt lat="44.59988" lon="0.91768">
        <ele>217</ele>
        <time>2020-12-13T19:58:23Z</time>
      </trkpt>
      <trkpt lat="44.60077" lon="0.91725">
        <ele>213</ele>
        <time>2020-12-13T19:58:45Z</time>
      </trkpt>
      <trkpt lat="44.60095" lon="0.91807">
        <ele>212</ele>
        <time>2020-12-13T19:58:59Z</time>
      </trkpt>
      <trkpt lat="44.60171" lon="0.91867">
        <ele>215</ele>
        <time>2020-12-13T19:59:20Z</time>
      </trkpt>
      <trkpt lat="44.60242" lon="0.91995">
        <ele>222</ele>
        <time>2020-12-13T19:59:47Z</time>
      </trkpt>
      <trkpt lat="44.60349" lon="0.91983">
        <ele>226</ele>
        <time>2020-12-13T20:00:12Z</time>
      </trkpt>
      <trkpt lat="44.60349" lon="0.91691">
        <ele>210</ele>
        <time>2020-12-13T20:01:00Z</time>
      </trkpt>
      <trkpt lat="44.60413" lon="0.91639">
        <ele>213</ele>
        <time>2020-12-13T20:01:18Z</time>
      </trkpt>
      <trkpt lat="44.60526" lon="0.91618">
        <ele>204</ele>
        <time>2020-12-13T20:01:44Z</time>
      </trkpt>
      <trkpt lat="44.60602" lon="0.91609">
        <ele>204</ele>
        <time>2020-12-13T20:02:02Z</time>
      </trkpt>
      <trkpt lat="44.60663" lon="0.91665">
        <ele>205</ele>
        <time>2020-12-13T20:02:19Z</time>
      </trkpt>
      <trkpt lat="44.60773" lon="0.91622">
        <ele>198</ele>
        <time>2020-12-13T20:02:46Z</time>
      </trkpt>
      <trkpt lat="44.60831" lon="0.91558">
        <ele>197</ele>
        <time>2020-12-13T20:03:03Z</time>
      </trkpt>
      <trkpt lat="44.60886" lon="0.91605">
        <ele>195</ele>
        <time>2020-12-13T20:03:18Z</time>
      </trkpt>
      <trkpt lat="44.60984" lon="0.91511">
        <ele>187</ele>
        <time>2020-12-13T20:03:46Z</time>
      </trkpt>
      <trkpt lat="44.60984" lon="0.91317">
        <ele>175</ele>
        <time>2020-12-13T20:04:18Z</time>
      </trkpt>
      <trkpt lat="44.61073" lon="0.9121">
        <ele>179</ele>
        <time>2020-12-13T20:04:45Z</time>
      </trkpt>
      <trkpt lat="44.61115" lon="0.91133">
        <ele>185</ele>
        <time>2020-12-13T20:05:01Z</time>
      </trkpt>
      <trkpt lat="44.61268" lon="0.91116">
        <ele>197</ele>
        <time>2020-12-13T20:05:37Z</time>
      </trkpt>
      <trkpt lat="44.61412" lon="0.91116">
        <ele>200</ele>
        <time>2020-12-13T20:06:11Z</time>
      </trkpt>
      <trkpt lat="44.61424" lon="0.90974">
        <ele>205</ele>
        <time>2020-12-13T20:06:35Z</time>
      </trkpt>
      <trkpt lat="44.61433" lon="0.90755">
        <ele>217</ele>
        <time>2020-12-13T20:07:11Z</time>
      </trkpt>
      <trkpt lat="44.61378" lon="0.90541">
        <ele>229</ele>
        <time>2020-12-13T20:07:49Z</time>
      </trkpt>
      <trkpt lat="44.61393" lon="0.90403">
        <ele>226</ele>
        <time>2020-12-13T20:08:12Z</time>
      </trkpt>
      <trkpt lat="44.61537" lon="0.9033">
        <ele>227</ele>
        <time>2020-12-13T20:08:48Z</time>
      </trkpt>
      <trkpt lat="44.61528" lon="0.90257">
        <ele>225</ele>
        <time>2020-12-13T20:09:00Z</time>
      </trkpt>
      <trkpt lat="44.61412" lon="0.90081">
        <ele>219</ele>
        <time>2020-12-13T20:09:40Z</time>
      </trkpt>
      <trkpt lat="44.61332" lon="0.90077">
        <ele>214</ele>
        <time>2020-12-13T20:09:59Z</time>
      </trkpt>
      <trkpt lat="44.61088" lon="0.90094">
        <ele>201</ele>
        <time>2020-12-13T20:10:56Z</time>
      </trkpt>
      <trkpt lat="44.61076" lon="0.90008">
        <ele>200</ele>
        <time>2020-12-13T20:11:10Z</time>
      </trkpt>
      <trkpt lat="44.61073" lon="0.89906">
        <ele>203</ele>
        <time>2020-12-13T20:11:27Z</time>
      </trkpt>
      <trkpt lat="44.61057" lon="0.8976">
        <ele>205</ele>
        <time>2020-12-13T20:11:52Z</time>
      </trkpt>
      <trkpt lat="44.61091" lon="0.89725">
        <ele>208</ele>
        <time>2020-12-13T20:12:02Z</time>
      </trkpt>
      <trkpt lat="44.61125" lon="0.89627">
        <ele>213</ele>
        <time>2020-12-13T20:12:20Z</time>
      </trkpt>
      <trkpt lat="44.61271" lon="0.89451">
        <ele>215</ele>
        <time>2020-12-13T20:13:05Z</time>
      </trkpt>
      <trkpt lat="44.61482" lon="0.89215">
        <ele>200</ele>
        <time>2020-12-13T20:14:08Z</time>
      </trkpt>
      <trkpt lat="44.61564" lon="0.89177">
        <ele>201</ele>
        <time>2020-12-13T20:14:28Z</time>
      </trkpt>
      <trkpt lat="44.61618" lon="0.89462">
        <ele>206</ele>
        <time>2020-12-13T20:15:17Z</time>
      </trkpt>
      <trkpt lat="44.61584" lon="0.89585">
        <ele>208</ele>
        <time>2020-12-13T20:15:39Z</time>
      </trkpt>
      <trkpt lat="44.61605" lon="0.89723">
        <ele>210</ele>
        <time>2020-12-13T20:16:02Z</time>
      </trkpt>
      <trkpt lat="44.61678" lon="0.89884">
        <ele>210</ele>
        <time>2020-12-13T20:16:34Z</time>
      </trkpt>
      <trkpt lat="44.61745" lon="0.90044">
        <ele>214</ele>
        <time>2020-12-13T20:17:05Z</time>
      </trkpt>
      <trkpt lat="44.61832" lon="0.90241">
        <ele>218</ele>
        <time>2020-12-13T20:17:43Z</time>
      </trkpt>
      <trkpt lat="44.619" lon="0.90315">
        <ele>226</ele>
        <time>2020-12-13T20:18:04Z</time>
      </trkpt>
      <trkpt lat="44.61987" lon="0.90368">
        <ele>230</ele>
        <time>2020-12-13T20:18:26Z</time>
      </trkpt>
      <trkpt lat="44.62083" lon="0.90478">
        <ele>230</ele>
        <time>2020-12-13T20:18:55Z</time>
      </trkpt>
      <trkpt lat="44.62145" lon="0.90578">
        <ele>235</ele>
        <time>2020-12-13T20:19:17Z</time>
      </trkpt>
      <trkpt lat="44.62179" lon="0.90692">
        <ele>240</ele>
        <time>2020-12-13T20:19:37Z</time>
      </trkpt>
      <trkpt lat="44.62201" lon="0.90777">
        <ele>241</ele>
        <time>2020-12-13T20:19:52Z</time>
      </trkpt>
      <trkpt lat="44.6223" lon="0.90953">
        <ele>241</ele>
        <time>2020-12-13T20:20:22Z</time>
      </trkpt>
      <trkpt lat="44.62274" lon="0.91062">
        <ele>242</ele>
        <time>2020-12-13T20:20:43Z</time>
      </trkpt>
      <trkpt lat="44.62337" lon="0.91159">
        <ele>240</ele>
        <time>2020-12-13T20:21:05Z</time>
      </trkpt>
      <trkpt lat="44.62425" lon="0.91325">
        <ele>241</ele>
        <time>2020-12-13T20:21:39Z</time>
      </trkpt>
      <trkpt lat="44.62483" lon="0.91494">
        <ele>243</ele>
        <time>2020-12-13T20:22:11Z</time>
      </trkpt>
      <trkpt lat="44.62426" lon="0.91596">
        <ele>235</ele>
        <time>2020-12-13T20:22:32Z</time>
      </trkpt>
      <trkpt lat="44.62435" lon="0.91754">
        <ele>243</ele>
        <time>2020-12-13T20:22:58Z</time>
      </trkpt>
      <trkpt lat="44.62406" lon="0.91831">
        <ele>240</ele>
        <time>2020-12-13T20:23:13Z</time>
      </trkpt>
      <trkpt lat="44.62386" lon="0.92042">
        <ele>243</ele>
        <time>2020-12-13T20:23:48Z</time>
      </trkpt>
      <trkpt lat="44.62379" lon="0.92188">
        <ele>251</ele>
        <time>2020-12-13T20:24:13Z</time>
      </trkpt>
      <trkpt lat="44.62307" lon="0.92326">
        <ele>248</ele>
        <time>2020-12-13T20:24:41Z</time>
      </trkpt>
      <trkpt lat="44.62317" lon="0.92369">
        <ele>250</ele>
        <time>2020-12-13T20:24:49Z</time>
      </trkpt>
      <trkpt lat="44.62287" lon="0.92453">
        <ele>251</ele>
        <time>2020-12-13T20:25:04Z</time>
      </trkpt>
      <trkpt lat="44.62267" lon="0.92565">
        <ele>251</ele>
        <time>2020-12-13T20:25:23Z</time>
      </trkpt>
      <trkpt lat="44.62276" lon="0.92591">
        <ele>251</ele>
        <time>2020-12-13T20:25:28Z</time>
      </trkpt>
      <trkpt lat="44.62328" lon="0.92713">
        <ele>243</ele>
        <time>2020-12-13T20:25:52Z</time>
      </trkpt>
      <trkpt lat="44.62361" lon="0.92872">
        <ele>232</ele>
        <time>2020-12-13T20:26:19Z</time>
      </trkpt>
      <trkpt lat="44.62425" lon="0.92997">
        <ele>227</ele>
        <time>2020-12-13T20:26:45Z</time>
      </trkpt>
      <trkpt lat="44.62492" lon="0.93101">
        <ele>229</ele>
        <time>2020-12-13T20:27:08Z</time>
      </trkpt>
      <trkpt lat="44.62523" lon="0.93178">
        <ele>227</ele>
        <time>2020-12-13T20:27:23Z</time>
      </trkpt>
      <trkpt lat="44.62548" lon="0.93221">
        <ele>227</ele>
        <time>2020-12-13T20:27:32Z</time>
      </trkpt>
      <trkpt lat="44.6259" lon="0.93272">
        <ele>228</ele>
        <time>2020-12-13T20:27:45Z</time>
      </trkpt>
      <trkpt lat="44.62626" lon="0.93415">
        <ele>231</ele>
        <time>2020-12-13T20:28:10Z</time>
      </trkpt>
      <trkpt lat="44.62682" lon="0.9342">
        <ele>232</ele>
        <time>2020-12-13T20:28:23Z</time>
      </trkpt>
      <trkpt lat="44.62715" lon="0.93395">
        <ele>236</ele>
        <time>2020-12-13T20:28:32Z</time>
      </trkpt>
      <trkpt lat="44.6281" lon="0.93331">
        <ele>247</ele>
        <time>2020-12-13T20:28:57Z</time>
      </trkpt>
      <trkpt lat="44.62951" lon="0.93293">
        <ele>252</ele>
        <time>2020-12-13T20:29:30Z</time>
      </trkpt>
      <trkpt lat="44.63077" lon="0.93295">
        <ele>255</ele>
        <time>2020-12-13T20:30:00Z</time>
      </trkpt>
      <trkpt lat="44.63162" lon="0.93242">
        <ele>258</ele>
        <time>2020-12-13T20:30:22Z</time>
      </trkpt>
      <trkpt lat="44.63236" lon="0.93272">
        <ele>262</ele>
        <time>2020-12-13T20:30:40Z</time>
      </trkpt>
      <trkpt lat="44.63307" lon="0.93288">
        <ele>265</ele>
        <time>2020-12-13T20:30:56Z</time>
      </trkpt>
      <trkpt lat="44.6342" lon="0.9329">
        <ele>270</ele>
        <time>2020-12-13T20:31:23Z</time>
      </trkpt>
      <trkpt lat="44.63514" lon="0.93331">
        <ele>275</ele>
        <time>2020-12-13T20:31:46Z</time>
      </trkpt>
      <trkpt lat="44.63589" lon="0.93339">
        <ele>282</ele>
        <time>2020-12-13T20:32:03Z</time>
      </trkpt>
      <trkpt lat="44.63701" lon="0.93297">
        <ele>283</ele>
        <time>2020-12-13T20:32:30Z</time>
      </trkpt>
      <trkpt lat="44.6379" lon="0.93429">
        <ele>279</ele>
        <time>2020-12-13T20:33:01Z</time>
      </trkpt>
      <trkpt lat="44.63883" lon="0.93661">
        <ele>275</ele>
        <time>2020-12-13T20:33:45Z</time>
      </trkpt>
      <trkpt lat="44.64003" lon="0.93979">
        <ele>272</ele>
        <time>2020-12-13T20:34:45Z</time>
      </trkpt>
      <trkpt lat="44.6404" lon="0.9441">
        <ele>270</ele>
        <time>2020-12-13T20:35:57Z</time>
      </trkpt>
      <trkpt lat="44.63916" lon="0.9451">
        <ele>268</ele>
        <time>2020-12-13T20:36:30Z</time>
      </trkpt>
      <trkpt lat="44.63782" lon="0.9463">
        <ele>257</ele>
        <time>2020-12-13T20:37:07Z</time>
      </trkpt>
      <trkpt lat="44.63737" lon="0.9469">
        <ele>255</ele>
        <time>2020-12-13T20:37:22Z</time>
      </trkpt>
      <trkpt lat="44.63691" lon="0.94775">
        <ele>257</ele>
        <time>2020-12-13T20:37:39Z</time>
      </trkpt>
      <trkpt lat="44.6366" lon="0.94759">
        <ele>254</ele>
        <time>2020-12-13T20:37:47Z</time>
      </trkpt>
      <trkpt lat="44.63596" lon="0.94739">
        <ele>254</ele>
        <time>2020-12-13T20:38:02Z</time>
      </trkpt>
      <trkpt lat="44.63476" lon="0.94759">
        <ele>248</ele>
        <time>2020-12-13T20:38:31Z</time>
      </trkpt>
      <trkpt lat="44.63403" lon="0.94805">
        <ele>246</ele>
        <time>2020-12-13T20:38:49Z</time>
      </trkpt>
      <trkpt lat="44.6336" lon="0.94953">
        <ele>253</ele>
        <time>2020-12-13T20:39:16Z</time>
      </trkpt>
      <trkpt lat="44.6332" lon="0.95011">
        <ele>254</ele>
        <time>2020-12-13T20:39:29Z</time>
      </trkpt>
      <trkpt lat="44.6329" lon="0.95083">
        <ele>257</ele>
        <time>2020-12-13T20:39:43Z</time>
      </trkpt>
      <trkpt lat="44.63218" lon="0.95118">
        <ele>255</ele>
        <time>2020-12-13T20:40:01Z</time>
      </trkpt>
      <trkpt lat="44.63087" lon="0.95145">
        <ele>252</ele>
        <time>2020-12-13T20:40:32Z</time>
      </trkpt>
      <trkpt lat="44.63013" lon="0.95181">
        <ele>245</ele>
        <time>2020-12-13T20:40:50Z</time>
      </trkpt>
      <trkpt lat="44.62847" lon="0.95287">
        <ele>247</ele>
        <time>2020-12-13T20:41:33Z</time>
      </trkpt>
      <trkpt lat="44.627" lon="0.95361">
        <ele>244</ele>
        <time>2020-12-13T20:42:09Z</time>
      </trkpt>
      <trkpt lat="44.62516" lon="0.95433">
        <ele>240</ele>
        <time>2020-12-13T20:42:54Z</time>
      </trkpt>
      <trkpt lat="44.62408" lon="0.9537">
        <ele>240</ele>
        <time>2020-12-13T20:43:21Z</time>
      </trkpt>
      <trkpt lat="44.62232" lon="0.95349">
        <ele>241</ele>
        <time>2020-12-13T20:44:02Z</time>
      </trkpt>
      <trkpt lat="44.62038" lon="0.95302">
        <ele>248</ele>
        <time>2020-12-13T20:44:48Z</time>
      </trkpt>
      <trkpt lat="44.61884" lon="0.95237">
        <ele>251</ele>
        <time>2020-12-13T20:45:26Z</time>
      </trkpt>
      <trkpt lat="44.61695" lon="0.9519">
        <ele>250</ele>
        <time>2020-12-13T20:46:11Z</time>
      </trkpt>
      <trkpt lat="44.61604" lon="0.95179">
        <ele>251</ele>
        <time>2020-12-13T20:46:32Z</time>
      </trkpt>
      <trkpt lat="44.61487" lon="0.95231">
        <ele>247</ele>
        <time>2020-12-13T20:47:01Z</time>
      </trkpt>
      <trkpt lat="44.61135" lon="0.95487">
        <ele>236</ele>
        <time>2020-12-13T20:48:33Z</time>
      </trkpt>
      <trkpt lat="44.61036" lon="0.95718">
        <ele>240</ele>
        <time>2020-12-13T20:49:18Z</time>
      </trkpt>
      <trkpt lat="44.60985" lon="0.95931">
        <ele>234</ele>
        <time>2020-12-13T20:49:56Z</time>
      </trkpt>
      <trkpt lat="44.6093" lon="0.96004">
        <ele>231</ele>
        <time>2020-12-13T20:50:13Z</time>
      </trkpt>
      <trkpt lat="44.60773" lon="0.96115">
        <ele>222</ele>
        <time>2020-12-13T20:50:54Z</time>
      </trkpt>
      <trkpt lat="44.60684" lon="0.96222">
        <ele>218</ele>
        <time>2020-12-13T20:51:22Z</time>
      </trkpt>
      <trkpt lat="44.60624" lon="0.96375">
        <ele>211</ele>
        <time>2020-12-13T20:51:51Z</time>
      </trkpt>
      <trkpt lat="44.60639" lon="0.9644">
        <ele>207</ele>
        <time>2020-12-13T20:52:02Z</time>
      </trkpt>
      <trkpt lat="44.60621" lon="0.96689">
        <ele>203</ele>
        <time>2020-12-13T20:52:44Z</time>
      </trkpt>
      <trkpt lat="44.60633" lon="0.96855">
        <ele>190</ele>
        <time>2020-12-13T20:53:11Z</time>
      </trkpt>
      <trkpt lat="44.60507" lon="0.96974">
        <ele>181</ele>
        <time>2020-12-13T20:53:47Z</time>
      </trkpt>
      <trkpt lat="44.6043" lon="0.97003">
        <ele>183</ele>
        <time>2020-12-13T20:54:05Z</time>
      </trkpt>
      <trkpt lat="44.6037" lon="0.97068">
        <ele>172</ele>
        <time>2020-12-13T20:54:23Z</time>
      </trkpt>
      <trkpt lat="44.60341" lon="0.97164">
        <ele>153</ele>
        <time>2020-12-13T20:54:40Z</time>
      </trkpt>
      <trkpt lat="44.60291" lon="0.97164">
        <ele>152</ele>
        <time>2020-12-13T20:54:52Z</time>
      </trkpt>
      <trkpt lat="44.60204" lon="0.97126">
        <ele>156</ele>
        <time>2020-12-13T20:55:13Z</time>
      </trkpt>
      <trkpt lat="44.60162" lon="0.97083">
        <ele>154</ele>
        <time>2020-12-13T20:55:26Z</time>
      </trkpt>
      <trkpt lat="44.60054" lon="0.97041">
        <ele>140</ele>
        <time>2020-12-13T20:55:52Z</time>
      </trkpt>
      <trkpt lat="44.60001" lon="0.97016">
        <ele>136</ele>
        <time>2020-12-13T20:56:05Z</time>
      </trkpt>
      <trkpt lat="44.5992" lon="0.97084">
        <ele>148</ele>
        <time>2020-12-13T20:56:27Z</time>
      </trkpt>
      <trkpt lat="44.59881" lon="0.97135">
        <ele>156</ele>
        <time>2020-12-13T20:56:39Z</time>
      </trkpt>
      <trkpt lat="44.59816" lon="0.97203">
        <ele>166</ele>
        <time>2020-12-13T20:56:58Z</time>
      </trkpt>
      <trkpt lat="44.59766" lon="0.9723">
        <ele>169</ele>
        <time>2020-12-13T20:57:11Z</time>
      </trkpt>
      <trkpt lat="44.59714" lon="0.97182">
        <ele>174</ele>
        <time>2020-12-13T20:57:25Z</time>
      </trkpt>
      <trkpt lat="44.59698" lon="0.97126">
        <ele>173</ele>
        <time>2020-12-13T20:57:35Z</time>
      </trkpt>
      <trkpt lat="44.5973" lon="0.97048">
        <ele>177</ele>
        <time>2020-12-13T20:57:50Z</time>
      </trkpt>
      <trkpt lat="44.59731" lon="0.97009">
        <ele>178</ele>
        <time>2020-12-13T20:57:57Z</time>
      </trkpt>
      <trkpt lat="44.59717" lon="0.96945">
        <ele>173</ele>
        <time>2020-12-13T20:58:08Z</time>
      </trkpt>
      <trkpt lat="44.59713" lon="0.96886">
        <ele>168</ele>
        <time>2020-12-13T20:58:18Z</time>
      </trkpt>
      <trkpt lat="44.59704" lon="0.96843">
        <ele>163</ele>
        <time>2020-12-13T20:58:25Z</time>
      </trkpt>
      <trkpt lat="44.59693" lon="0.96823">
        <ele>161</ele>
        <time>2020-12-13T20:58:29Z</time>
      </trkpt>
      <trkpt lat="44.59654" lon="0.96734">
        <ele>159</ele>
        <time>2020-12-13T20:58:47Z</time>
      </trkpt>
      <trkpt lat="44.59618" lon="0.96716">
        <ele>156</ele>
        <time>2020-12-13T20:58:56Z</time>
      </trkpt>
      <trkpt lat="44.59637" lon="0.96622">
        <ele>142</ele>
        <time>2020-12-13T20:59:12Z</time>
      </trkpt>
      <trkpt lat="44.596" lon="0.96597">
        <ele>136</ele>
        <time>2020-12-13T20:59:22Z</time>
      </trkpt>
      <trkpt lat="44.59655" lon="0.96595">
        <ele>138</ele>
        <time>2020-12-13T20:59:34Z</time>
      </trkpt>
      <trkpt lat="44.59694" lon="0.96604">
        <ele>141</ele>
        <time>2020-12-13T20:59:44Z</time>
      </trkpt>
      <trkpt lat="44.59689" lon="0.96566">
        <ele>139</ele>
        <time>2020-12-13T20:59:50Z</time>
      </trkpt>
      <trkpt lat="44.59651" lon="0.96489">
        <ele>141</ele>
        <time>2020-12-13T21:00:06Z</time>
      </trkpt>
      <trkpt lat="44.59554" lon="0.9642">
        <ele>143</ele>
        <time>2020-12-13T21:00:31Z</time>
      </trkpt>
      <trkpt lat="44.5946" lon="0.96399">
        <ele>140</ele>
        <time>2020-12-13T21:00:53Z</time>
      </trkpt>
      <trkpt lat="44.59416" lon="0.96366">
        <ele>139</ele>
        <time>2020-12-13T21:01:05Z</time>
      </trkpt>
      <trkpt lat="44.59445" lon="0.96307">
        <ele>138</ele>
        <time>2020-12-13T21:01:17Z</time>
      </trkpt>
      <trkpt lat="44.5946" lon="0.96265">
        <ele>133</ele>
        <time>2020-12-13T21:01:25Z</time>
      </trkpt>
      <trkpt lat="44.59482" lon="0.96189">
        <ele>133</ele>
        <time>2020-12-13T21:01:38Z</time>
      </trkpt>
      <trkpt lat="44.59473" lon="0.96153">
        <ele>136</ele>
        <time>2020-12-13T21:01:45Z</time>
      </trkpt>
      <trkpt lat="44.59442" lon="0.96115">
        <ele>140</ele>
        <time>2020-12-13T21:01:54Z</time>
      </trkpt>
      <trkpt lat="44.59465" lon="0.9611">
        <ele>144</ele>
        <time>2020-12-13T21:02:00Z</time>
      </trkpt>
      <trkpt lat="44.59522" lon="0.96112">
        <ele>148</ele>
        <time>2020-12-13T21:02:13Z</time>
      </trkpt>
      <trkpt lat="44.59571" lon="0.96087">
        <ele>154</ele>
        <time>2020-12-13T21:02:25Z</time>
      </trkpt>
      <trkpt lat="44.59595" lon="0.96028">
        <ele>168</ele>
        <time>2020-12-13T21:02:36Z</time>
      </trkpt>
      <trkpt lat="44.59582" lon="0.95872">
        <ele>189</ele>
        <time>2020-12-13T21:03:03Z</time>
      </trkpt>
      <trkpt lat="44.59605" lon="0.95744">
        <ele>197</ele>
        <time>2020-12-13T21:03:25Z</time>
      </trkpt>
      <trkpt lat="44.5961" lon="0.95652">
        <ele>198</ele>
        <time>2020-12-13T21:03:40Z</time>
      </trkpt>
      <trkpt lat="44.59564" lon="0.95525">
        <ele>202</ele>
        <time>2020-12-13T21:04:04Z</time>
      </trkpt>
      <trkpt lat="44.59574" lon="0.95428">
        <ele>211</ele>
        <time>2020-12-13T21:04:20Z</time>
      </trkpt>
      <trkpt lat="44.59595" lon="0.95349">
        <ele>215</ele>
        <time>2020-12-13T21:04:34Z</time>
      </trkpt>
      <trkpt lat="44.5958" lon="0.953">
        <ele>218</ele>
        <time>2020-12-13T21:04:43Z</time>
      </trkpt>
      <trkpt lat="44.5959" lon="0.95208">
        <ele>222</ele>
        <time>2020-12-13T21:04:58Z</time>
      </trkpt>
      <trkpt lat="44.59622" lon="0.9515">
        <ele>225</ele>
        <time>2020-12-13T21:05:10Z</time>
      </trkpt>
      <trkpt lat="44.59682" lon="0.95094">
        <ele>229</ele>
        <time>2020-12-13T21:05:27Z</time>
      </trkpt>
      <trkpt lat="44.59721" lon="0.94939">
        <ele>236</ele>
        <time>2020-12-13T21:05:55Z</time>
      </trkpt>
      <trkpt lat="44.59786" lon="0.94843">
        <ele>237</ele>
        <time>2020-12-13T21:06:17Z</time>
      </trkpt>
      <trkpt lat="44.59845" lon="0.94715">
        <ele>235</ele>
        <time>2020-12-13T21:06:42Z</time>
      </trkpt>
      <trkpt lat="44.59903" lon="0.94544">
        <ele>232</ele>
        <time>2020-12-13T21:07:13Z</time>
      </trkpt>
      <trkpt lat="44.59875" lon="0.94452">
        <ele>237</ele>
        <time>2020-12-13T21:07:30Z</time>
      </trkpt>
      <trkpt lat="44.59826" lon="0.94315">
        <ele>240</ele>
        <time>2020-12-13T21:07:56Z</time>
      </trkpt>
      <trkpt lat="44.5979" lon="0.94143">
        <ele>237</ele>
        <time>2020-12-13T21:08:25Z</time>
      </trkpt>
      <trkpt lat="44.59779" lon="0.93954">
        <ele>232</ele>
        <time>2020-12-13T21:08:57Z</time>
      </trkpt>
      <trkpt lat="44.59736" lon="0.93835">
        <ele>230</ele>
        <time>2020-12-13T21:09:19Z</time>
      </trkpt>
      <trkpt lat="44.59682" lon="0.93752">
        <ele>235</ele>
        <time>2020-12-13T21:09:38Z</time>
      </trkpt>
      <trkpt lat="44.59639" lon="0.93723">
        <ele>235</ele>
        <time>2020-12-13T21:09:49Z</time>
      </trkpt>
      <trkpt lat="44.59608" lon="0.93591">
        <ele>236</ele>
        <time>2020-12-13T21:10:12Z</time>
      </trkpt>
      <trkpt lat="44.59546" lon="0.93403">
        <ele>242</ele>
        <time>2020-12-13T21:10:47Z</time>
      </trkpt>
      <trkpt lat="44.59497" lon="0.93329">
        <ele>241</ele>
        <time>2020-12-13T21:11:03Z</time>
      </trkpt>
      <trkpt lat="44.59443" lon="0.93176">
        <ele>239</ele>
        <time>2020-12-13T21:11:32Z</time>
      </trkpt>
      <trkpt lat="44.59414" lon="0.9301">
        <ele>241</ele>
        <time>2020-12-13T21:12:00Z</time>
      </trkpt>
      <trkpt lat="44.59373" lon="0.92947">
        <ele>240</ele>
        <time>2020-12-13T21:12:14Z</time>
      </trkpt>
      <trkpt lat="44.59337" lon="0.92882">
        <ele>241</ele>
        <time>2020-12-13T21:12:28Z</time>
      </trkpt>
      <trkpt lat="44.59296" lon="0.92853">
        <ele>241</ele>
        <time>2020-12-13T21:12:39Z</time>
      </trkpt>
      <trkpt lat="44.59238" lon="0.92833">
        <ele>241</ele>
        <time>2020-12-13T21:12:53Z</time>
      </trkpt>
      <trkpt lat="44.59222" lon="0.92781">
        <ele>242</ele>
        <time>2020-12-13T21:13:02Z</time>
      </trkpt>
      <trkpt lat="44.59194" lon="0.92738">
        <ele>241</ele>
        <time>2020-12-13T21:13:12Z</time>
      </trkpt>
      <trkpt lat="44.59153" lon="0.92765">
        <ele>241</ele>
        <time>2020-12-13T21:13:22Z</time>
      </trkpt>
      <trkpt lat="44.59111" lon="0.92783">
        <ele>242</ele>
        <time>2020-12-13T21:13:33Z</time>
      </trkpt>
      <trkpt lat="44.58988" lon="0.92725">
        <ele>242</ele>
        <time>2020-12-13T21:14:03Z</time>
      </trkpt>
      <trkpt lat="44.59024" lon="0.92642">
        <ele>242</ele>
        <time>2020-12-13T21:14:19Z</time>
      </trkpt>
      <trkpt lat="44.59037" lon="0.92593">
        <ele>243</ele>
        <time>2020-12-13T21:14:28Z</time>
      </trkpt>
      <trkpt lat="44.59008" lon="0.92508">
        <ele>243</ele>
        <time>2020-12-13T21:14:43Z</time>
      </trkpt>
      <trkpt lat="44.5894" lon="0.92389">
        <ele>243</ele>
        <time>2020-12-13T21:15:09Z</time>
      </trkpt>
      <trkpt lat="44.5878" lon="0.92449">
        <ele>246</ele>
        <time>2020-12-13T21:15:48Z</time>
      </trkpt>
      <trkpt lat="44.58657" lon="0.92462">
        <ele>243</ele>
        <time>2020-12-13T21:16:16Z</time>
      </trkpt>
      <trkpt lat="44.58666" lon="0.92534">
        <ele>241</ele>
        <time>2020-12-13T21:16:28Z</time>
      </trkpt>
      <trkpt lat="44.58498" lon="0.92487">
        <ele>245</ele>
        <time>2020-12-13T21:17:08Z</time>
      </trkpt>
      <trkpt lat="44.58316" lon="0.92467">
        <ele>237</ele>
        <time>2020-12-13T21:17:51Z</time>
      </trkpt>
      <trkpt lat="44.58232" lon="0.92505">
        <ele>241</ele>
        <time>2020-12-13T21:18:12Z</time>
      </trkpt>
      <trkpt lat="44.58243" lon="0.92604">
        <ele>243</ele>
        <time>2020-12-13T21:18:28Z</time>
      </trkpt>
      <trkpt lat="44.58278" lon="0.92783">
        <ele>234</ele>
        <time>2020-12-13T21:18:59Z</time>
      </trkpt>
      <trkpt lat="44.58277" lon="0.92848">
        <ele>229</ele>
        <time>2020-12-13T21:19:10Z</time>
      </trkpt>
      <trkpt lat="44.58264" lon="0.9294">
        <ele>226</ele>
        <time>2020-12-13T21:19:26Z</time>
      </trkpt>
      <trkpt lat="44.58246" lon="0.92997">
        <ele>227</ele>
        <time>2020-12-13T21:19:36Z</time>
      </trkpt>
      <trkpt lat="44.58158" lon="0.93048">
        <ele>215</ele>
        <time>2020-12-13T21:19:58Z</time>
      </trkpt>
      <trkpt lat="44.58112" lon="0.93079">
        <ele>215</ele>
        <time>2020-12-13T21:20:10Z</time>
      </trkpt>
      <trkpt lat="44.58059" lon="0.93059">
        <ele>220</ele>
        <time>2020-12-13T21:20:23Z</time>
      </trkpt>
      <trkpt lat="44.57949" lon="0.93028">
        <ele>235</ele>
        <time>2020-12-13T21:20:49Z</time>
      </trkpt>
      <trkpt lat="44.57895" lon="0.92963">
        <ele>239</ele>
        <time>2020-12-13T21:21:06Z</time>
      </trkpt>
      <trkpt lat="44.57868" lon="0.92862">
        <ele>242</ele>
        <time>2020-12-13T21:21:24Z</time>
      </trkpt>
      <trkpt lat="44.5781" lon="0.92777">
        <ele>248</ele>
        <time>2020-12-13T21:21:43Z</time>
      </trkpt>
      <trkpt lat="44.57773" lon="0.92747">
        <ele>249</ele>
        <time>2020-12-13T21:21:53Z</time>
      </trkpt>
      <trkpt lat="44.5762" lon="0.92806">
        <ele>239</ele>
        <time>2020-12-13T21:22:30Z</time>
      </trkpt>
      <trkpt lat="44.57553" lon="0.92835">
        <ele>237</ele>
        <time>2020-12-13T21:22:47Z</time>
      </trkpt>
      <trkpt lat="44.57517" lon="0.92891">
        <ele>239</ele>
        <time>2020-12-13T21:22:59Z</time>
      </trkpt>
      <trkpt lat="44.57504" lon="0.92943">
        <ele>240</ele>
        <time>2020-12-13T21:23:08Z</time>
      </trkpt>
      <trkpt lat="44.57471" lon="0.92938">
        <ele>240</ele>
        <time>2020-12-13T21:23:16Z</time>
      </trkpt>
      <trkpt lat="44.57441" lon="0.92819">
        <ele>244</ele>
        <time>2020-12-13T21:23:37Z</time>
      </trkpt>
      <trkpt lat="44.57351" lon="0.92842">
        <ele>246</ele>
        <time>2020-12-13T21:23:59Z</time>
      </trkpt>
      <trkpt lat="44.57273" lon="0.92896">
        <ele>247</ele>
        <time>2020-12-13T21:24:19Z</time>
      </trkpt>
      <trkpt lat="44.57223" lon="0.92891">
        <ele>248</ele>
        <time>2020-12-13T21:24:31Z</time>
      </trkpt>
      <trkpt lat="44.5717" lon="0.92907">
        <ele>249</ele>
        <time>2020-12-13T21:24:43Z</time>
      </trkpt>
      <trkpt lat="44.5713" lon="0.92951">
        <ele>248</ele>
        <time>2020-12-13T21:24:55Z</time>
      </trkpt>
      <trkpt lat="44.57072" lon="0.92963">
        <ele>248</ele>
        <time>2020-12-13T21:25:09Z</time>
      </trkpt>
      <trkpt lat="44.56909" lon="0.92922">
        <ele>246</ele>
        <time>2020-12-13T21:25:47Z</time>
      </trkpt>
      <trkpt lat="44.56864" lon="0.92951">
        <ele>245</ele>
        <time>2020-12-13T21:25:59Z</time>
      </trkpt>
      <trkpt lat="44.56765" lon="0.92983">
        <ele>246</ele>
        <time>2020-12-13T21:26:23Z</time>
      </trkpt>
      <trkpt lat="44.56764" lon="0.93062">
        <ele>245</ele>
        <time>2020-12-13T21:26:36Z</time>
      </trkpt>
      <trkpt lat="44.56757" lon="0.9314">
        <ele>246</ele>
        <time>2020-12-13T21:26:49Z</time>
      </trkpt>
      <trkpt lat="44.56782" lon="0.9321">
        <ele>244</ele>
        <time>2020-12-13T21:27:02Z</time>
      </trkpt>
      <trkpt lat="44.56811" lon="0.93261">
        <ele>242</ele>
        <time>2020-12-13T21:27:13Z</time>
      </trkpt>
      <trkpt lat="44.56809" lon="0.93295">
        <ele>241</ele>
        <time>2020-12-13T21:27:19Z</time>
      </trkpt>
      <trkpt lat="44.56723" lon="0.93246">
        <ele>244</ele>
        <time>2020-12-13T21:27:40Z</time>
      </trkpt>
      <trkpt lat="44.56689" lon="0.93275">
        <ele>239</ele>
        <time>2020-12-13T21:27:50Z</time>
      </trkpt>
      <trkpt lat="44.56634" lon="0.9327">
        <ele>232</ele>
        <time>2020-12-13T21:28:02Z</time>
      </trkpt>
      <trkpt lat="44.56588" lon="0.93236">
        <ele>223</ele>
        <time>2020-12-13T21:28:15Z</time>
      </trkpt>
      <trkpt lat="44.5654" lon="0.93237">
        <ele>214</ele>
        <time>2020-12-13T21:28:26Z</time>
      </trkpt>
      <trkpt lat="44.56421" lon="0.93257">
        <ele>196</ele>
        <time>2020-12-13T21:28:54Z</time>
      </trkpt>
      <trkpt lat="44.56337" lon="0.93264">
        <ele>193</ele>
        <time>2020-12-13T21:29:13Z</time>
      </trkpt>
      <trkpt lat="44.56305" lon="0.93205">
        <ele>186</ele>
        <time>2020-12-13T21:29:26Z</time>
      </trkpt>
      <trkpt lat="44.5626" lon="0.9318">
        <ele>179</ele>
        <time>2020-12-13T21:29:37Z</time>
      </trkpt>
      <trkpt lat="44.56205" lon="0.93241">
        <ele>181</ele>
        <time>2020-12-13T21:29:53Z</time>
      </trkpt>
      <trkpt lat="44.56149" lon="0.93277">
        <ele>181</ele>
        <time>2020-12-13T21:30:08Z</time>
      </trkpt>
      <trkpt lat="44.56091" lon="0.93272">
        <ele>175</ele>
        <time>2020-12-13T21:30:21Z</time>
      </trkpt>
      <trkpt lat="44.56037" lon="0.93284">
        <ele>174</ele>
        <time>2020-12-13T21:30:34Z</time>
      </trkpt>
      <trkpt lat="44.55973" lon="0.93329">
        <ele>176</ele>
        <time>2020-12-13T21:30:51Z</time>
      </trkpt>
      <trkpt lat="44.55962" lon="0.9338">
        <ele>178</ele>
        <time>2020-12-13T21:31:00Z</time>
      </trkpt>
      <trkpt lat="44.55905" lon="0.93551">
        <ele>188</ele>
        <time>2020-12-13T21:31:31Z</time>
      </trkpt>
      <trkpt lat="44.55864" lon="0.93737">
        <ele>177</ele>
        <time>2020-12-13T21:32:04Z</time>
      </trkpt>
      <trkpt lat="44.55812" lon="0.93782">
        <ele>177</ele>
        <time>2020-12-13T21:32:18Z</time>
      </trkpt>
      <trkpt lat="44.55725" lon="0.93743">
        <ele>184</ele>
        <time>2020-12-13T21:32:39Z</time>
      </trkpt>
      <trkpt lat="44.55677" lon="0.93692">
        <ele>189</ele>
        <time>2020-12-13T21:32:53Z</time>
      </trkpt>
      <trkpt lat="44.55617" lon="0.93676">
        <ele>189</ele>
        <time>2020-12-13T21:33:07Z</time>
      </trkpt>
      <trkpt lat="44.55585" lon="0.93625">
        <ele>195</ele>
        <time>2020-12-13T21:33:19Z</time>
      </trkpt>
      <trkpt lat="44.55603" lon="0.93618">
        <ele>196</ele>
        <time>2020-12-13T21:33:23Z</time>
      </trkpt>
      <trkpt lat="44.55645" lon="0.93577">
        <ele>204</ele>
        <time>2020-12-13T21:33:35Z</time>
      </trkpt>
      <trkpt lat="44.55671" lon="0.9353">
        <ele>211</ele>
        <time>2020-12-13T21:33:45Z</time>
      </trkpt>
      <trkpt lat="44.55733" lon="0.93366">
        <ele>217</ele>
        <time>2020-12-13T21:34:16Z</time>
      </trkpt>
      <trkpt lat="44.55735" lon="0.93266">
        <ele>207</ele>
        <time>2020-12-13T21:34:33Z</time>
      </trkpt>
      <trkpt lat="44.55758" lon="0.93147">
        <ele>208</ele>
        <time>2020-12-13T21:34:53Z</time>
      </trkpt>
      <trkpt lat="44.55771" lon="0.93102">
        <ele>211</ele>
        <time>2020-12-13T21:35:01Z</time>
      </trkpt>
      <trkpt lat="44.55792" lon="0.93066">
        <ele>211</ele>
        <time>2020-12-13T21:35:09Z</time>
      </trkpt>
      <trkpt lat="44.55811" lon="0.92936">
        <ele>210</ele>
        <time>2020-12-13T21:35:31Z</time>
      </trkpt>
      <trkpt lat="44.55818" lon="0.92794">
        <ele>209</ele>
        <time>2020-12-13T21:35:55Z</time>
      </trkpt>
      <trkpt lat="44.55919" lon="0.92628">
        <ele>219</ele>
        <time>2020-12-13T21:36:31Z</time>
      </trkpt>
      <trkpt lat="44.55951" lon="0.92492">
        <ele>215</ele>
        <time>2020-12-13T21:36:55Z</time>
      </trkpt>
      <trkpt lat="44.56001" lon="0.92388">
        <ele>215</ele>
        <time>2020-12-13T21:37:16Z</time>
      </trkpt>
      <trkpt lat="44.56" lon="0.92335">
        <ele>214</ele>
        <time>2020-12-13T21:37:24Z</time>
      </trkpt>
      <trkpt lat="44.56023" lon="0.92238">
        <ele>213</ele>
        <time>2020-12-13T21:37:41Z</time>
      </trkpt>
      <trkpt lat="44.56053" lon="0.92133">
        <ele>212</ele>
        <time>2020-12-13T21:38:00Z</time>
      </trkpt>
      <trkpt lat="44.5607" lon="0.92047">
        <ele>219</ele>
        <time>2020-12-13T21:38:15Z</time>
      </trkpt>
      <trkpt lat="44.56093" lon="0.92019">
        <ele>224</ele>
        <time>2020-12-13T21:38:22Z</time>
      </trkpt>
      <trkpt lat="44.5621" lon="0.91994">
        <ele>230</ele>
        <time>2020-12-13T21:38:50Z</time>
      </trkpt>
      <trkpt lat="44.56332" lon="0.91958">
        <ele>228</ele>
        <time>2020-12-13T21:39:19Z</time>
      </trkpt>
      <trkpt lat="44.56445" lon="0.91882">
        <ele>219</ele>
        <time>2020-12-13T21:39:48Z</time>
      </trkpt>
      <trkpt lat="44.56441" lon="0.91819">
        <ele>219</ele>
        <time>2020-12-13T21:39:59Z</time>
      </trkpt>
      <trkpt lat="44.56426" lon="0.91749">
        <ele>217</ele>
        <time>2020-12-13T21:40:11Z</time>
      </trkpt>
      <trkpt lat="44.56387" lon="0.91662">
        <ele>212</ele>
        <time>2020-12-13T21:40:28Z</time>
      </trkpt>
      <trkpt lat="44.56305" lon="0.91619">
        <ele>214</ele>
        <time>2020-12-13T21:40:49Z</time>
      </trkpt>
      <trkpt lat="44.56217" lon="0.91588">
        <ele>217</ele>
        <time>2020-12-13T21:41:10Z</time>
      </trkpt>
      <trkpt lat="44.56257" lon="0.91402">
        <ele>214</ele>
        <time>2020-12-13T21:41:42Z</time>
      </trkpt>
      <trkpt lat="44.56224" lon="0.91254">
        <ele>204</ele>
        <time>2020-12-13T21:42:08Z</time>
      </trkpt>
      <trkpt lat="44.56184" lon="0.91191">
        <ele>199</ele>
        <time>2020-12-13T21:42:22Z</time>
      </trkpt>
      <trkpt lat="44.56178" lon="0.91148">
        <ele>196</ele>
        <time>2020-12-13T21:42:29Z</time>
      </trkpt>
      <trkpt lat="44.56157" lon="0.91047">
        <ele>197</ele>
        <time>2020-12-13T21:42:47Z</time>
      </trkpt>
      <trkpt lat="44.56117" lon="0.90978">
        <ele>206</ele>
        <time>2020-12-13T21:43:01Z</time>
      </trkpt>
      <trkpt lat="44.56079" lon="0.90798">
        <ele>215</ele>
        <time>2020-12-13T21:43:33Z</time>
      </trkpt>
      <trkpt lat="44.56122" lon="0.9071">
        <ele>212</ele>
        <time>2020-12-13T21:43:50Z</time>
      </trkpt>
      <trkpt lat="44.56145" lon="0.90648">
        <ele>211</ele>
        <time>2020-12-13T21:44:02Z</time>
      </trkpt>
      <trkpt lat="44.56162" lon="0.90551">
        <ele>211</ele>
        <time>2020-12-13T21:44:19Z</time>
      </trkpt>
      <trkpt lat="44.56199" lon="0.90451">
        <ele>211</ele>
        <time>2020-12-13T21:44:37Z</time>
      </trkpt>
      <trkpt lat="44.56237" lon="0.90368">
        <ele>209</ele>
        <time>2020-12-13T21:44:54Z</time>
      </trkpt>
      <trkpt lat="44.56202" lon="0.90262">
        <ele>207</ele>
        <time>2020-12-13T21:45:13Z</time>
      </trkpt>
      <trkpt lat="44.56166" lon="0.90129">
        <ele>204</ele>
        <time>2020-12-13T21:45:37Z</time>
      </trkpt>
      <trkpt lat="44.56122" lon="0.89982">
        <ele>194</ele>
        <time>2020-12-13T21:46:04Z</time>
      </trkpt>
      <trkpt lat="44.56156" lon="0.89914">
        <ele>194</ele>
        <time>2020-12-13T21:46:17Z</time>
      </trkpt>
      <trkpt lat="44.5621" lon="0.8984">
        <ele>185</ele>
        <time>2020-12-13T21:46:35Z</time>
      </trkpt>
      <trkpt lat="44.56248" lon="0.89703">
        <ele>182</ele>
        <time>2020-12-13T21:46:59Z</time>
      </trkpt>
      <trkpt lat="44.56237" lon="0.89629">
        <ele>182</ele>
        <time>2020-12-13T21:47:12Z</time>
      </trkpt>
      <trkpt lat="44.56261" lon="0.89553">
        <ele>180</ele>
        <time>2020-12-13T21:47:26Z</time>
      </trkpt>
      <trkpt lat="44.56301" lon="0.89486">
        <ele>181</ele>
        <time>2020-12-13T21:47:40Z</time>
      </trkpt>
      <trkpt lat="44.56322" lon="0.89459">
        <ele>184</ele>
        <time>2020-12-13T21:47:47Z</time>
      </trkpt>
      <trkpt lat="44.56363" lon="0.89445">
        <ele>184</ele>
        <time>2020-12-13T21:47:57Z</time>
      </trkpt>
      <trkpt lat="44.56435" lon="0.89414">
        <ele>180</ele>
        <time>2020-12-13T21:48:14Z</time>
      </trkpt>
      <trkpt lat="44.56496" lon="0.89418">
        <ele>181</ele>
        <time>2020-12-13T21:48:29Z</time>
      </trkpt>
      <trkpt lat="44.56449" lon="0.89425">
        <ele>181</ele>
        <time>2020-12-13T21:48:40Z</time>
      </trkpt>
      <trkpt lat="44.56436" lon="0.89277">
        <ele>167</ele>
        <time>2020-12-13T21:49:05Z</time>
      </trkpt>
      <trkpt lat="44.56448" lon="0.89147">
        <ele>176</ele>
        <time>2020-12-13T21:49:26Z</time>
      </trkpt>
      <trkpt lat="44.56391" lon="0.89091">
        <ele>178</ele>
        <time>2020-12-13T21:49:43Z</time>
      </trkpt>
      <trkpt lat="44.56381" lon="0.89069">
        <ele>180</ele>
        <time>2020-12-13T21:49:47Z</time>
      </trkpt>
      <trkpt lat="44.56334" lon="0.8901">
        <ele>184</ele>
        <time>2020-12-13T21:50:02Z</time>
      </trkpt>
      <trkpt lat="44.56309" lon="0.88957">
        <ele>183</ele>
        <time>2020-12-13T21:50:12Z</time>
      </trkpt>
      <trkpt lat="44.56243" lon="0.88939">
        <ele>177</ele>
        <time>2020-12-13T21:50:28Z</time>
      </trkpt>
      <trkpt lat="44.56187" lon="0.88918">
        <ele>163</ele>
        <time>2020-12-13T21:50:42Z</time>
      </trkpt>
      <trkpt lat="44.56161" lon="0.88889">
        <ele>152</ele>
        <time>2020-12-13T21:50:49Z</time>
      </trkpt>
      <trkpt lat="44.56099" lon="0.88862">
        <ele>146</ele>
        <time>2020-12-13T21:51:04Z</time>
      </trkpt>
      <trkpt lat="44.56061" lon="0.88795">
        <ele>135</ele>
        <time>2020-12-13T21:51:19Z</time>
      </trkpt>
      <trkpt lat="44.56025" lon="0.8877">
        <ele>133</ele>
        <time>2020-12-13T21:51:28Z</time>
      </trkpt>
      <trkpt lat="44.56046" lon="0.88716">
        <ele>126</ele>
        <time>2020-12-13T21:51:38Z</time>
      </trkpt>
      <trkpt lat="44.56036" lon="0.88681">
        <ele>126</ele>
        <time>2020-12-13T21:51:45Z</time>
      </trkpt>
      <trkpt lat="44.55973" lon="0.88539">
        <ele>132</ele>
        <time>2020-12-13T21:52:12Z</time>
      </trkpt>
      <trkpt lat="44.55906" lon="0.88438">
        <ele>124</ele>
        <time>2020-12-13T21:52:35Z</time>
      </trkpt>
      <trkpt lat="44.55792" lon="0.8833">
        <ele>133</ele>
        <time>2020-12-13T21:53:07Z</time>
      </trkpt>
      <trkpt lat="44.5577" lon="0.88349">
        <ele>134</ele>
        <time>2020-12-13T21:53:14Z</time>
      </trkpt>
      <trkpt lat="44.55721" lon="0.8842">
        <ele>127</ele>
        <time>2020-12-13T21:53:30Z</time>
      </trkpt>
      <trkpt lat="44.55667" lon="0.88413">
        <ele>132</ele>
        <time>2020-12-13T21:53:43Z</time>
      </trkpt>
      <trkpt lat="44.55692" lon="0.88326">
        <ele>138</ele>
        <time>2020-12-13T21:53:58Z</time>
      </trkpt>
      <trkpt lat="44.55748" lon="0.88243">
        <ele>146</ele>
        <time>2020-12-13T21:54:17Z</time>
      </trkpt>
      <trkpt lat="44.5581" lon="0.88144">
        <ele>156</ele>
        <time>2020-12-13T21:54:39Z</time>
      </trkpt>
      <trkpt lat="44.5587" lon="0.87938">
        <ele>169</ele>
        <time>2020-12-13T21:55:16Z</time>
      </trkpt>
      <trkpt lat="44.55837" lon="0.87884">
        <ele>176</ele>
        <time>2020-12-13T21:55:28Z</time>
      </trkpt>
      <trkpt lat="44.55833" lon="0.87812">
        <ele>179</ele>
        <time>2020-12-13T21:55:40Z</time>
      </trkpt>
      <trkpt lat="44.55692" lon="0.87667">
        <ele>170</ele>
        <time>2020-12-13T21:56:21Z</time>
      </trkpt>
      <trkpt lat="44.55715" lon="0.87503">
        <ele>170</ele>
        <time>2020-12-13T21:56:49Z</time>
      </trkpt>
      <trkpt lat="44.55657" lon="0.87431">
        <ele>167</ele>
        <time>2020-12-13T21:57:07Z</time>
      </trkpt>
      <trkpt lat="44.55737" lon="0.87343">
        <ele>166</ele>
        <time>2020-12-13T21:57:31Z</time>
      </trkpt>
      <trkpt lat="44.55796" lon="0.87283">
        <ele>168</ele>
        <time>2020-12-13T21:57:48Z</time>
      </trkpt>
      <trkpt lat="44.55884" lon="0.87269">
        <ele>175</ele>
        <time>2020-12-13T21:58:08Z</time>
      </trkpt>
      <trkpt lat="44.5605" lon="0.87265">
        <ele>189</ele>
        <time>2020-12-13T21:58:47Z</time>
      </trkpt>
      <trkpt lat="44.5618" lon="0.8727">
        <ele>190</ele>
        <time>2020-12-13T21:59:17Z</time>
      </trkpt>
      <trkpt lat="44.56248" lon="0.8726">
        <ele>193</ele>
        <time>2020-12-13T21:59:33Z</time>
      </trkpt>
      <trkpt lat="44.56338" lon="0.87243">
        <ele>197</ele>
        <time>2020-12-13T21:59:55Z</time>
      </trkpt>
      <trkpt lat="44.565" lon="0.87204">
        <ele>202</ele>
        <time>2020-12-13T22:00:33Z</time>
      </trkpt>
      <trkpt lat="44.56638" lon="0.87204">
        <ele>203</ele>
        <time>2020-12-13T22:01:05Z</time>
      </trkpt>
      <trkpt lat="44.56765" lon="0.87171">
        <ele>203</ele>
        <time>2020-12-13T22:01:35Z</time>
      </trkpt>
      <trkpt lat="44.56888" lon="0.87151">
        <ele>201</ele>
        <time>2020-12-13T22:02:04Z</time>
      </trkpt>
      <trkpt lat="44.56996" lon="0.87137">
        <ele>203</ele>
        <time>2020-12-13T22:02:30Z</time>
      </trkpt>
      <trkpt lat="44.57066" lon="0.87101">
        <ele>203</ele>
        <time>2020-12-13T22:02:47Z</time>
      </trkpt>
      <trkpt lat="44.57124" lon="0.87027">
        <ele>202</ele>
        <time>2020-12-13T22:03:05Z</time>
      </trkpt>
      <trkpt lat="44.57178" lon="0.86974">
        <ele>201</ele>
        <time>2020-12-13T22:03:21Z</time>
      </trkpt>
      <trkpt lat="44.57219" lon="0.86895">
        <ele>201</ele>
        <time>2020-12-13T22:03:37Z</time>
      </trkpt>
      <trkpt lat="44.57259" lon="0.86729">
        <ele>205</ele>
        <time>2020-12-13T22:04:06Z</time>
      </trkpt>
      <trkpt lat="44.57354" lon="0.86449">
        <ele>207</ele>
        <time>2020-12-13T22:04:58Z</time>
      </trkpt>
      <trkpt lat="44.57334" lon="0.86361">
        <ele>205</ele>
        <time>2020-12-13T22:05:13Z</time>
      </trkpt>
      <trkpt lat="44.5732" lon="0.86231">
        <ele>199</ele>
        <time>2020-12-13T22:05:35Z</time>
      </trkpt>
      <trkpt lat="44.57318" lon="0.86094">
        <ele>198</ele>
        <time>2020-12-13T22:05:58Z</time>
      </trkpt>
      <trkpt lat="44.57336" lon="0.86007">
        <ele>194</ele>
        <time>2020-12-13T22:06:13Z</time>
      </trkpt>
      <trkpt lat="44.57364" lon="0.8602">
        <ele>195</ele>
        <time>2020-12-13T22:06:20Z</time>
      </trkpt>
      <trkpt lat="44.57422" lon="0.86063">
        <ele>196</ele>
        <time>2020-12-13T22:06:35Z</time>
      </trkpt>
      <trkpt lat="44.57498" lon="0.86074">
        <ele>192</ele>
        <time>2020-12-13T22:06:53Z</time>
      </trkpt>
      <trkpt lat="44.57601" lon="0.8604">
        <ele>191</ele>
        <time>2020-12-13T22:07:18Z</time>
      </trkpt>
      <trkpt lat="44.57863" lon="0.85915">
        <ele>184</ele>
        <time>2020-12-13T22:08:22Z</time>
      </trkpt>
      <trkpt lat="44.57968" lon="0.85861">
        <ele>181</ele>
        <time>2020-12-13T22:08:48Z</time>
      </trkpt>
      <trkpt lat="44.58162" lon="0.85755">
        <ele>184</ele>
        <time>2020-12-13T22:09:37Z</time>
      </trkpt>
      <trkpt lat="44.58238" lon="0.85619">
        <ele>184</ele>
        <time>2020-12-13T22:10:06Z</time>
      </trkpt>
      <trkpt lat="44.58415" lon="0.85554">
        <ele>189</ele>
        <time>2020-12-13T22:10:48Z</time>
      </trkpt>
      <trkpt lat="44.58498" lon="0.8548">
        <ele>190</ele>
        <time>2020-12-13T22:11:11Z</time>
      </trkpt>
      <trkpt lat="44.58553" lon="0.85475">
        <ele>187</ele>
        <time>2020-12-13T22:11:24Z</time>
      </trkpt>
      <trkpt lat="44.58947" lon="0.85562">
        <ele>183</ele>
        <time>2020-12-13T22:12:57Z</time>
      </trkpt>
      <trkpt lat="44.58954" lon="0.85491">
        <ele>182</ele>
        <time>2020-12-13T22:13:09Z</time>
      </trkpt>
      <trkpt lat="44.58836" lon="0.85406">
        <ele>181</ele>
        <time>2020-12-13T22:13:40Z</time>
      </trkpt>
      <trkpt lat="44.5886" lon="0.85365">
        <ele>178</ele>
        <time>2020-12-13T22:13:49Z</time>
      </trkpt>
      <trkpt lat="44.58914" lon="0.85296">
        <ele>175</ele>
        <time>2020-12-13T22:14:06Z</time>
      </trkpt>
      <trkpt lat="44.58973" lon="0.85233">
        <ele>171</ele>
        <time>2020-12-13T22:14:23Z</time>
      </trkpt>
      <trkpt lat="44.59008" lon="0.8519">
        <ele>171</ele>
        <time>2020-12-13T22:14:34Z</time>
      </trkpt>
      <trkpt lat="44.59139" lon="0.85145">
        <ele>167</ele>
        <time>2020-12-13T22:15:06Z</time>
      </trkpt>
      <trkpt lat="44.5922" lon="0.85083">
        <ele>164</ele>
        <time>2020-12-13T22:15:27Z</time>
      </trkpt>
      <trkpt lat="44.59267" lon="0.8506">
        <ele>163</ele>
        <time>2020-12-13T22:15:39Z</time>
      </trkpt>
      <trkpt lat="44.59317" lon="0.85011">
        <ele>164</ele>
        <time>2020-12-13T22:15:53Z</time>
      </trkpt>
      <trkpt lat="44.59342" lon="0.8497">
        <ele>164</ele>
        <time>2020-12-13T22:16:02Z</time>
      </trkpt>
      <trkpt lat="44.59404" lon="0.84856">
        <ele>163</ele>
        <time>2020-12-13T22:16:26Z</time>
      </trkpt>
      <trkpt lat="44.59396" lon="0.84829">
        <ele>162</ele>
        <time>2020-12-13T22:16:31Z</time>
      </trkpt>
      <trkpt lat="44.59446" lon="0.84771">
        <ele>162</ele>
        <time>2020-12-13T22:16:46Z</time>
      </trkpt>
      <trkpt lat="44.5943" lon="0.84694">
        <ele>161</ele>
        <time>2020-12-13T22:16:59Z</time>
      </trkpt>
      <trkpt lat="44.59412" lon="0.84623">
        <ele>162</ele>
        <time>2020-12-13T22:17:12Z</time>
      </trkpt>
      <trkpt lat="44.59391" lon="0.84567">
        <ele>159</ele>
        <time>2020-12-13T22:17:22Z</time>
      </trkpt>
      <trkpt lat="44.59395" lon="0.84542">
        <ele>158</ele>
        <time>2020-12-13T22:17:27Z</time>
      </trkpt>
      <trkpt lat="44.59442" lon="0.84499">
        <ele>158</ele>
        <time>2020-12-13T22:17:40Z</time>
      </trkpt>
      <trkpt lat="44.59612" lon="0.84329">
        <ele>157</ele>
        <time>2020-12-13T22:18:29Z</time>
      </trkpt>
      <trkpt lat="44.59716" lon="0.84199">
        <ele>152</ele>
        <time>2020-12-13T22:19:01Z</time>
      </trkpt>
      <trkpt lat="44.59752" lon="0.84134">
        <ele>148</ele>
        <time>2020-12-13T22:19:15Z</time>
      </trkpt>
      <trkpt lat="44.59821" lon="0.84042">
        <ele>146</ele>
        <time>2020-12-13T22:19:37Z</time>
      </trkpt>
      <trkpt lat="44.59848" lon="0.84001">
        <ele>144</ele>
        <time>2020-12-13T22:19:46Z</time>
      </trkpt>
      <trkpt lat="44.59871" lon="0.84042">
        <ele>145</ele>
        <time>2020-12-13T22:19:55Z</time>
      </trkpt>
      <trkpt lat="44.59955" lon="0.84237">
        <ele>142</ele>
        <time>2020-12-13T22:20:33Z</time>
      </trkpt>
      <trkpt lat="44.59982" lon="0.84253">
        <ele>140</ele>
        <time>2020-12-13T22:20:40Z</time>
      </trkpt>
      <trkpt lat="44.60052" lon="0.84255">
        <ele>134</ele>
        <time>2020-12-13T22:20:56Z</time>
      </trkpt>
      <trkpt lat="44.60083" lon="0.84308">
        <ele>134</ele>
        <time>2020-12-13T22:21:07Z</time>
      </trkpt>
      <trkpt lat="44.60111" lon="0.84281">
        <ele>132</ele>
        <time>2020-12-13T22:21:15Z</time>
      </trkpt>
      <trkpt lat="44.60129" lon="0.84358">
        <ele>138</ele>
        <time>2020-12-13T22:21:29Z</time>
      </trkpt>
      <trkpt lat="44.60128" lon="0.84445">
        <ele>148</ele>
        <time>2020-12-13T22:21:43Z</time>
      </trkpt>
      <trkpt lat="44.60151" lon="0.84582">
        <ele>156</ele>
        <time>2020-12-13T22:22:07Z</time>
      </trkpt>
      <trkpt lat="44.60096" lon="0.84714">
        <ele>161</ele>
        <time>2020-12-13T22:22:32Z</time>
      </trkpt>
      <trkpt lat="44.60083" lon="0.84788">
        <ele>165</ele>
        <time>2020-12-13T22:22:45Z</time>
      </trkpt>
      <trkpt lat="44.60078" lon="0.84954">
        <ele>173</ele>
        <time>2020-12-13T22:23:12Z</time>
      </trkpt>
      <trkpt lat="44.6005" lon="0.85132">
        <ele>175</ele>
        <time>2020-12-13T22:23:43Z</time>
      </trkpt>
      <trkpt lat="44.59986" lon="0.85316">
        <ele>177</ele>
        <time>2020-12-13T22:24:17Z</time>
      </trkpt>
      <trkpt lat="44.59914" lon="0.85475">
        <ele>183</ele>
        <time>2020-12-13T22:24:48Z</time>
      </trkpt>
      <trkpt lat="44.59852" lon="0.85632">
        <ele>186</ele>
        <time>2020-12-13T22:25:18Z</time>
      </trkpt>
      <trkpt lat="44.59836" lon="0.85782">
        <ele>186</ele>
        <time>2020-12-13T22:25:43Z</time>
      </trkpt>
      <trkpt lat="44.59842" lon="0.85892">
        <ele>183</ele>
        <time>2020-12-13T22:26:02Z</time>
      </trkpt>
      <trkpt lat="44.59852" lon="0.85946">
        <ele>183</ele>
        <time>2020-12-13T22:26:11Z</time>
      </trkpt>
      <trkpt lat="44.59876" lon="0.86031">
        <ele>185</ele>
        <time>2020-12-13T22:26:26Z</time>
      </trkpt>
      <trkpt lat="44.59888" lon="0.8611">
        <ele>187</ele>
        <time>2020-12-13T22:26:39Z</time>
      </trkpt>
      <trkpt lat="44.59889" lon="0.86152">
        <ele>188</ele>
        <time>2020-12-13T22:26:46Z</time>
      </trkpt>
      <trkpt lat="44.59903" lon="0.86179">
        <ele>189</ele>
        <time>2020-12-13T22:26:52Z</time>
      </trkpt>
      <trkpt lat="44.59948" lon="0.86173">
        <ele>189</ele>
        <time>2020-12-13T22:27:03Z</time>
      </trkpt>
      <trkpt lat="44.60043" lon="0.86173">
        <ele>189</ele>
        <time>2020-12-13T22:27:25Z</time>
      </trkpt>
      <trkpt lat="44.60073" lon="0.86161">
        <ele>189</ele>
        <time>2020-12-13T22:27:32Z</time>
      </trkpt>
      <trkpt lat="44.60198" lon="0.86126">
        <ele>186</ele>
        <time>2020-12-13T22:28:02Z</time>
      </trkpt>
      <trkpt lat="44.60218" lon="0.86155">
        <ele>186</ele>
        <time>2020-12-13T22:28:08Z</time>
      </trkpt>
      <trkpt lat="44.60254" lon="0.86199">
        <ele>184</ele>
        <time>2020-12-13T22:28:20Z</time>
      </trkpt>
      <trkpt lat="44.603" lon="0.86319">
        <ele>179</ele>
        <time>2020-12-13T22:28:42Z</time>
      </trkpt>
      <trkpt lat="44.60308" lon="0.86348">
        <ele>178</ele>
        <time>2020-12-13T22:28:47Z</time>
      </trkpt>
      <trkpt lat="44.60275" lon="0.86417">
        <ele>179</ele>
        <time>2020-12-13T22:29:01Z</time>
      </trkpt>
      <trkpt lat="44.60251" lon="0.86493">
        <ele>177</ele>
        <time>2020-12-13T22:29:15Z</time>
      </trkpt>
      <trkpt lat="44.60281" lon="0.86509">
        <ele>175</ele>
        <time>2020-12-13T22:29:23Z</time>
      </trkpt>
      <trkpt lat="44.60318" lon="0.86552">
        <ele>173</ele>
        <time>2020-12-13T22:29:34Z</time>
      </trkpt>
      <trkpt lat="44.60327" lon="0.8661">
        <ele>172</ele>
        <time>2020-12-13T22:29:44Z</time>
      </trkpt>
      <trkpt lat="44.60325" lon="0.86671">
        <ele>171</ele>
        <time>2020-12-13T22:29:54Z</time>
      </trkpt>
      <trkpt lat="44.60312" lon="0.86753">
        <ele>171</ele>
        <time>2020-12-13T22:30:08Z</time>
      </trkpt>
      <trkpt lat="44.60402" lon="0.86755">
        <ele>170</ele>
        <time>2020-12-13T22:30:29Z</time>
      </trkpt>
      <trkpt lat="44.60474" lon="0.86726">
        <ele>175</ele>
        <time>2020-12-13T22:30:46Z</time>
      </trkpt>
      <trkpt lat="44.6052" lon="0.86665">
        <ele>179</ele>
        <time>2020-12-13T22:31:01Z</time>
      </trkpt>
      <trkpt lat="44.60597" lon="0.86694">
        <ele>186</ele>
        <time>2020-12-13T22:31:20Z</time>
      </trkpt>
      <trkpt lat="44.60641" lon="0.86687">
        <ele>187</ele>
        <time>2020-12-13T22:31:30Z</time>
      </trkpt>
      <trkpt lat="44.60695" lon="0.86694">
        <ele>189</ele>
        <time>2020-12-13T22:31:43Z</time>
      </trkpt>
      <trkpt lat="44.60726" lon="0.86726">
        <ele>191</ele>
        <time>2020-12-13T22:31:52Z</time>
      </trkpt>
      <trkpt lat="44.60787" lon="0.86755">
        <ele>193</ele>
        <time>2020-12-13T22:32:07Z</time>
      </trkpt>
      <trkpt lat="44.60828" lon="0.86791">
        <ele>192</ele>
        <time>2020-12-13T22:32:18Z</time>
      </trkpt>
      <trkpt lat="44.60885" lon="0.86744">
        <ele>191</ele>
        <time>2020-12-13T22:32:33Z</time>
      </trkpt>
      <trkpt lat="44.60892" lon="0.86734">
        <ele>190</ele>
        <time>2020-12-13T22:32:36Z</time>
      </trkpt>
      <trkpt lat="44.61054" lon="0.86633">
        <ele>190</ele>
        <time>2020-12-13T22:33:17Z</time>
      </trkpt>
      <trkpt lat="44.61119" lon="0.86604">
        <ele>188</ele>
        <time>2020-12-13T22:33:33Z</time>
      </trkpt>
      <trkpt lat="44.61155" lon="0.86542">
        <ele>187</ele>
        <time>2020-12-13T22:33:46Z</time>
      </trkpt>
      <trkpt lat="44.61137" lon="0.86651">
        <ele>187</ele>
        <time>2020-12-13T22:34:05Z</time>
      </trkpt>
      <trkpt lat="44.61088" lon="0.86878">
        <ele>180</ele>
        <time>2020-12-13T22:34:44Z</time>
      </trkpt>
      <trkpt lat="44.61057" lon="0.8695">
        <ele>178</ele>
        <time>2020-12-13T22:34:58Z</time>
      </trkpt>
      <trkpt lat="44.61057" lon="0.86993">
        <ele>178</ele>
        <time>2020-12-13T22:35:06Z</time>
      </trkpt>
      <trkpt lat="44.61042" lon="0.87138">
        <ele>175</ele>
        <time>2020-12-13T22:35:30Z</time>
      </trkpt>
      <trkpt lat="44.61003" lon="0.87217">
        <ele>174</ele>
        <time>2020-12-13T22:35:46Z</time>
      </trkpt>
      <trkpt lat="44.6097" lon="0.87293">
        <ele>171</ele>
        <time>2020-12-13T22:36:01Z</time>
      </trkpt>
      <trkpt lat="44.60918" lon="0.87398">
        <ele>166</ele>
        <time>2020-12-13T22:36:22Z</time>
      </trkpt>
      <trkpt lat="44.60864" lon="0.87524">
        <ele>164</ele>
        <time>2020-12-13T22:36:46Z</time>
      </trkpt>
      <trkpt lat="44.60831" lon="0.87585">
        <ele>167</ele>
        <time>2020-12-13T22:36:59Z</time>
      </trkpt>
      <trkpt lat="44.60726" lon="0.87636">
        <ele>166</ele>
        <time>2020-12-13T22:37:25Z</time>
      </trkpt>
      <trkpt lat="44.60718" lon="0.87683">
        <ele>167</ele>
        <time>2020-12-13T22:37:33Z</time>
      </trkpt>
      <trkpt lat="44.60695" lon="0.87712">
        <ele>169</ele>
        <time>2020-12-13T22:37:40Z</time>
      </trkpt>
      <trkpt lat="44.60682" lon="0.87787">
        <ele>172</ele>
        <time>2020-12-13T22:37:53Z</time>
      </trkpt>
      <trkpt lat="44.60651" lon="0.87798">
        <ele>174</ele>
        <time>2020-12-13T22:38:01Z</time>
      </trkpt>
      <trkpt lat="44.60641" lon="0.87787">
        <ele>173</ele>
        <time>2020-12-13T22:38:04Z</time>
      </trkpt>
      <trkpt lat="44.60623" lon="0.87827">
        <ele>177</ele>
        <time>2020-12-13T22:38:12Z</time>
      </trkpt>
      <trkpt lat="44.606" lon="0.87867">
        <ele>182</ele>
        <time>2020-12-13T22:38:20Z</time>
      </trkpt>
      <trkpt lat="44.60589" lon="0.87878">
        <ele>184</ele>
        <time>2020-12-13T22:38:23Z</time>
      </trkpt>
      <trkpt lat="44.60605" lon="0.87961">
        <ele>189</ele>
        <time>2020-12-13T22:38:38Z</time>
      </trkpt>
      <trkpt lat="44.60646" lon="0.88011">
        <ele>189</ele>
        <time>2020-12-13T22:38:50Z</time>
      </trkpt>
      <trkpt lat="44.60664" lon="0.88083">
        <ele>194</ele>
        <time>2020-12-13T22:39:03Z</time>
      </trkpt>
      <trkpt lat="44.60715" lon="0.88155">
        <ele>199</ele>
        <time>2020-12-13T22:39:20Z</time>
      </trkpt>
      <trkpt lat="44.60831" lon="0.88163">
        <ele>199</ele>
        <time>2020-12-13T22:39:47Z</time>
      </trkpt>
      <trkpt lat="44.60836" lon="0.88238">
        <ele>203</ele>
        <time>2020-12-13T22:39:59Z</time>
      </trkpt>
      <trkpt lat="44.60837" lon="0.8831">
        <ele>208</ele>
        <time>2020-12-13T22:40:11Z</time>
      </trkpt>
      <trkpt lat="44.60841" lon="0.88351">
        <ele>210</ele>
        <time>2020-12-13T22:40:18Z</time>
      </trkpt>
      <trkpt lat="44.60898" lon="0.88369">
        <ele>210</ele>
        <time>2020-12-13T22:40:32Z</time>
      </trkpt>
      <trkpt lat="44.60937" lon="0.88376">
        <ele>210</ele>
        <time>2020-12-13T22:40:41Z</time>
      </trkpt>
      <trkpt lat="44.6094" lon="0.88413">
        <ele>209</ele>
        <time>2020-12-13T22:40:47Z</time>
      </trkpt>
      <trkpt lat="44.60977" lon="0.88422">
        <ele>207</ele>
        <time>2020-12-13T22:40:56Z</time>
      </trkpt>
      <trkpt lat="44.60993" lon="0.88496">
        <ele>198</ele>
        <time>2020-12-13T22:41:09Z</time>
      </trkpt>
      <trkpt lat="44.61027" lon="0.88548">
        <ele>195</ele>
        <time>2020-12-13T22:41:21Z</time>
      </trkpt>
      <trkpt lat="44.61038" lon="0.88586">
        <ele>193</ele>
        <time>2020-12-13T22:41:27Z</time>
      </trkpt>
      <trkpt lat="44.61033" lon="0.88707">
        <ele>191</ele>
        <time>2020-12-13T22:41:48Z</time>
      </trkpt>
      <trkpt lat="44.6103" lon="0.88734">
        <ele>191</ele>
        <time>2020-12-13T22:41:52Z</time>
      </trkpt>
      <trkpt lat="44.60997" lon="0.88763">
        <ele>191</ele>
        <time>2020-12-13T22:42:01Z</time>
      </trkpt>
      <trkpt lat="44.60963" lon="0.88788">
        <ele>190</ele>
        <time>2020-12-13T22:42:10Z</time>
      </trkpt>
      <trkpt lat="44.60899" lon="0.88851">
        <ele>186</ele>
        <time>2020-12-13T22:42:28Z</time>
      </trkpt>
      <trkpt lat="44.60849" lon="0.88876">
        <ele>188</ele>
        <time>2020-12-13T22:42:41Z</time>
      </trkpt>
      <trkpt lat="44.60808" lon="0.88907">
        <ele>188</ele>
        <time>2020-12-13T22:42:52Z</time>
      </trkpt>
      <trkpt lat="44.60745" lon="0.88943">
        <ele>186</ele>
        <time>2020-12-13T22:43:08Z</time>
      </trkpt>
      <trkpt lat="44.60672" lon="0.88977">
        <ele>185</ele>
        <time>2020-12-13T22:43:26Z</time>
      </trkpt>
      <trkpt lat="44.60525" lon="0.89035">
        <ele>180</ele>
        <time>2020-12-13T22:44:01Z</time>
      </trkpt>
      <trkpt lat="44.60457" lon="0.89071">
        <ele>178</ele>
        <time>2020-12-13T22:44:18Z</time>
      </trkpt>
      <trkpt lat="44.60327" lon="0.89167">
        <ele>172</ele>
        <time>2020-12-13T22:44:53Z</time>
      </trkpt>
      <trkpt lat="44.60278" lon="0.89241">
        <ele>174</ele>
        <time>2020-12-13T22:45:09Z</time>
      </trkpt>
      <trkpt lat="44.60244" lon="0.89246">
        <ele>174</ele>
        <time>2020-12-13T22:45:17Z</time>
      </trkpt>
      <trkpt lat="44.60187" lon="0.89273">
        <ele>172</ele>
        <time>2020-12-13T22:45:31Z</time>
      </trkpt>
      <trkpt lat="44.60167" lon="0.89306">
        <ele>172</ele>
        <time>2020-12-13T22:45:39Z</time>
      </trkpt>
      <trkpt lat="44.60152" lon="0.89306">
        <ele>173</ele>
        <time>2020-12-13T22:45:42Z</time>
      </trkpt>
      <trkpt lat="44.60135" lon="0.8933">
        <ele>174</ele>
        <time>2020-12-13T22:45:48Z</time>
      </trkpt>
      <trkpt lat="44.60131" lon="0.89352">
        <ele>173</ele>
        <time>2020-12-13T22:45:51Z</time>
      </trkpt>
      <trkpt lat="44.60124" lon="0.89369">
        <ele>173</ele>
        <time>2020-12-13T22:45:55Z</time>
      </trkpt>
      <trkpt lat="44.60116" lon="0.89403">
        <ele>172</ele>
        <time>2020-12-13T22:46:01Z</time>
      </trkpt>
      <trkpt lat="44.60097" lon="0.8945">
        <ele>172</ele>
        <time>2020-12-13T22:46:10Z</time>
      </trkpt>
      <trkpt lat="44.60079" lon="0.89482">
        <ele>173</ele>
        <time>2020-12-13T22:46:16Z</time>
      </trkpt>
      <trkpt lat="44.60072" lon="0.89501">
        <ele>173</ele>
        <time>2020-12-13T22:46:20Z</time>
        <extensions>
          <visugpx:TrkExtension xmlns:visugpx="https://www.visugpx.com/editgpx/">
            <visugpx:node>1</visugpx:node>
            </visugpx:TrkExtension>
        </extensions>
      </trkpt>
    </trkseg>
  </trk>
</gpx>